Warning: Javascript must be enabled to use all the features on this page!


Page Loading - Please Wait...

Click to hideNews Bulletins
Click to hide state-specific text

Welcome to the NWIS-Web for the Arizona Water Science Center


The majority of USGS Gaging Stations are funded though a cooperative program between the USGS other interested agencies.
Follow this link for information on the Cooperative Water Program with the USGS.


Threatened and Endangered USGS Gaging Stations in Arizona
Colorado Basin River Forecast Center - provided by the National Weather Service, AHPS. CBRFC on Google Maps.
Arizona Water Science Center Home Page

USGS 09471400 BABOCOMARI RIVER NEAR TOMBSTONE, AZ.

PROVISIONAL DATA SUBJECT TO REVISION

Click to hidestation-specific text
Station operated in cooperation with Cochise County, the Bureau of Land Management, and the U.S. Army at Fort Huachuca.

HIGH DATA RATE (Site data are transmitted & updated hourly)
rainfall Arrow
This station managed by the Tucson Field Office; USGS, AZ-WSC.

Available Parameters Available Period
All 3 Available Parameters for this site
  
00060 Discharge 2007-10-01  2014-10-24
00065 Gage height 2007-10-01  2014-10-24
00045 Precipitation 2014-06-26  2014-10-24

Graph
Graph w/ stats
Graph w/o stats
Graph w/ (up to 3) parms
Table
Tab-separated
Days  (31)
 

  -- or --
Begin date
 

End date
 

Summary of all available data for this site
Instantaneous-data availability statement






Date / Time




Dis-
charge,
ft3/s,




Gage
height,
feet,



Precip-
itation
total,
inches,
09/23/2014 00:00 MST1.5P  1.15P  0.00P  
09/23/2014 00:15 MST1.4P  1.13P  0.00P  
09/23/2014 00:30 MST1.2P  1.09P  0.00P  
09/23/2014 00:45 MST1.4P  1.13P  0.00P  
09/23/2014 01:00 MST1.5P  1.14P  0.00P  
09/23/2014 01:15 MST1.2P  1.10P  0.00P  
09/23/2014 01:30 MST0.97P  1.05P  0.00P  
09/23/2014 01:45 MST0.97P  1.05P  0.00P  
09/23/2014 02:00 MST0.97P  1.05P  0.00P  
09/23/2014 02:15 MST0.97P  1.05P  0.00P  
09/23/2014 02:30 MST1.2P  1.10P  0.00P  
09/23/2014 02:45 MST0.97P  1.05P  0.00P  
09/23/2014 03:00 MST0.89P  1.03P  0.00P  
09/23/2014 03:15 MST0.97P  1.05P  0.00P  
09/23/2014 03:30 MST1.2P  1.09P  0.00P  
09/23/2014 03:45 MST0.93P  1.04P  0.00P  
09/23/2014 04:00 MST1.1P  1.08P  0.00P  
09/23/2014 04:15 MST0.82P  1.02P  0.00P  
09/23/2014 04:30 MST1.0P  1.07P  0.00P  
09/23/2014 04:45 MST1.0P  1.07P  0.00P  
09/23/2014 05:00 MST1.0P  1.06P  0.00P  
09/23/2014 05:15 MST0.78P  1.01P  0.00P  
09/23/2014 05:30 MST0.93P  1.04P  0.00P  
09/23/2014 05:45 MST0.93P  1.04P  0.00P  
09/23/2014 06:00 MST0.89P  1.03P  0.00P  
09/23/2014 06:15 MST0.89P  1.03P  0.00P  
09/23/2014 06:30 MST0.89P  1.03P  0.00P  
09/23/2014 06:45 MST0.97P  1.05P  0.00P  
09/23/2014 07:00 MST0.97P  1.05P  0.00P  
09/23/2014 07:15 MST0.97P  1.05P  0.00P  
09/23/2014 07:30 MST1.0P  1.07P  0.00P  
09/23/2014 07:45 MST0.93P  1.04P  0.00P  
09/23/2014 08:00 MST0.89P  1.03P  0.00P  
09/23/2014 08:15 MST1.0P  1.06P  0.00P  
09/23/2014 08:30 MST0.93P  1.04P  0.00P  
09/23/2014 08:45 MST0.89P  1.03P  0.00P  
09/23/2014 09:00 MST0.97P  1.05P  0.00P  
09/23/2014 09:15 MST0.89P  1.03P  0.00P  
09/23/2014 09:30 MST0.97P  1.05P  0.00P  
09/23/2014 09:45 MST0.78P  1.01P  0.00P  
09/23/2014 10:00 MST0.89P  1.03P  0.00P  
09/23/2014 10:15 MST0.97P  1.05P  0.00P  
09/23/2014 10:30 MST0.97P  1.05P  0.00P  
09/23/2014 10:45 MST0.97P  1.05P  0.00P  
09/23/2014 11:00 MST1.0P  1.06P  0.00P  
09/23/2014 11:15 MST0.93P  1.04P  0.00P  
09/23/2014 11:30 MST0.89P  1.03P  0.00P  
09/23/2014 11:45 MST0.97P  1.05P  0.00P  
09/23/2014 12:00 MST0.93P  1.04P  0.00P  
09/23/2014 12:15 MST0.97P  1.05P  0.00P  
09/23/2014 12:30 MST1.0P  1.07P  0.00P  
09/23/2014 12:45 MST0.97P  1.05P  0.00P  
09/23/2014 13:00 MST1.0P  1.06P  0.00P  
09/23/2014 13:15 MST0.78P  1.01P  0.00P  
09/23/2014 13:30 MST0.78P  1.01P  0.00P  
09/23/2014 13:45 MST1.0P  1.06P  0.00P  
09/23/2014 14:00 MST0.78P  1.01P  0.00P  
09/23/2014 14:15 MST0.93P  1.04P  0.00P  
09/23/2014 14:30 MST0.97P  1.05P  0.00P  
09/23/2014 14:45 MST0.78P  1.01P  0.00P  
09/23/2014 15:00 MST0.93P  1.04P  0.00P  
09/23/2014 15:15 MST0.71P  0.99P  0.00P  
09/23/2014 15:30 MST0.89P  1.03P  0.00P  
09/23/2014 15:45 MST0.97P  1.05P  0.00P  
09/23/2014 16:00 MST0.71P  0.99P  0.00P  
09/23/2014 16:15 MST0.71P  0.99P  0.00P  
09/23/2014 16:30 MST0.71P  0.99P  0.00P  
09/23/2014 16:45 MST0.89P  1.03P  0.00P  
09/23/2014 17:00 MST0.97P  1.05P  0.00P  
09/23/2014 17:15 MST0.71P  0.99P  0.00P  
09/23/2014 17:30 MST0.71P  0.99P  0.00P  
09/23/2014 17:45 MST0.75P  1.00P  0.00P  
09/23/2014 18:00 MST0.89P  1.03P  0.00P  
09/23/2014 18:15 MST0.71P  0.99P  0.00P  
09/23/2014 18:30 MST0.82P  1.02P  0.00P  
09/23/2014 18:45 MST0.82P  1.02P  0.00P  
09/23/2014 19:00 MST0.97P  1.05P  0.00P  
09/23/2014 19:15 MST0.71P  0.99P  0.00P  
09/23/2014 19:30 MST0.82P  1.02P  0.00P  
09/23/2014 19:45 MST0.93P  1.04P  0.00P  
09/23/2014 20:00 MST0.82P  1.02P  0.00P  
09/23/2014 20:15 MST0.89P  1.03P  0.00P  
09/23/2014 20:30 MST0.97P  1.05P  0.00P  
09/23/2014 20:45 MST0.93P  1.04P  0.00P  
09/23/2014 21:00 MST0.93P  1.04P  0.00P  
09/23/2014 21:15 MST1.0P  1.06P  0.00P  
09/23/2014 21:30 MST0.89P  1.03P  0.00P  
09/23/2014 21:45 MST0.93P  1.04P  0.00P  
09/23/2014 22:00 MST0.89P  1.03P  0.00P  
09/23/2014 22:15 MST0.89P  1.03P  0.00P  
09/23/2014 22:30 MST0.75P  1.00P  0.00P  
09/23/2014 22:45 MST0.93P  1.04P  0.00P  
09/23/2014 23:00 MST0.75P  1.00P  0.00P  
09/23/2014 23:15 MST0.68P  0.98P  0.00P  
09/23/2014 23:30 MST1.0P  1.06P  0.00P  
09/23/2014 23:45 MST0.93P  1.04P  0.00P  
09/24/2014 00:00 MST0.93P  1.04P  0.00P  
09/24/2014 00:15 MST0.97P  1.05P  0.00P  
09/24/2014 00:30 MST0.89P  1.03P  0.00P  
09/24/2014 00:45 MST0.75P  1.00P  0.00P  
09/24/2014 01:00 MST0.82P  1.02P  0.00P  
09/24/2014 01:15 MST0.75P  1.00P  0.00P  
09/24/2014 01:30 MST1.0P  1.06P  0.00P  
09/24/2014 01:45 MST0.97P  1.05P  0.00P  
09/24/2014 02:00 MST1.0P  1.06P  0.00P  
09/24/2014 02:15 MST0.89P  1.03P  0.00P  
09/24/2014 02:30 MST1.0P  1.06P  0.00P  
09/24/2014 02:45 MST0.75P  1.00P  0.00P  
09/24/2014 03:00 MST0.89P  1.03P  0.00P  
09/24/2014 03:15 MST0.82P  1.02P  0.00P  
09/24/2014 03:30 MST0.71P  0.99P  0.00P  
09/24/2014 03:45 MST0.89P  1.03P  0.00P  
09/24/2014 04:00 MST0.75P  1.00P  0.00P  
09/24/2014 04:15 MST0.78P  1.01P  0.00P  
09/24/2014 04:30 MST0.82P  1.02P  0.00P  
09/24/2014 04:45 MST0.89P  1.03P  0.00P  
09/24/2014 05:00 MST0.89P  1.03P  0.00P  
09/24/2014 05:15 MST1.0P  1.06P  0.00P  
09/24/2014 05:30 MST0.93P  1.04P  0.00P  
09/24/2014 05:45 MST0.93P  1.04P  0.00P  
09/24/2014 06:00 MST0.75P  1.00P  0.00P  
09/24/2014 06:15 MST1.0P  1.06P  0.00P  
09/24/2014 06:30 MST0.78P  1.01P  0.00P  
09/24/2014 06:45 MST0.82P  1.02P  0.00P  
09/24/2014 07:00 MST0.93P  1.04P  0.00P  
09/24/2014 07:15 MST0.82P  1.02P  0.00P  
09/24/2014 07:30 MST1.0P  1.06P  0.00P  
09/24/2014 07:45 MST1.0P  1.06P  0.00P  
09/24/2014 08:00 MST0.82P  1.02P  0.00P  
09/24/2014 08:15 MST0.93P  1.04P  0.00P  
09/24/2014 08:30 MST0.75P  1.00P  0.00P  
09/24/2014 08:45 MST0.97P  1.05P  0.00P  
09/24/2014 09:00 MST0.93P  1.04P  0.00P  
09/24/2014 09:15 MST0.78P  1.01P  0.00P  
09/24/2014 09:30 MST1.0P  1.06P  0.00P  
09/24/2014 09:45 MST0.89P  1.03P  0.00P  
09/24/2014 10:00 MST0.97P  1.05P  0.00P  
09/24/2014 10:15 MST0.78P  1.01P  0.00P  
09/24/2014 10:30 MST1.0P  1.06P  0.00P  
09/24/2014 10:45 MST0.78P  1.01P  0.00P  
09/24/2014 11:00 MST0.93P  1.04P  0.00P  
09/24/2014 11:15 MST0.97P  1.05P  0.00P  
09/24/2014 11:30 MST0.93P  1.04P  0.00P  
09/24/2014 11:45 MST0.82P  1.02P  0.00P  
09/24/2014 12:00 MST0.93P  1.04P  0.00P  
09/24/2014 12:15 MST0.75P  1.00P  0.00P  
09/24/2014 12:30 MST0.97P  1.05P  0.00P  
09/24/2014 12:45 MST0.82P  1.02P  0.00P  
09/24/2014 13:00 MST0.75P  1.00P  0.00P  
09/24/2014 13:15 MST0.71P  0.99P  0.00P  
09/24/2014 13:30 MST0.89P  1.03P  0.00P  
09/24/2014 13:45 MST0.93P  1.04P  0.00P  
09/24/2014 14:00 MST0.75P  1.00P  0.00P  
09/24/2014 14:15 MST0.75P  1.00P  0.00P  
09/24/2014 14:30 MST0.82P  1.02P  0.00P  
09/24/2014 14:45 MST0.59P  0.95P  0.00P  
09/24/2014 15:00 MST0.75P  1.00P  0.00P  
09/24/2014 15:15 MST0.82P  1.02P  0.00P  
09/24/2014 15:30 MST0.71P  0.99P  0.00P  
09/24/2014 15:45 MST0.89P  1.03P  0.00P  
09/24/2014 16:00 MST0.82P  1.02P  0.00P  
09/24/2014 16:15 MST0.78P  1.01P  0.00P  
09/24/2014 16:30 MST0.78P  1.01P  0.00P  
09/24/2014 16:45 MST0.65P  0.97P  0.00P  
09/24/2014 17:00 MST0.75P  1.00P  0.00P  
09/24/2014 17:15 MST0.75P  1.00P  0.00P  
09/24/2014 17:30 MST0.75P  1.00P  0.00P  
09/24/2014 17:45 MST0.71P  0.99P  0.00P  
09/24/2014 18:00 MST0.78P  1.01P  0.00P  
09/24/2014 18:15 MST0.93P  1.04P  0.00P  
09/24/2014 18:30 MST0.68P  0.98P  0.00P  
09/24/2014 18:45 MST0.89P  1.03P  0.00P  
09/24/2014 19:00 MST0.82P  1.02P  0.00P  
09/24/2014 19:15 MST0.82P  1.02P  0.00P  
09/24/2014 19:30 MST0.93P  1.04P  0.00P  
09/24/2014 19:45 MST0.78P  1.01P  0.00P  
09/24/2014 20:00 MST0.89P  1.03P  0.00P  
09/24/2014 20:15 MST0.65P  0.97P  0.00P  
09/24/2014 20:30 MST0.68P  0.98P  0.00P  
09/24/2014 20:45 MST0.65P  0.97P  0.00P  
09/24/2014 21:00 MST0.97P  1.05P  0.00P  
09/24/2014 21:15 MST0.68P  0.98P  0.00P  
09/24/2014 21:30 MST0.75P  1.00P  0.00P  
09/24/2014 21:45 MST0.97P  1.05P  0.00P  
09/24/2014 22:00 MST0.93P  1.04P  0.00P  
09/24/2014 22:15 MST0.54P  0.93P  0.00P  
09/24/2014 22:30 MST0.68P  0.98P  0.00P  
09/24/2014 22:45 MST0.71P  0.99P  0.00P  
09/24/2014 23:00 MST0.78P  1.01P  0.00P  
09/24/2014 23:15 MST0.71P  0.99P  0.00P  
09/24/2014 23:30 MST0.68P  0.98P  0.00P  
09/24/2014 23:45 MST0.82P  1.02P  0.00P  
09/25/2014 00:00 MST0.78P  1.01P  0.00P  
09/25/2014 00:15 MST0.78P  1.01P  0.00P  
09/25/2014 00:30 MST0.68P  0.98P  0.00P  
09/25/2014 00:45 MST0.78P  1.01P  0.00P  
09/25/2014 01:00 MST0.65P  0.97P  0.00P  
09/25/2014 01:15 MST0.65P  0.97P  0.00P  
09/25/2014 01:30 MST0.71P  0.99P  0.00P  
09/25/2014 01:45 MST0.71P  0.99P  0.00P  
09/25/2014 02:00 MST0.71P  0.99P  0.00P  
09/25/2014 02:15 MST0.89P  1.03P  0.00P  
09/25/2014 02:30 MST0.68P  0.98P  0.00P  
09/25/2014 02:45 MST0.71P  0.99P  0.00P  
09/25/2014 03:00 MST0.71P  0.99P  0.00P  
09/25/2014 03:15 MST0.68P  0.98P  0.00P  
09/25/2014 03:30 MST0.75P  1.00P  0.00P  
09/25/2014 03:45 MST0.68P  0.98P  0.00P  
09/25/2014 04:00 MST0.71P  0.99P  0.00P  
09/25/2014 04:15 MST0.71P  0.99P  0.00P  
09/25/2014 04:30 MST0.71P  0.99P  0.00P  
09/25/2014 04:45 MST0.89P  1.03P  0.00P  
09/25/2014 05:00 MST1.0P  1.06P  0.00P  
09/25/2014 05:15 MST0.65P  0.97P  0.00P  
09/25/2014 05:30 MST0.71P  0.99P  0.00P  
09/25/2014 05:45 MST0.75P  1.00P  0.00P  
09/25/2014 06:00 MST0.82P  1.02P  0.00P  
09/25/2014 06:15 MST0.62P  0.96P  0.00P  
09/25/2014 06:30 MST0.93P  1.04P  0.00P  
09/25/2014 06:45 MST0.82P  1.02P  0.00P  
09/25/2014 07:00 MST0.97P  1.05P  0.00P  
09/25/2014 07:15 MST0.71P  0.99P  0.00P  
09/25/2014 07:30 MST0.62P  0.96P  0.00P  
09/25/2014 07:45 MST0.75P  1.00P  0.00P  
09/25/2014 08:00 MST0.82P  1.02P  0.00P  
09/25/2014 08:15 MST0.71P  0.99P  0.00P  
09/25/2014 08:30 MST1.0P  1.06P  0.00P  
09/25/2014 08:45 MST0.97P  1.05P  0.00P  
09/25/2014 09:00 MST0.82P  1.02P  0.00P  
09/25/2014 09:15 MST0.75P  1.00P  0.00P  
09/25/2014 09:30 MST0.78P  1.01P  0.00P  
09/25/2014 09:45 MST0.65P  0.97P  0.00P  
09/25/2014 10:00 MST0.68P  0.98P  0.00P  
09/25/2014 10:15 MST0.62P  0.96P  0.00P  
09/25/2014 10:30 MST0.71P  0.99P  0.00P  
09/25/2014 10:45 MST0.75P  1.00P  0.00P  
09/25/2014 11:00 MST0.75P  1.00P  0.00P  
09/25/2014 11:15 MST0.71P  0.99P  0.00P  
09/25/2014 11:30 MST0.71P  0.99P  0.00P  
09/25/2014 11:45 MST0.68P  0.98P  0.00P  
09/25/2014 12:00 MST0.71P  0.99P  0.00P  
09/25/2014 12:15 MST0.82P  1.02P  0.00P  
09/25/2014 12:30 MST0.68P  0.98P  0.00P  
09/25/2014 12:45 MST0.71P  0.99P  0.00P  
09/25/2014 13:00 MST0.75P  1.00P  0.00P  
09/25/2014 13:15 MST0.68P  0.98P  0.00P  
09/25/2014 13:30 MST0.68P  0.98P  0.00P  
09/25/2014 13:45 MST0.75P  1.00P  0.00P  
09/25/2014 14:00 MST0.68P  0.98P  0.00P  
09/25/2014 14:15 MST0.62P  0.96P  0.00P  
09/25/2014 14:30 MST0.65P  0.97P  0.00P  
09/25/2014 14:45 MST0.57P  0.94P  0.00P  
09/25/2014 15:00 MST0.52P  0.92P  0.00P  
09/25/2014 15:15 MST0.49P  0.91P  0.00P  
09/25/2014 15:30 MST0.49P  0.91P  0.00P  
09/25/2014 15:45 MST0.59P  0.95P  0.00P  
09/25/2014 16:00 MST0.57P  0.94P  0.00P  
09/25/2014 16:15 MST0.68P  0.98P  0.00P  
09/25/2014 16:30 MST0.68P  0.98P  0.00P  
09/25/2014 16:45 MST0.68P  0.98P  0.00P  
09/25/2014 17:00 MST0.68P  0.98P  0.00P  
09/25/2014 17:15 MST0.68P  0.98P  0.00P  
09/25/2014 17:30 MST0.68P  0.98P  0.00P  
09/25/2014 17:45 MST0.68P  0.98P  0.00P  
09/25/2014 18:00 MST0.68P  0.98P  0.00P  
09/25/2014 18:15 MST0.68P  0.98P  0.00P  
09/25/2014 18:30 MST0.68P  0.98P  0.00P  
09/25/2014 18:45 MST0.59P  0.95P  0.00P  
09/25/2014 19:00 MST0.62P  0.96P  0.00P  
09/25/2014 19:15 MST0.78P  1.01P  0.00P  
09/25/2014 19:30 MST0.65P  0.97P  0.00P  
09/25/2014 19:45 MST0.71P  0.99P  0.00P  
09/25/2014 20:00 MST0.62P  0.96P  0.00P  
09/25/2014 20:15 MST0.62P  0.96P  0.00P  
09/25/2014 20:30 MST0.68P  0.98P  0.00P  
09/25/2014 20:45 MST0.65P  0.97P  0.00P  
09/25/2014 21:00 MST0.57P  0.94P  0.00P  
09/25/2014 21:15 MST0.57P  0.94P  0.00P  
09/25/2014 21:30 MST0.57P  0.94P  0.00P  
09/25/2014 21:45 MST0.57P  0.94P  0.00P  
09/25/2014 22:00 MST0.59P  0.95P  0.00P  
09/25/2014 22:15 MST0.71P  0.99P  0.00P  
09/25/2014 22:30 MST0.62P  0.96P  0.00P  
09/25/2014 22:45 MST0.68P  0.98P  0.00P  
09/25/2014 23:00 MST0.68P  0.98P  0.00P  
09/25/2014 23:15 MST0.71P  0.99P  0.00P  
09/25/2014 23:30 MST0.75P  1.00P  0.00P  
09/25/2014 23:45 MST0.68P  0.98P  0.00P  
09/26/2014 00:00 MST0.68P  0.98P  0.00P  
09/26/2014 00:15 MST0.65P  0.97P  0.00P  
09/26/2014 00:30 MST0.71P  0.99P  0.00P  
09/26/2014 00:45 MST0.57P  0.94P  0.00P  
09/26/2014 01:00 MST0.71P  0.99P  0.00P  
09/26/2014 01:15 MST0.71P  0.99P  0.00P  
09/26/2014 01:30 MST0.75P  1.00P  0.00P  
09/26/2014 01:45 MST0.71P  0.99P  0.00P  
09/26/2014 02:00 MST0.75P  1.00P  0.00P  
09/26/2014 02:15 MST0.75P  1.00P  0.00P  
09/26/2014 02:30 MST0.71P  0.99P  0.00P  
09/26/2014 02:45 MST0.82P  1.02P  0.00P  
09/26/2014 03:00 MST0.71P  0.99P  0.00P  
09/26/2014 03:15 MST0.75P  1.00P  0.00P  
09/26/2014 03:30 MST0.75P  1.00P  0.00P  
09/26/2014 03:45 MST0.75P  1.00P  0.00P  
09/26/2014 04:00 MST0.75P  1.00P  0.00P  
09/26/2014 04:15 MST0.75P  1.00P  0.00P  
09/26/2014 04:30 MST0.75P  1.00P  0.00P  
09/26/2014 04:45 MST0.71P  0.99P  0.00P  
09/26/2014 05:00 MST0.59P  0.95P  0.00P  
09/26/2014 05:15 MST0.75P  1.00P  0.00P  
09/26/2014 05:30 MST0.65P  0.97P  0.00P  
09/26/2014 05:45 MST0.78P  1.01P  0.00P  
09/26/2014 06:00 MST0.54P  0.93P  0.00P  
09/26/2014 06:15 MST0.65P  0.97P  0.00P  
09/26/2014 06:30 MST0.62P  0.96P  0.00P  
09/26/2014 06:45 MST0.57P  0.94P  0.00P  
09/26/2014 07:00 MST0.68P  0.98P  0.00P  
09/26/2014 07:15 MST0.57P  0.94P  0.00P  
09/26/2014 07:30 MST0.59P  0.95P  0.00P  
09/26/2014 07:45 MST0.57P  0.94P  0.00P  
09/26/2014 08:00 MST0.59P  0.95P  0.00P  
09/26/2014 08:15 MST0.57P  0.94P  0.00P  
09/26/2014 08:30 MST0.59P  0.95P  0.00P  
09/26/2014 08:45 MST0.59P  0.95P  0.00P  
09/26/2014 09:00 MST0.57P  0.94P  0.00P  
09/26/2014 09:15 MST0.57P  0.94P  0.00P  
09/26/2014 09:30 MST0.59P  0.95P  0.00P  
09/26/2014 09:45 MST0.68P  0.98P  0.00P  
09/26/2014 10:00 MST0.57P  0.94P  0.00P  
09/26/2014 10:15 MST0.78P  1.01P  0.00P  
09/26/2014 10:30 MST0.78P  1.01P  0.00P  
09/26/2014 10:45 MST0.71P  0.99P  0.00P  
09/26/2014 11:00 MST0.59P  0.95P  0.00P  
09/26/2014 11:15 MST0.62P  0.96P  0.00P  
09/26/2014 11:30 MST0.57P  0.94P  0.00P  
09/26/2014 11:45 MST0.75P  1.00P  0.00P  
09/26/2014 12:00 MST0.75P  1.00P  0.00P  
09/26/2014 12:15 MST0.57P  0.94P  0.00P  
09/26/2014 12:30 MST0.71P  0.99P  0.00P  
09/26/2014 12:45 MST0.71P  0.99P  0.00P  
09/26/2014 13:00 MST1.1P  1.08P  0.00P  
09/26/2014 13:15 MST0.59P  0.95P  0.00P  
09/26/2014 13:30 MST0.65P  0.97P  0.00P  
09/26/2014 13:45 MST0.62P  0.96P  0.00P  
09/26/2014 14:00 MST0.62P  0.96P  0.00P  
09/26/2014 14:15 MST0.71P  0.99P  0.00P  
09/26/2014 14:30 MST0.78P  1.01P  0.00P  
09/26/2014 14:45 MST0.57P  0.94P  0.00P  
09/26/2014 15:00 MST0.62P  0.96P  0.00P  
09/26/2014 15:15 MST0.78P  1.01P  0.00P  
09/26/2014 15:30 MST0.52P  0.92P  0.00P  
09/26/2014 15:45 MST0.59P  0.95P  0.00P  
09/26/2014 16:00 MST0.59P  0.95P  0.00P  
09/26/2014 16:15 MST0.57P  0.94P  0.00P  
09/26/2014 16:30 MST0.62P  0.96P  0.00P  
09/26/2014 16:45 MST0.59P  0.95P  0.00P  
09/26/2014 17:00 MST0.62P  0.96P  0.00P  
09/26/2014 17:15 MST0.62P  0.96P  0.00P  
09/26/2014 17:30 MST0.59P  0.95P  0.00P  
09/26/2014 17:45 MST0.62P  0.96P  0.00P  
09/26/2014 18:00 MST0.57P  0.94P  0.00P  
09/26/2014 18:15 MST0.62P  0.96P  0.00P  
09/26/2014 18:30 MST0.75P  1.00P  0.00P  
09/26/2014 18:45 MST0.78P  1.01P  0.00P  
09/26/2014 19:00 MST0.82P  1.02P  0.00P  
09/26/2014 19:15 MST0.62P  0.96P  0.00P  
09/26/2014 19:30 MST0.65P  0.97P  0.00P  
09/26/2014 19:45 MST0.68P  0.98P  0.00P  
09/26/2014 20:00 MST0.59P  0.95P  0.00P  
09/26/2014 20:15 MST0.65P  0.97P  0.00P  
09/26/2014 20:30 MST0.71P  0.99P  0.00P  
09/26/2014 20:45 MST0.59P  0.95P  0.00P  
09/26/2014 21:00 MST0.62P  0.96P  0.00P  
09/26/2014 21:15 MST0.59P  0.95P  0.00P  
09/26/2014 21:30 MST0.65P  0.97P  0.00P  
09/26/2014 21:45 MST0.71P  0.99P  0.00P  
09/26/2014 22:00 MST0.59P  0.95P  0.00P  
09/26/2014 22:15 MST0.68P  0.98P  0.00P  
09/26/2014 22:30 MST0.65P  0.97P  0.00P  
09/26/2014 22:45 MST0.59P  0.95P  0.00P  
09/26/2014 23:00 MST0.65P  0.97P  0.00P  
09/26/2014 23:15 MST0.71P  0.99P  0.00P  
09/26/2014 23:30 MST0.71P  0.99P  0.00P  
09/26/2014 23:45 MST0.75P  1.00P  0.00P  
09/27/2014 00:00 MST0.62P  0.96P  0.00P  
09/27/2014 00:15 MST0.62P  0.96P  0.00P  
09/27/2014 00:30 MST0.75P  1.00P  0.00P  
09/27/2014 00:45 MST0.71P  0.99P  0.00P  
09/27/2014 01:00 MST0.71P  0.99P  0.00P  
09/27/2014 01:15 MST1.0P  1.07P  0.00P  
09/27/2014 01:30 MST0.68P  0.98P  0.00P  
09/27/2014 01:45 MST0.68P  0.98P  0.00P  
09/27/2014 02:00 MST0.59P  0.95P  0.00P  
09/27/2014 02:15 MST0.62P  0.96P  0.00P  
09/27/2014 02:30 MST0.65P  0.97P  0.00P  
09/27/2014 02:45 MST0.65P  0.97P  0.00P  
09/27/2014 03:00 MST0.54P  0.93P  0.00P  
09/27/2014 03:15 MST0.57P  0.94P  0.00P  
09/27/2014 03:30 MST0.57P  0.94P  0.00P  
09/27/2014 03:45 MST0.62P  0.96P  0.00P  
09/27/2014 04:00 MST0.54P  0.93P  0.00P  
09/27/2014 04:15 MST0.71P  0.99P  0.00P  
09/27/2014 04:30 MST0.71P  0.99P  0.00P  
09/27/2014 04:45 MST0.54P  0.93P  0.00P  
09/27/2014 05:00 MST0.65P  0.97P  0.00P  
09/27/2014 05:15 MST0.57P  0.94P  0.00P  
09/27/2014 05:30 MST0.54P  0.93P  0.00P  
09/27/2014 05:45 MST0.62P  0.96P  0.00P  
09/27/2014 06:00 MST0.65P  0.97P  0.00P  
09/27/2014 06:15 MST0.57P  0.94P  0.00P  
09/27/2014 06:30 MST0.62P  0.96P  0.00P  
09/27/2014 06:45 MST0.57P  0.94P  0.00P  
09/27/2014 07:00 MST0.59P  0.95P  0.00P  
09/27/2014 07:15 MST0.62P  0.96P  0.00P  
09/27/2014 07:30 MST0.57P  0.94P  0.00P  
09/27/2014 07:45 MST0.59P  0.95P  0.00P  
09/27/2014 08:00 MST0.62P  0.96P  0.00P  
09/27/2014 08:15 MST0.62P  0.96P  0.00P  
09/27/2014 08:30 MST0.59P  0.95P  0.00P  
09/27/2014 08:45 MST0.62P  0.96P  0.00P  
09/27/2014 09:00 MST0.62P  0.96P  0.00P  
09/27/2014 09:15 MST0.59P  0.95P  0.00P  
09/27/2014 09:30 MST0.62P  0.96P  0.00P  
09/27/2014 09:45 MST0.59P  0.95P  0.00P  
09/27/2014 10:00 MST0.59P  0.95P  0.00P  
09/27/2014 10:15 MST0.59P  0.95P  0.00P  
09/27/2014 10:30 MST0.57P  0.94P  0.00P  
09/27/2014 10:45 MST0.59P  0.95P  0.00P  
09/27/2014 11:00 MST0.57P  0.94P  0.00P  
09/27/2014 11:15 MST0.57P  0.94P  0.00P  
09/27/2014 11:30 MST0.57P  0.94P  0.00P  
09/27/2014 11:45 MST0.54P  0.93P  0.00P  
09/27/2014 12:00 MST0.57P  0.94P  0.00P  
09/27/2014 12:15 MST0.75P  1.00P  0.00P  
09/27/2014 12:30 MST0.57P  0.94P  0.00P  
09/27/2014 12:45 MST0.75P  1.00P  0.00P  
09/27/2014 13:00 MST0.62P  0.96P  0.00P  
09/27/2014 13:15 MST0.57P  0.94P  0.00P  
09/27/2014 13:30 MST0.57P  0.94P  0.00P  
09/27/2014 13:45 MST0.54P  0.93P  0.00P  
09/27/2014 14:00 MST0.54P  0.93P  0.00P  
09/27/2014 14:15 MST0.59P  0.95P  0.00P  
09/27/2014 14:30 MST0.57P  0.94P  0.00P  
09/27/2014 14:45 MST0.57P  0.94P  0.00P  
09/27/2014 15:00 MST0.78P  1.01P  0.00P  
09/27/2014 15:15 MST0.52P  0.92P  0.00P  
09/27/2014 15:30 MST0.65P  0.97P  0.00P  
09/27/2014 15:45 MST0.65P  0.97P  0.00P  
09/27/2014 16:00 MST0.57P  0.94P  0.00P  
09/27/2014 16:15 MST0.57P  0.94P  0.00P  
09/27/2014 16:30 MST0.62P  0.96P  0.00P  
09/27/2014 16:45 MST0.59P  0.95P  0.00P  
09/27/2014 17:00 MST0.54P  0.93P  0.00P  
09/27/2014 17:15 MST0.65P  0.97P  0.00P  
09/27/2014 17:30 MST0.62P  0.96P  0.00P  
09/27/2014 17:45 MST0.68P  0.98P  0.00P  
09/27/2014 18:00 MST0.68P  0.98P  0.00P  
09/27/2014 18:15 MST0.71P  0.99P  0.00P  
09/27/2014 18:30 MST0.75P  1.00P  0.00P  
09/27/2014 18:45 MST0.65P  0.97P  0.00P  
09/27/2014 19:00 MST0.65P  0.97P  0.00P  
09/27/2014 19:15 MST0.71P  0.99P  0.00P  
09/27/2014 19:30 MST0.62P  0.96P  0.00P  
09/27/2014 19:45 MST0.57P  0.94P  0.00P  
09/27/2014 20:00 MST0.59P  0.95P  0.00P  
09/27/2014 20:15 MST0.71P  0.99P  0.00P  
09/27/2014 20:30 MST0.57P  0.94P  0.00P  
09/27/2014 20:45 MST0.78P  1.01P  0.00P  
09/27/2014 21:00 MST0.59P  0.95P  0.00P  
09/27/2014 21:15 MST0.52P  0.92P  0.00P  
09/27/2014 21:30 MST0.89P  1.03P  0.00P  
09/27/2014 21:45 MST0.59P  0.95P  0.00P  
09/27/2014 22:00 MST0.62P  0.96P  0.00P  
09/27/2014 22:15 MST0.65P  0.97P  0.00P  
09/27/2014 22:30 MST0.68P  0.98P  0.00P  
09/27/2014 22:45 MST0.65P  0.97P  0.00P  
09/27/2014 23:00 MST0.65P  0.97P  0.00P  
09/27/2014 23:15 MST0.65P  0.97P  0.00P  
09/27/2014 23:30 MST0.65P  0.97P  0.00P  
09/27/2014 23:45 MST0.65P  0.97P  0.00P  
09/28/2014 00:00 MST0.65P  0.97P  0.00P  
09/28/2014 00:15 MST0.68P  0.98P  0.00P  
09/28/2014 00:30 MST0.65P  0.97P  0.00P  
09/28/2014 00:45 MST0.65P  0.97P  0.00P  
09/28/2014 01:00 MST0.78P  1.01P  0.00P  
09/28/2014 01:15 MST0.78P  1.01P  0.00P  
09/28/2014 01:30 MST0.75P  1.00P  0.00P  
09/28/2014 01:45 MST0.78P  1.01P  0.00P  
09/28/2014 02:00 MST0.65P  0.97P  0.00P  
09/28/2014 02:15 MST0.82P  1.02P  0.00P  
09/28/2014 02:30 MST0.68P  0.98P  0.00P  
09/28/2014 02:45 MST0.71P  0.99P  0.00P  
09/28/2014 03:00 MST0.65P  0.97P  0.00P  
09/28/2014 03:15 MST0.71P  0.99P  0.00P  
09/28/2014 03:30 MST0.68P  0.98P  0.00P  
09/28/2014 03:45 MST0.59P  0.95P  0.00P  
09/28/2014 04:00 MST0.59P  0.95P  0.00P  
09/28/2014 04:15 MST0.65P  0.97P  0.00P  
09/28/2014 04:30 MST0.71P  0.99P  0.00P  
09/28/2014 04:45 MST0.71P  0.99P  0.00P  
09/28/2014 05:00 MST0.57P  0.94P  0.00P  
09/28/2014 05:15 MST0.54P  0.93P  0.00P  
09/28/2014 05:30 MST0.68P  0.98P  0.00P  
09/28/2014 05:45 MST0.65P  0.97P  0.00P  
09/28/2014 06:00 MST0.65P  0.97P  0.00P  
09/28/2014 06:15 MST0.62P  0.96P  0.00P  
09/28/2014 06:30 MST0.68P  0.98P  0.00P  
09/28/2014 06:45 MST0.68P  0.98P  0.00P  
09/28/2014 07:00 MST0.62P  0.96P  0.00P  
09/28/2014 07:15 MST0.71P  0.99P  0.00P  
09/28/2014 07:30 MST0.82P  1.02P  0.00P  
09/28/2014 07:45 MST0.57P  0.94P  0.00P  
09/28/2014 08:00 MST0.71P  0.99P  0.00P  
09/28/2014 08:15 MST0.54P  0.93P  0.00P  
09/28/2014 08:30 MST0.54P  0.93P  0.00P  
09/28/2014 08:45 MST0.54P  0.93P  0.00P  
09/28/2014 09:00 MST0.57P  0.94P  0.00P  
09/28/2014 09:15 MST0.57P  0.94P  0.00P  
09/28/2014 09:30 MST0.78P  1.01P  0.00P  
09/28/2014 09:45 MST0.68P  0.98P  0.00P  
09/28/2014 10:00 MST0.89P  1.03P  0.00P  
09/28/2014 10:15 MST0.62P  0.96P  0.00P  
09/28/2014 10:30 MST0.71P  0.99P  0.00P  
09/28/2014 10:45 MST0.68P  0.98P  0.00P  
09/28/2014 11:00 MST0.65P  0.97P  0.00P  
09/28/2014 11:15 MST0.71P  0.99P  0.00P  
09/28/2014 11:30 MST0.71P  0.99P  0.00P  
09/28/2014 11:45 MST0.65P  0.97P  0.00P  
09/28/2014 12:00 MST0.65P  0.97P  0.00P  
09/28/2014 12:15 MST0.71P  0.99P  0.00P  
09/28/2014 12:30 MST0.75P  1.00P  0.00P  
09/28/2014 12:45 MST0.65P  0.97P  0.00P  
09/28/2014 13:00 MST0.52P  0.92P  0.00P  
09/28/2014 13:15 MST0.57P  0.94P  0.00P  
09/28/2014 13:30 MST0.59P  0.95P  0.00P  
09/28/2014 13:45 MST0.57P  0.94P  0.00P  
09/28/2014 14:00 MST0.59P  0.95P  0.00P  
09/28/2014 14:15 MST0.59P  0.95P  0.00P  
09/28/2014 14:30 MST0.59P  0.95P  0.00P  
09/28/2014 14:45 MST0.59P  0.95P  0.00P  
09/28/2014 15:00 MST0.52P  0.92P  0.00P  
09/28/2014 15:15 MST0.78P  1.01P  0.00P  
09/28/2014 15:30 MST0.68P  0.98P  0.00P  
09/28/2014 15:45 MST0.65P  0.97P  0.00P  
09/28/2014 16:00 MST0.75P  1.00P  0.00P  
09/28/2014 16:15 MST0.62P  0.96P  0.00P  
09/28/2014 16:30 MST0.62P  0.96P  0.00P  
09/28/2014 16:45 MST0.62P  0.96P  0.00P  
09/28/2014 17:00 MST0.59P  0.95P  0.00P  
09/28/2014 17:15 MST0.59P  0.95P  0.00P  
09/28/2014 17:30 MST0.78P  1.01P  0.00P  
09/28/2014 17:45 MST0.62P  0.96P  0.00P  
09/28/2014 18:00 MST0.62P  0.96P  0.00P  
09/28/2014 18:15 MST0.71P  0.99P  0.00P  
09/28/2014 18:30 MST0.65P  0.97P  0.00P  
09/28/2014 18:45 MST0.65P  0.97P  0.00P  
09/28/2014 19:00 MST0.62P  0.96P  0.00P  
09/28/2014 19:15 MST0.62P  0.96P  0.00P  
09/28/2014 19:30 MST0.78P  1.01P  0.00P  
09/28/2014 19:45 MST0.62P  0.96P  0.00P  
09/28/2014 20:00 MST0.65P  0.97P  0.00P  
09/28/2014 20:15 MST0.65P  0.97P  0.00P  
09/28/2014 20:30 MST0.62P  0.96P  0.00P  
09/28/2014 20:45 MST0.52P  0.92P  0.00P  
09/28/2014 21:00 MST0.57P  0.94P  0.00P  
09/28/2014 21:15 MST0.68P  0.98P  0.00P  
09/28/2014 21:30 MST0.71P  0.99P  0.00P  
09/28/2014 21:45 MST0.52P  0.92P  0.00P  
09/28/2014 22:00 MST0.49P  0.91P  0.00P  
09/28/2014 22:15 MST0.47P  0.90P  0.00P  
09/28/2014 22:30 MST0.52P  0.92P  0.00P  
09/28/2014 22:45 MST0.62P  0.96P  0.00P  
09/28/2014 23:00 MST0.57P  0.94P  0.00P  
09/28/2014 23:15 MST0.75P  1.00P  0.00P  
09/28/2014 23:30 MST0.65P  0.97P  0.00P  
09/28/2014 23:45 MST0.49P  0.91P  0.00P  
09/29/2014 00:00 MST0.54P  0.93P  0.00P  
09/29/2014 00:15 MST0.71P  0.99P  0.00P  
09/29/2014 00:30 MST0.71P  0.99P  0.00P  
09/29/2014 00:45 MST0.75P  1.00P  0.00P  
09/29/2014 01:00 MST0.57P  0.94P  0.00P  
09/29/2014 01:15 MST0.82P  1.02P  0.00P  
09/29/2014 01:30 MST0.71P  0.99P  0.00P  
09/29/2014 01:45 MST0.59P  0.95P  0.00P  
09/29/2014 02:00 MST0.75P  1.00P  0.00P  
09/29/2014 02:15 MST0.75P  1.00P  0.00P  
09/29/2014 02:30 MST0.57P  0.94P  0.00P  
09/29/2014 02:45 MST0.54P  0.93P  0.00P  
09/29/2014 03:00 MST0.75P  1.00P  0.00P  
09/29/2014 03:15 MST0.59P  0.95P  0.00P  
09/29/2014 03:30 MST0.68P  0.98P  0.00P  
09/29/2014 03:45 MST0.54P  0.93P  0.00P  
09/29/2014 04:00 MST0.57P  0.94P  0.00P  
09/29/2014 04:15 MST0.57P  0.94P  0.00P  
09/29/2014 04:30 MST0.57P  0.94P  0.00P  
09/29/2014 04:45 MST0.75P  1.00P  0.00P  
09/29/2014 05:00 MST0.49P  0.91P  0.00P  
09/29/2014 05:15 MST0.54P  0.93P  0.00P  
09/29/2014 05:30 MST0.54P  0.93P  0.00P  
09/29/2014 05:45 MST0.59P  0.95P  0.00P  
09/29/2014 06:00 MST0.68P  0.98P  0.00P  
09/29/2014 06:15 MST0.57P  0.94P  0.00P  
09/29/2014 06:30 MST0.65P  0.97P  0.00P  
09/29/2014 06:45 MST0.57P  0.94P  0.00P  
09/29/2014 07:00 MST0.54P  0.93P  0.00P  
09/29/2014 07:15 MST0.65P  0.97P  0.00P  
09/29/2014 07:30 MST0.59P  0.95P  0.00P  
09/29/2014 07:45 MST0.62P  0.96P  0.00P  
09/29/2014 08:00 MST0.54P  0.93P  0.00P  
09/29/2014 08:15 MST0.62P  0.96P  0.00P  
09/29/2014 08:30 MST0.68P  0.98P  0.00P  
09/29/2014 08:45 MST0.57P  0.94P  0.00P  
09/29/2014 09:00 MST0.68P  0.98P  0.00P  
09/29/2014 09:15 MST0.65P  0.97P  0.00P  
09/29/2014 09:30 MST0.65P  0.97P  0.00P  
09/29/2014 09:45 MST0.54P  0.93P  0.00P  
09/29/2014 10:00 MST0.62P  0.96P  0.00P  
09/29/2014 10:15 MST0.62P  0.96P  0.00P  
09/29/2014 10:30 MST0.62P  0.96P  0.00P  
09/29/2014 10:45 MST0.62P  0.96P  0.00P  
09/29/2014 11:00 MST0.44P  0.89P  0.00P  
09/29/2014 11:15 MST0.71P  0.99P  0.00P  
09/29/2014 11:30 MST0.71P  0.99P  0.00P  
09/29/2014 11:45 MST0.52P  0.92P  0.00P  
09/29/2014 12:00 MST0.75P  1.00P  0.00P  
09/29/2014 12:15 MST0.68P  0.98P  0.00P  
09/29/2014 12:30 MST0.78P  1.01P  0.00P  
09/29/2014 12:45 MST0.62P  0.96P  0.00P  
09/29/2014 13:00 MST0.65P  0.97P  0.00P  
09/29/2014 13:15 MST0.62P  0.96P  0.00P  
09/29/2014 13:30 MST0.54P  0.93P  0.00P  
09/29/2014 13:45 MST0.59P  0.95P  0.00P  
09/29/2014 14:00 MST0.71P  0.99P  0.00P  
09/29/2014 14:15 MST0.57P  0.94P  0.00P  
09/29/2014 14:30 MST0.62P  0.96P  0.00P  
09/29/2014 14:45 MST0.75P  1.00P  0.00P  
09/29/2014 15:00 MST0.68P  0.98P  0.00P  
09/29/2014 15:15 MST0.65P  0.97P  0.00P  
09/29/2014 15:30 MST0.75P  1.00P  0.00P  
09/29/2014 15:45 MST0.75P  1.00P  0.00P  
09/29/2014 16:00 MST0.75P  1.00P  0.00P  
09/29/2014 16:15 MST0.71P  0.99P  0.00P  
09/29/2014 16:30 MST0.75P  1.00P  0.00P  
09/29/2014 16:45 MST0.75P  1.00P  0.00P  
09/29/2014 17:00 MST0.65P  0.97P  0.00P  
09/29/2014 17:15 MST0.71P  0.99P  0.00P  
09/29/2014 17:30 MST0.65P  0.97P  0.00P  
09/29/2014 17:45 MST0.78P  1.01P  0.00P  
09/29/2014 18:00 MST0.54P  0.93P  0.00P  
09/29/2014 18:15 MST0.62P  0.96P  0.00P  
09/29/2014 18:30 MST0.62P  0.96P  0.00P  
09/29/2014 18:45 MST0.65P  0.97P  0.00P  
09/29/2014 19:00 MST0.59P  0.95P  0.00P  
09/29/2014 19:15 MST0.54P  0.93P  0.00P  
09/29/2014 19:30 MST0.52P  0.92P  0.00P  
09/29/2014 19:45 MST0.59P  0.95P  0.00P  
09/29/2014 20:00 MST0.57P  0.94P  0.00P  
09/29/2014 20:15 MST0.71P  0.99P  0.00P  
09/29/2014 20:30 MST0.62P  0.96P  0.00P  
09/29/2014 20:45 MST0.71P  0.99P  0.00P  
09/29/2014 21:00 MST0.78P  1.01P  0.00P  
09/29/2014 21:15 MST0.54P  0.93P  0.00P  
09/29/2014 21:30 MST0.57P  0.94P  0.00P  
09/29/2014 21:45 MST0.57P  0.94P  0.00P  
09/29/2014 22:00 MST0.52P  0.92P  0.00P  
09/29/2014 22:15 MST0.57P  0.94P  0.00P  
09/29/2014 22:30 MST0.54P  0.93P  0.00P  
09/29/2014 22:45 MST0.54P  0.93P  0.00P  
09/29/2014 23:00 MST0.65P  0.97P  0.00P  
09/29/2014 23:15 MST0.57P  0.94P  0.00P  
09/29/2014 23:30 MST0.65P  0.97P  0.00P  
09/29/2014 23:45 MST0.71P  0.99P  0.00P  
09/30/2014 00:00 MST0.54P  0.93P  0.00P  
09/30/2014 00:15 MST0.54P  0.93P  0.00P  
09/30/2014 00:30 MST0.71P  0.99P  0.00P  
09/30/2014 00:45 MST0.57P  0.94P  0.00P  
09/30/2014 01:00 MST0.65P  0.97P  0.00P  
09/30/2014 01:15 MST0.75P  1.00P  0.00P  
09/30/2014 01:30 MST0.68P  0.98P  0.00P  
09/30/2014 01:45 MST0.75P  1.00P  0.00P  
09/30/2014 02:00 MST0.62P  0.96P  0.00P  
09/30/2014 02:15 MST0.82P  1.02P  0.00P  
09/30/2014 02:30 MST0.68P  0.98P  0.00P  
09/30/2014 02:45 MST0.62P  0.96P  0.00P  
09/30/2014 03:00 MST0.57P  0.94P  0.00P  
09/30/2014 03:15 MST0.62P  0.96P  0.00P  
09/30/2014 03:30 MST0.57P  0.94P  0.00P  
09/30/2014 03:45 MST0.71P  0.99P  0.00P  
09/30/2014 04:00 MST0.65P  0.97P  0.00P  
09/30/2014 04:15 MST0.59P  0.95P  0.00P  
09/30/2014 04:30 MST0.59P  0.95P  0.00P  
09/30/2014 04:45 MST0.71P  0.99P  0.00P  
09/30/2014 05:00 MST1.0P  1.06P  0.00P  
09/30/2014 05:15 MST0.52P  0.92P  0.00P  
09/30/2014 05:30 MST0.54P  0.93P  0.00P  
09/30/2014 05:45 MST0.68P  0.98P  0.00P  
09/30/2014 06:00 MST0.54P  0.93P  0.00P  
09/30/2014 06:15 MST0.65P  0.97P  0.00P  
09/30/2014 06:30 MST0.71P  0.99P  0.00P  
09/30/2014 06:45 MST0.59P  0.95P  0.00P  
09/30/2014 07:00 MST0.52P  0.92P  0.00P  
09/30/2014 07:15 MST0.62P  0.96P  0.00P  
09/30/2014 07:30 MST0.59P  0.95P  0.00P  
09/30/2014 07:45 MST0.65P  0.97P  0.00P  
09/30/2014 08:00 MST0.52P  0.92P  0.00P  
09/30/2014 08:15 MST0.68P  0.98P  0.00P  
09/30/2014 08:30 MST0.62P  0.96P  0.00P  
09/30/2014 08:45 MST0.59P  0.95P  0.00P  
09/30/2014 09:00 MST0.49P  0.91P  0.00P  
09/30/2014 09:15 MST0.57P  0.94P  0.00P  
09/30/2014 09:30 MST0.57P  0.94P  0.00P  
09/30/2014 09:45 MST0.47P  0.90P  0.00P  
09/30/2014 10:00 MST0.71P  0.99P  0.00P  
09/30/2014 10:15 MST0.54P  0.93P  0.00P  
09/30/2014 10:30 MST0.75P  1.00P  0.00P  
09/30/2014 10:45 MST0.71P  0.99P  0.00P  
09/30/2014 11:00 MST0.68P  0.98P  0.00P  
09/30/2014 11:15 MST0.59P  0.95P  0.00P  
09/30/2014 11:30 MST0.49P  0.91P  0.00P  
09/30/2014 11:45 MST0.68P  0.98P  0.00P  
09/30/2014 12:00 MST0.52P  0.92P  0.00P  
09/30/2014 12:15 MST0.62P  0.96P  0.00P  
09/30/2014 12:30 MST0.68P  0.98P  0.00P  
09/30/2014 12:45 MST0.59P  0.95P  0.00P  
09/30/2014 13:00 MST0.57P  0.94P  0.00P  
09/30/2014 13:15 MST0.59P  0.95P  0.00P  
09/30/2014 13:30 MST0.59P  0.95P  0.00P  
09/30/2014 13:45 MST0.57P  0.94P  0.00P  
09/30/2014 14:00 MST0.47P  0.90P  0.00P  
09/30/2014 14:15 MST0.62P  0.96P  0.00P  
09/30/2014 14:30 MST0.59P  0.95P  0.00P  
09/30/2014 14:45 MST0.49P  0.91P  0.00P  
09/30/2014 15:00 MST0.68P  0.98P  0.00P  
09/30/2014 15:15 MST0.62P  0.96P  0.00P  
09/30/2014 15:30 MST0.62P  0.96P  0.00P  
09/30/2014 15:45 MST0.68P  0.98P  0.00P  
09/30/2014 16:00 MST0.57P  0.94P  0.00P  
09/30/2014 16:15 MST0.65P  0.97P  0.00P  
09/30/2014 16:30 MST0.59P  0.95P  0.00P  
09/30/2014 16:45 MST0.54P  0.93P  0.00P  
09/30/2014 17:00 MST0.65P  0.97P  0.00P  
09/30/2014 17:15 MST0.49P  0.91P  0.00P  
09/30/2014 17:30 MST0.52P  0.92P  0.00P  
09/30/2014 17:45 MST0.68P  0.98P  0.00P  
09/30/2014 18:00 MST0.52P  0.92P  0.00P  
09/30/2014 18:15 MST0.62P  0.96P  0.00P  
09/30/2014 18:30 MST0.68P  0.98P  0.00P  
09/30/2014 18:45 MST0.59P  0.95P  0.00P  
09/30/2014 19:00 MST0.57P  0.94P  0.00P  
09/30/2014 19:15 MST0.59P  0.95P  0.00P  
09/30/2014 19:30 MST0.62P  0.96P  0.00P  
09/30/2014 19:45 MST0.54P  0.93P  0.00P  
09/30/2014 20:00 MST0.71P  0.99P  0.00P  
09/30/2014 20:15 MST0.52P  0.92P  0.00P  
09/30/2014 20:30 MST0.47P  0.90P  0.00P  
09/30/2014 20:45 MST0.57P  0.94P  0.00P  
09/30/2014 21:00 MST0.52P  0.92P  0.00P  
09/30/2014 21:15 MST0.59P  0.95P  0.00P  
09/30/2014 21:30 MST0.62P  0.96P  0.00P  
09/30/2014 21:45 MST0.71P  0.99P  0.00P  
09/30/2014 22:00 MST0.68P  0.98P  0.00P  
09/30/2014 22:15 MST0.65P  0.97P  0.00P  
09/30/2014 22:30 MST0.65P  0.97P  0.00P  
09/30/2014 22:45 MST0.54P  0.93P  0.00P  
09/30/2014 23:00 MST0.54P  0.93P  0.00P  
09/30/2014 23:15 MST0.52P  0.92P  0.00P  
09/30/2014 23:30 MST0.62P  0.96P  0.00P  
09/30/2014 23:45 MST0.62P  0.96P  0.00P  
10/01/2014 00:00 MST0.68P  0.98P  0.00P  
10/01/2014 00:15 MST0.49P  0.91P  0.00P  
10/01/2014 00:30 MST0.54P  0.93P  0.00P  
10/01/2014 00:45 MST0.57P  0.94P  0.00P  
10/01/2014 01:00 MST0.65P  0.97P  0.00P  
10/01/2014 01:15 MST0.65P  0.97P  0.00P  
10/01/2014 01:30 MST0.59P  0.95P  0.00P  
10/01/2014 01:45 MST0.59P  0.95P  0.00P  
10/01/2014 02:00 MST0.47P  0.90P  0.00P  
10/01/2014 02:15 MST0.59P  0.95P  0.00P  
10/01/2014 02:30 MST0.59P  0.95P  0.00P  
10/01/2014 02:45 MST0.57P  0.94P  0.00P  
10/01/2014 03:00 MST0.54P  0.93P  0.00P  
10/01/2014 03:15 MST0.68P  0.98P  0.00P  
10/01/2014 03:30 MST0.54P  0.93P  0.00P  
10/01/2014 03:45 MST0.59P  0.95P  0.00P  
10/01/2014 04:00 MST0.65P  0.97P  0.00P  
10/01/2014 04:15 MST0.65P  0.97P  0.00P  
10/01/2014 04:30 MST0.71P  0.99P  0.00P  
10/01/2014 04:45 MST0.75P  1.00P  0.00P  
10/01/2014 05:00 MST0.59P  0.95P  0.00P  
10/01/2014 05:15 MST0.54P  0.93P  0.00P  
10/01/2014 05:30 MST0.52P  0.92P  0.00P  
10/01/2014 05:45 MST0.62P  0.96P  0.00P  
10/01/2014 06:00 MST0.54P  0.93P  0.00P  
10/01/2014 06:15 MST0.57P  0.94P  0.00P  
10/01/2014 06:30 MST0.54P  0.93P  0.00P  
10/01/2014 06:45 MST0.59P  0.95P  0.00P  
10/01/2014 07:00 MST0.54P  0.93P  0.00P  
10/01/2014 07:15 MST0.57P  0.94P  0.00P  
10/01/2014 07:30 MST0.71P  0.99P  0.00P  
10/01/2014 07:45 MST0.62P  0.96P  0.00P  
10/01/2014 08:00 MST0.62P  0.96P  0.00P  
10/01/2014 08:15 MST0.71P  0.99P  0.00P  
10/01/2014 08:30 MST0.68P  0.98P  0.00P  
10/01/2014 08:45 MST0.71P  0.99P  0.00P  
10/01/2014 09:00 MST0.57P  0.94P  0.00P  
10/01/2014 09:15 MST0.71P  0.99P  0.00P  
10/01/2014 09:30 MST0.65P  0.97P  0.00P  
10/01/2014 09:45 MST0.68P  0.98P  0.00P  
10/01/2014 10:00 MST0.59P  0.95P  0.00P  
10/01/2014 10:15 MST0.54P  0.93P  0.00P  
10/01/2014 10:30 MST0.59P  0.95P  0.00P  
10/01/2014 10:45 MST0.62P  0.96P  0.00P  
10/01/2014 11:00 MST0.65P  0.97P  0.00P  
10/01/2014 11:15 MST0.52P  0.92P  0.00P  
10/01/2014 11:30 MST0.57P  0.94P  0.00P  
10/01/2014 11:45 MST0.62P  0.96P  0.00P  
10/01/2014 12:00 MST0.59P  0.95P  0.00P  
10/01/2014 12:15 MST0.62P  0.96P  0.00P  
10/01/2014 12:30 MST0.62P  0.96P  0.00P  
10/01/2014 12:45 MST0.65P  0.97P  0.00P  
10/01/2014 13:00 MST0.52P  0.92P  0.00P  
10/01/2014 13:15 MST0.47P  0.90P  0.00P  
10/01/2014 13:30 MST0.54P  0.93P  0.00P  
10/01/2014 13:45 MST0.49P  0.91P  0.00P  
10/01/2014 14:00 MST0.52P  0.92P  0.00P  
10/01/2014 14:15 MST0.57P  0.94P  0.00P  
10/01/2014 14:30 MST0.75P  1.00P  0.00P  
10/01/2014 14:45 MST0.54P  0.93P  0.00P  
10/01/2014 15:00 MST0.59P  0.95P  0.00P  
10/01/2014 15:15 MST0.47P  0.90P  0.00P  
10/01/2014 15:30 MST0.68P  0.98P  0.00P  
10/01/2014 15:45 MST0.52P  0.92P  0.00P  
10/01/2014 16:00 MST0.59P  0.95P  0.00P  
10/01/2014 16:15 MST0.65P  0.97P  0.00P  
10/01/2014 16:30 MST0.44P  0.89P  0.00P  
10/01/2014 16:45 MST0.47P  0.90P  0.00P  
10/01/2014 17:00 MST0.49P  0.91P  0.00P  
10/01/2014 17:15 MST0.57P  0.94P  0.00P  
10/01/2014 17:30 MST0.62P  0.96P  0.00P  
10/01/2014 17:45 MST0.52P  0.92P  0.00P  
10/01/2014 18:00 MST0.62P  0.96P  0.00P  
10/01/2014 18:15 MST0.65P  0.97P  0.00P  
10/01/2014 18:30 MST0.52P  0.92P  0.00P  
10/01/2014 18:45 MST0.54P  0.93P  0.00P  
10/01/2014 19:00 MST0.52P  0.92P  0.00P  
10/01/2014 19:15 MST0.62P  0.96P  0.00P  
10/01/2014 19:30 MST0.54P  0.93P  0.00P  
10/01/2014 19:45 MST0.68P  0.98P  0.00P  
10/01/2014 20:00 MST0.68P  0.98P  0.00P  
10/01/2014 20:15 MST0.44P  0.89P  0.00P  
10/01/2014 20:30 MST0.59P  0.95P  0.00P  
10/01/2014 20:45 MST0.44P  0.89P  0.00P  
10/01/2014 21:00 MST0.62P  0.96P  0.00P  
10/01/2014 21:15 MST0.54P  0.93P  0.00P  
10/01/2014 21:30 MST0.68P  0.98P  0.00P  
10/01/2014 21:45 MST0.68P  0.98P  0.00P  
10/01/2014 22:00 MST0.68P  0.98P  0.00P  
10/01/2014 22:15 MST0.62P  0.96P  0.00P  
10/01/2014 22:30 MST0.47P  0.90P  0.00P  
10/01/2014 22:45 MST0.54P  0.93P  0.00P  
10/01/2014 23:00 MST0.57P  0.94P  0.00P  
10/01/2014 23:15 MST0.47P  0.90P  0.00P  
10/01/2014 23:30 MST0.47P  0.90P  0.00P  
10/01/2014 23:45 MST0.52P  0.92P  0.00P  
10/02/2014 00:00 MST0.75P  1.00P  0.00P  
10/02/2014 00:15 MST0.47P  0.90P  0.00P  
10/02/2014 00:30 MST0.52P  0.92P  0.00P  
10/02/2014 00:45 MST0.44P  0.89P  0.00P  
10/02/2014 01:00 MST0.49P  0.91P  0.00P  
10/02/2014 01:15 MST0.52P  0.92P  0.00P  
10/02/2014 01:30 MST0.54P  0.93P  0.00P  
10/02/2014 01:45 MST0.54P  0.93P  0.00P  
10/02/2014 02:00 MST0.57P  0.94P  0.00P  
10/02/2014 02:15 MST0.49P  0.91P  0.00P  
10/02/2014 02:30 MST0.75P  1.00P  0.00P  
10/02/2014 02:45 MST0.75P  1.00P  0.00P  
10/02/2014 03:00 MST0.68P  0.98P  0.00P  
10/02/2014 03:15 MST0.57P  0.94P  0.00P  
10/02/2014 03:30 MST0.52P  0.92P  0.00P  
10/02/2014 03:45 MST0.52P  0.92P  0.00P  
10/02/2014 04:00 MST0.49P  0.91P  0.00P  
10/02/2014 04:15 MST0.52P  0.92P  0.00P  
10/02/2014 04:30 MST0.57P  0.94P  0.00P  
10/02/2014 04:45 MST0.52P  0.92P  0.00P  
10/02/2014 05:00 MST0.49P  0.91P  0.00P  
10/02/2014 05:15 MST0.54P  0.93P  0.00P  
10/02/2014 05:30 MST0.49P  0.91P  0.00P  
10/02/2014 05:45 MST0.52P  0.92P  0.00P  
10/02/2014 06:00 MST0.44P  0.89P  0.00P  
10/02/2014 06:15 MST0.52P  0.92P  0.00P  
10/02/2014 06:30 MST0.47P  0.90P  0.00P  
10/02/2014 06:45 MST0.44P  0.89P  0.00P  
10/02/2014 07:00 MST0.49P  0.91P  0.00P  
10/02/2014 07:15 MST0.57P  0.94P  0.00P  
10/02/2014 07:30 MST0.59P  0.95P  0.00P  
10/02/2014 07:45 MST0.59P  0.95P  0.00P  
10/02/2014 08:00 MST0.65P  0.97P  0.00P  
10/02/2014 08:15 MST0.68P  0.98P  0.00P  
10/02/2014 08:30 MST0.57P  0.94P  0.00P  
10/02/2014 08:45 MST0.59P  0.95P  0.00P  
10/02/2014 09:00 MST0.54P  0.93P  0.00P  
10/02/2014 09:15 MST0.57P  0.94P  0.00P  
10/02/2014 09:30 MST0.49P  0.91P  0.00P  
10/02/2014 09:45 MST0.44P  0.89P  0.00P  
10/02/2014 10:00 MST0.52P  0.92P  0.00P  
10/02/2014 10:15 MST0.44P  0.89P  0.00P  
10/02/2014 10:30 MST0.44P  0.89P  0.00P  
10/02/2014 10:45 MST0.59P  0.95P  0.00P  
10/02/2014 11:00 MST0.54P  0.93P  0.00P  
10/02/2014 11:15 MST0.59P  0.95P  0.00P  
10/02/2014 11:30 MST0.59P  0.95P  0.00P  
10/02/2014 11:45 MST0.59P  0.95P  0.00P  
10/02/2014 12:00 MST0.52P  0.92P  0.00P  
10/02/2014 12:15 MST0.49P  0.91P  0.00P  
10/02/2014 12:30 MST0.52P  0.92P  0.00P  
10/02/2014 12:45 MST0.44P  0.89P  0.00P  
10/02/2014 13:00 MST0.52P  0.92P  0.00P  
10/02/2014 13:15 MST0.49P  0.91P  0.00P  
10/02/2014 13:30 MST0.52P  0.92P  0.00P  
10/02/2014 13:45 MST0.49P  0.91P  0.00P  
10/02/2014 14:00 MST0.49P  0.91P  0.00P  
10/02/2014 14:15 MST0.42P  0.88P  0.00P  
10/02/2014 14:30 MST0.52P  0.92P  0.00P  
10/02/2014 14:45 MST0.52P  0.92P  0.00P  
10/02/2014 15:00 MST0.52P  0.92P  0.00P  
10/02/2014 15:15 MST0.57P  0.94P  0.00P  
10/02/2014 15:30 MST0.44P  0.89P  0.00P  
10/02/2014 15:45 MST0.52P  0.92P  0.00P  
10/02/2014 16:00 MST0.52P  0.92P  0.00P  
10/02/2014 16:15 MST0.54P  0.93P  0.00P  
10/02/2014 16:30 MST0.54P  0.93P  0.00P  
10/02/2014 16:45 MST0.59P  0.95P  0.00P  
10/02/2014 17:00 MST0.52P  0.92P  0.00P  
10/02/2014 17:15 MST0.47P  0.90P  0.00P  
10/02/2014 17:30 MST0.57P  0.94P  0.00P  
10/02/2014 17:45 MST0.47P  0.90P  0.00P  
10/02/2014 18:00 MST0.47P  0.90P  0.00P  
10/02/2014 18:15 MST0.49P  0.91P  0.00P  
10/02/2014 18:30 MST0.49P  0.91P  0.00P  
10/02/2014 18:45 MST0.54P  0.93P  0.00P  
10/02/2014 19:00 MST0.42P  0.88P  0.00P  
10/02/2014 19:15 MST0.54P  0.93P  0.00P  
10/02/2014 19:30 MST0.68P  0.98P  0.00P  
10/02/2014 19:45 MST0.54P  0.93P  0.00P  
10/02/2014 20:00 MST0.54P  0.93P  0.00P  
10/02/2014 20:15 MST0.49P  0.91P  0.00P  
10/02/2014 20:30 MST0.38P  0.86P  0.00P  
10/02/2014 20:45 MST0.52P  0.92P  0.00P  
10/02/2014 21:00 MST0.54P  0.93P  0.00P  
10/02/2014 21:15 MST0.62P  0.96P  0.00P  
10/02/2014 21:30 MST0.49P  0.91P  0.00P  
10/02/2014 21:45 MST0.54P  0.93P  0.00P  
10/02/2014 22:00 MST0.68P  0.98P  0.00P  
10/02/2014 22:15 MST0.52P  0.92P  0.00P  
10/02/2014 22:30 MST0.54P  0.93P  0.00P  
10/02/2014 22:45 MST0.57P  0.94P  0.00P  
10/02/2014 23:00 MST0.59P  0.95P  0.00P  
10/02/2014 23:15 MST0.65P  0.97P  0.00P  
10/02/2014 23:30 MST0.52P  0.92P  0.00P  
10/02/2014 23:45 MST0.42P  0.88P  0.00P  
10/03/2014 00:00 MST0.52P  0.92P  0.00P  
10/03/2014 00:15 MST0.62P  0.96P  0.00P  
10/03/2014 00:30 MST0.59P  0.95P  0.00P  
10/03/2014 00:45 MST0.62P  0.96P  0.00P  
10/03/2014 01:00 MST0.59P  0.95P  0.00P  
10/03/2014 01:15 MST0.52P  0.92P  0.00P  
10/03/2014 01:30 MST0.78P  1.01P  0.00P  
10/03/2014 01:45 MST0.44P  0.89P  0.00P  
10/03/2014 02:00 MST0.65P  0.97P  0.00P  
10/03/2014 02:15 MST0.49P  0.91P  0.00P  
10/03/2014 02:30 MST0.59P  0.95P  0.00P  
10/03/2014 02:45 MST0.57P  0.94P  0.00P  
10/03/2014 03:00 MST0.59P  0.95P  0.00P  
10/03/2014 03:15 MST0.47P  0.90P  0.00P  
10/03/2014 03:30 MST0.54P  0.93P  0.00P  
10/03/2014 03:45 MST0.57P  0.94P  0.00P  
10/03/2014 04:00 MST0.62P  0.96P  0.00P  
10/03/2014 04:15 MST0.65P  0.97P  0.00P  
10/03/2014 04:30 MST0.49P  0.91P  0.00P  
10/03/2014 04:45 MST0.59P  0.95P  0.00P  
10/03/2014 05:00 MST0.54P  0.93P  0.00P  
10/03/2014 05:15 MST0.47P  0.90P  0.00P  
10/03/2014 05:30 MST0.44P  0.89P  0.00P  
10/03/2014 05:45 MST0.59P  0.95P  0.00P  
10/03/2014 06:00 MST0.49P  0.91P  0.00P  
10/03/2014 06:15 MST0.57P  0.94P  0.00P  
10/03/2014 06:30 MST0.68P  0.98P  0.00P  
10/03/2014 06:45 MST0.52P  0.92P  0.00P  
10/03/2014 07:00 MST0.52P  0.92P  0.00P  
10/03/2014 07:15 MST0.54P  0.93P  0.00P  
10/03/2014 07:30 MST0.49P  0.91P  0.00P  
10/03/2014 07:45 MST0.62P  0.96P  0.00P  
10/03/2014 08:00 MST0.44P  0.89P  0.00P  
10/03/2014 08:15 MST0.54P  0.93P  0.00P  
10/03/2014 08:30 MST0.49P  0.91P  0.00P  
10/03/2014 08:45 MST0.62P  0.96P  0.00P  
10/03/2014 09:00 MST0.49P  0.91P  0.00P  
10/03/2014 09:15 MST0.57P  0.94P  0.00P  
10/03/2014 09:30 MST0.57P  0.94P  0.00P  
10/03/2014 09:45 MST0.59P  0.95P  0.00P  
10/03/2014 10:00 MST0.59P  0.95P  0.00P  
10/03/2014 10:15 MST0.54P  0.93P  0.00P  
10/03/2014 10:30 MST0.65P  0.97P  0.00P  
10/03/2014 10:45 MST0.62P  0.96P  0.00P  
10/03/2014 11:00 MST0.52P  0.92P  0.00P  
10/03/2014 11:15 MST0.49P  0.91P  0.00P  
10/03/2014 11:30 MST0.57P  0.94P  0.00P  
10/03/2014 11:45 MST0.57P  0.94P  0.00P  
10/03/2014 12:00 MST0.54P  0.93P  0.00P  
10/03/2014 12:15 MST0.52P  0.92P  0.00P  
10/03/2014 12:30 MST0.57P  0.94P  0.00P  
10/03/2014 12:45 MST0.44P  0.89P  0.00P  
10/03/2014 13:00 MST0.47P  0.90P  0.00P  
10/03/2014 13:15 MST0.49P  0.91P  0.00P  
10/03/2014 13:30 MST0.52P  0.92P  0.00P  
10/03/2014 13:45 MST0.62P  0.96P  0.00P  
10/03/2014 14:00 MST0.57P  0.94P  0.00P  
10/03/2014 14:15 MST0.62P  0.96P  0.00P  
10/03/2014 14:30 MST0.44P  0.89P  0.00P  
10/03/2014 14:45 MST0.49P  0.91P  0.00P  
10/03/2014 15:00 MST0.59P  0.95P  0.00P  
10/03/2014 15:15 MST0.62P  0.96P  0.00P  
10/03/2014 15:30 MST0.65P  0.97P  0.00P  
10/03/2014 15:45 MST0.40P  0.87P  0.00P  
10/03/2014 16:00 MST0.49P  0.91P  0.00P  
10/03/2014 16:15 MST0.47P  0.90P  0.00P  
10/03/2014 16:30 MST0.52P  0.92P  0.00P  
10/03/2014 16:45 MST0.57P  0.94P  0.00P  
10/03/2014 17:00 MST0.44P  0.89P  0.00P  
10/03/2014 17:15 MST0.40P  0.87P  0.00P  
10/03/2014 17:30 MST0.44P  0.89P  0.00P  
10/03/2014 17:45 MST0.49P  0.91P  0.00P  
10/03/2014 18:00 MST0.54P  0.93P  0.00P  
10/03/2014 18:15 MST0.54P  0.93P  0.00P  
10/03/2014 18:30 MST0.42P  0.88P  0.00P  
10/03/2014 18:45 MST0.57P  0.94P  0.00P  
10/03/2014 19:00 MST0.47P  0.90P  0.00P  
10/03/2014 19:15 MST0.52P  0.92P  0.00P  
10/03/2014 19:30 MST0.54P  0.93P  0.00P  
10/03/2014 19:45 MST0.59P  0.95P  0.00P  
10/03/2014 20:00 MST0.47P  0.90P  0.00P  
10/03/2014 20:15 MST0.47P  0.90P  0.00P  
10/03/2014 20:30 MST0.52P  0.92P  0.00P  
10/03/2014 20:45 MST0.59P  0.95P  0.00P  
10/03/2014 21:00 MST0.65P  0.97P  0.00P  
10/03/2014 21:15 MST0.42P  0.88P  0.00P  
10/03/2014 21:30 MST0.59P  0.95P  0.00P  
10/03/2014 21:45 MST0.44P  0.89P  0.00P  
10/03/2014 22:00 MST0.54P  0.93P  0.00P  
10/03/2014 22:15 MST0.49P  0.91P  0.00P  
10/03/2014 22:30 MST0.49P  0.91P  0.00P  
10/03/2014 22:45 MST0.62P  0.96P  0.00P  
10/03/2014 23:00 MST0.57P  0.94P  0.00P  
10/03/2014 23:15 MST0.54P  0.93P  0.00P  
10/03/2014 23:30 MST0.52P  0.92P  0.00P  
10/03/2014 23:45 MST0.57P  0.94P  0.00P  
10/04/2014 00:00 MST0.57P  0.94P  0.00P  
10/04/2014 00:15 MST0.57P  0.94P  0.00P  
10/04/2014 00:30 MST0.62P  0.96P  0.00P  
10/04/2014 00:45 MST0.59P  0.95P  0.00P  
10/04/2014 01:00 MST0.65P  0.97P  0.00P  
10/04/2014 01:15 MST0.52P  0.92P  0.00P  
10/04/2014 01:30 MST0.59P  0.95P  0.00P  
10/04/2014 01:45 MST0.54P  0.93P  0.00P  
10/04/2014 02:00 MST0.62P  0.96P  0.00P  
10/04/2014 02:15 MST0.49P  0.91P  0.00P  
10/04/2014 02:30 MST0.54P  0.93P  0.00P  
10/04/2014 02:45 MST0.59P  0.95P  0.00P  
10/04/2014 03:00 MST0.42P  0.88P  0.00P  
10/04/2014 03:15 MST0.47P  0.90P  0.00P  
10/04/2014 03:30 MST0.57P  0.94P  0.00P  
10/04/2014 03:45 MST0.44P  0.89P  0.00P  
10/04/2014 04:00 MST0.62P  0.96P  0.00P  
10/04/2014 04:15 MST0.44P  0.89P  0.00P  
10/04/2014 04:30 MST0.62P  0.96P  0.00P  
10/04/2014 04:45 MST0.52P  0.92P  0.00P  
10/04/2014 05:00 MST0.57P  0.94P  0.00P  
10/04/2014 05:15 MST0.42P  0.88P  0.00P  
10/04/2014 05:30 MST0.47P  0.90P  0.00P  
10/04/2014 05:45 MST0.54P  0.93P  0.00P  
10/04/2014 06:00 MST0.49P  0.91P  0.00P  
10/04/2014 06:15 MST0.54P  0.93P  0.00P  
10/04/2014 06:30 MST0.59P  0.95P  0.00P  
10/04/2014 06:45 MST0.59P  0.95P  0.00P  
10/04/2014 07:00 MST0.54P  0.93P  0.00P  
10/04/2014 07:15 MST0.49P  0.91P  0.00P  
10/04/2014 07:30 MST0.49P  0.91P  0.00P  
10/04/2014 07:45 MST0.68P  0.98P  0.00P  
10/04/2014 08:00 MST0.68P  0.98P  0.00P  
10/04/2014 08:15 MST0.49P  0.91P  0.00P  
10/04/2014 08:30 MST0.54P  0.93P  0.00P  
10/04/2014 08:45 MST0.57P  0.94P  0.00P  
10/04/2014 09:00 MST0.52P  0.92P  0.00P  
10/04/2014 09:15 MST0.54P  0.93P  0.00P  
10/04/2014 09:30 MST0.47P  0.90P  0.00P  
10/04/2014 09:45 MST0.44P  0.89P  0.00P  
10/04/2014 10:00 MST0.47P  0.90P  0.00P  
10/04/2014 10:15 MST0.52P  0.92P  0.00P  
10/04/2014 10:30 MST0.47P  0.90P  0.00P  
10/04/2014 10:45 MST0.47P  0.90P  0.00P  
10/04/2014 11:00 MST0.52P  0.92P  0.00P  
10/04/2014 11:15 MST0.44P  0.89P  0.00P  
10/04/2014 11:30 MST0.44P  0.89P  0.00P  
10/04/2014 11:45 MST0.47P  0.90P  0.00P  
10/04/2014 12:00 MST0.57P  0.94P  0.00P  
10/04/2014 12:15 MST0.57P  0.94P  0.00P  
10/04/2014 12:30 MST0.49P  0.91P  0.00P  
10/04/2014 12:45 MST0.54P  0.93P  0.00P  
10/04/2014 13:00 MST0.59P  0.95P  0.00P  
10/04/2014 13:15 MST0.52P  0.92P  0.00P  
10/04/2014 13:30 MST0.42P  0.88P  0.00P  
10/04/2014 13:45 MST0.54P  0.93P  0.00P  
10/04/2014 14:00 MST0.47P  0.90P  0.00P  
10/04/2014 14:15 MST0.36P  0.85P  0.00P  
10/04/2014 14:30 MST0.52P  0.92P  0.00P  
10/04/2014 14:45 MST0.47P  0.90P  0.00P  
10/04/2014 15:00 MST0.40P  0.87P  0.00P  
10/04/2014 15:15 MST0.40P  0.87P  0.00P  
10/04/2014 15:30 MST0.49P  0.91P  0.00P  
10/04/2014 15:45 MST0.36P  0.85P  0.00P  
10/04/2014 16:00 MST0.65P  0.97P  0.00P  
10/04/2014 16:15 MST0.40P  0.87P  0.00P  
10/04/2014 16:30 MST0.52P  0.92P  0.00P  
10/04/2014 16:45 MST0.62P  0.96P  0.00P  
10/04/2014 17:00 MST0.62P  0.96P  0.00P  
10/04/2014 17:15 MST0.54P  0.93P  0.00P  
10/04/2014 17:30 MST0.44P  0.89P  0.00P  
10/04/2014 17:45 MST0.40P  0.87P  0.00P  
10/04/2014 18:00 MST0.49P  0.91P  0.00P  
10/04/2014 18:15 MST0.38P  0.86P  0.00P  
10/04/2014 18:30 MST0.38P  0.86P  0.00P  
10/04/2014 18:45 MST0.59P  0.95P  0.00P  
10/04/2014 19:00 MST0.59P  0.95P  0.00P  
10/04/2014 19:15 MST0.34P  0.84P  0.00P  
10/04/2014 19:30 MST0.49P  0.91P  0.00P  
10/04/2014 19:45 MST0.49P  0.91P  0.00P  
10/04/2014 20:00 MST0.59P  0.95P  0.00P  
10/04/2014 20:15 MST0.54P  0.93P  0.00P  
10/04/2014 20:30 MST0.47P  0.90P  0.00P  
10/04/2014 20:45 MST0.44P  0.89P  0.00P  
10/04/2014 21:00 MST0.42P  0.88P  0.00P  
10/04/2014 21:15 MST0.49P  0.91P  0.00P  
10/04/2014 21:30 MST0.47P  0.90P  0.00P  
10/04/2014 21:45 MST0.54P  0.93P  0.00P  
10/04/2014 22:00 MST0.52P  0.92P  0.00P  
10/04/2014 22:15 MST0.62P  0.96P  0.00P  
10/04/2014 22:30 MST0.36P  0.85P  0.00P  
10/04/2014 22:45 MST0.49P  0.91P  0.00P  
10/04/2014 23:00 MST0.71P  0.99P  0.00P  
10/04/2014 23:15 MST0.54P  0.93P  0.00P  
10/04/2014 23:30 MST0.54P  0.93P  0.00P  
10/04/2014 23:45 MST0.49P  0.91P  0.00P  
10/05/2014 00:00 MST0.47P  0.90P  0.00P  
10/05/2014 00:15 MST0.52P  0.92P  0.00P  
10/05/2014 00:30 MST0.42P  0.88P  0.00P  
10/05/2014 00:45 MST0.57P  0.94P  0.00P  
10/05/2014 01:00 MST0.59P  0.95P  0.00P  
10/05/2014 01:15 MST0.44P  0.89P  0.00P  
10/05/2014 01:30 MST0.52P  0.92P  0.00P  
10/05/2014 01:45 MST0.49P  0.91P  0.00P  
10/05/2014 02:00 MST0.40P  0.87P  0.00P  
10/05/2014 02:15 MST0.49P  0.91P  0.00P  
10/05/2014 02:30 MST0.52P  0.92P  0.00P  
10/05/2014 02:45 MST0.54P  0.93P  0.00P  
10/05/2014 03:00 MST0.44P  0.89P  0.00P  
10/05/2014 03:15 MST0.68P  0.98P  0.00P  
10/05/2014 03:30 MST0.44P  0.89P  0.00P  
10/05/2014 03:45 MST0.52P  0.92P  0.00P  
10/05/2014 04:00 MST0.44P  0.89P  0.00P  
10/05/2014 04:15 MST0.68P  0.98P  0.00P  
10/05/2014 04:30 MST0.49P  0.91P  0.00P  
10/05/2014 04:45 MST0.52P  0.92P  0.00P  
10/05/2014 05:00 MST0.52P  0.92P  0.00P  
10/05/2014 05:15 MST0.47P  0.90P  0.00P  
10/05/2014 05:30 MST0.52P  0.92P  0.00P  
10/05/2014 05:45 MST0.42P  0.88P  0.00P  
10/05/2014 06:00 MST0.54P  0.93P  0.00P  
10/05/2014 06:15 MST0.49P  0.91P  0.00P  
10/05/2014 06:30 MST0.52P  0.92P  0.00P  
10/05/2014 06:45 MST0.52P  0.92P  0.00P  
10/05/2014 07:00 MST0.42P  0.88P  0.00P  
10/05/2014 07:15 MST0.44P  0.89P  0.00P  
10/05/2014 07:30 MST0.42P  0.88P  0.00P  
10/05/2014 07:45 MST0.65P  0.97P  0.00P  
10/05/2014 08:00 MST0.54P  0.93P  0.00P  
10/05/2014 08:15 MST0.44P  0.89P  0.00P  
10/05/2014 08:30 MST0.49P  0.91P  0.00P  
10/05/2014 08:45 MST0.54P  0.93P  0.00P  
10/05/2014 09:00 MST0.62P  0.96P  0.00P  
10/05/2014 09:15 MST0.40P  0.87P  0.00P  
10/05/2014 09:30 MST0.44P  0.89P  0.00P  
10/05/2014 09:45 MST0.62P  0.96P  0.00P  
10/05/2014 10:00 MST0.40P  0.87P  0.00P  
10/05/2014 10:15 MST0.59P  0.95P  0.00P  
10/05/2014 10:30 MST0.59P  0.95P  0.00P  
10/05/2014 10:45 MST0.38P  0.86P  0.00P  
10/05/2014 11:00 MST0.52P  0.92P  0.00P  
10/05/2014 11:15 MST0.49P  0.91P  0.00P  
10/05/2014 11:30 MST0.65P  0.97P  0.00P  
10/05/2014 11:45 MST0.68P  0.98P  0.00P  
10/05/2014 12:00 MST0.49P  0.91P  0.00P  
10/05/2014 12:15 MST0.44P  0.89P  0.00P  
10/05/2014 12:30 MST0.54P  0.93P  0.00P  
10/05/2014 12:45 MST0.49P  0.91P  0.00P  
10/05/2014 13:00 MST0.40P  0.87P  0.00P  
10/05/2014 13:15 MST0.44P  0.89P  0.00P  
10/05/2014 13:30 MST0.40P  0.87P  0.00P  
10/05/2014 13:45 MST0.52P  0.92P  0.00P  
10/05/2014 14:00 MST0.40P  0.87P  0.00P  
10/05/2014 14:15 MST0.47P  0.90P  0.00P  
10/05/2014 14:30 MST0.47P  0.90P  0.00P  
10/05/2014 14:45 MST0.49P  0.91P  0.00P  
10/05/2014 15:00 MST0.40P  0.87P  0.00P  
10/05/2014 15:15 MST0.47P  0.90P  0.00P  
10/05/2014 15:30 MST0.52P  0.92P  0.00P  
10/05/2014 15:45 MST0.40P  0.87P  0.00P  
10/05/2014 16:00 MST0.54P  0.93P  0.00P  
10/05/2014 16:15 MST0.54P  0.93P  0.00P  
10/05/2014 16:30 MST0.47P  0.90P  0.00P  
10/05/2014 16:45 MST0.52P  0.92P  0.00P  
10/05/2014 17:00 MST0.40P  0.87P  0.00P  
10/05/2014 17:15 MST0.54P  0.93P  0.00P  
10/05/2014 17:30 MST0.54P  0.93P  0.00P  
10/05/2014 17:45 MST0.65P  0.97P  0.00P  
10/05/2014 18:00 MST0.52P  0.92P  0.00P  
10/05/2014 18:15 MST0.52P  0.92P  0.00P  
10/05/2014 18:30 MST0.52P  0.92P  0.00P  
10/05/2014 18:45 MST0.38P  0.86P  0.00P  
10/05/2014 19:00 MST0.44P  0.89P  0.00P  
10/05/2014 19:15 MST0.44P  0.89P  0.00P  
10/05/2014 19:30 MST0.40P  0.87P  0.00P  
10/05/2014 19:45 MST0.49P  0.91P  0.00P  
10/05/2014 20:00 MST0.42P  0.88P  0.00P  
10/05/2014 20:15 MST0.52P  0.92P  0.00P  
10/05/2014 20:30 MST0.42P  0.88P  0.00P  
10/05/2014 20:45 MST0.47P  0.90P  0.00P  
10/05/2014 21:00 MST0.57P  0.94P  0.00P  
10/05/2014 21:15 MST0.54P  0.93P  0.00P  
10/05/2014 21:30 MST0.57P  0.94P  0.00P  
10/05/2014 21:45 MST0.47P  0.90P  0.00P  
10/05/2014 22:00 MST0.40P  0.87P  0.00P  
10/05/2014 22:15 MST0.49P  0.91P  0.00P  
10/05/2014 22:30 MST0.47P  0.90P  0.00P  
10/05/2014 22:45 MST0.59P  0.95P  0.00P  
10/05/2014 23:00 MST0.49P  0.91P  0.00P  
10/05/2014 23:15 MST0.49P  0.91P  0.00P  
10/05/2014 23:30 MST0.49P  0.91P  0.00P  
10/05/2014 23:45 MST0.62P  0.96P  0.00P  
10/06/2014 00:00 MST0.65P  0.97P  0.00P  
10/06/2014 00:15 MST0.52P  0.92P  0.00P  
10/06/2014 00:30 MST0.59P  0.95P  0.00P  
10/06/2014 00:45 MST0.49P  0.91P  0.00P  
10/06/2014 01:00 MST0.49P  0.91P  0.00P  
10/06/2014 01:15 MST0.49P  0.91P  0.00P  
10/06/2014 01:30 MST0.44P  0.89P  0.00P  
10/06/2014 01:45 MST0.47P  0.90P  0.00P  
10/06/2014 02:00 MST0.40P  0.87P  0.00P  
10/06/2014 02:15 MST0.44P  0.89P  0.00P  
10/06/2014 02:30 MST0.42P  0.88P  0.00P  
10/06/2014 02:45 MST0.47P  0.90P  0.00P  
10/06/2014 03:00 MST0.42P  0.88P  0.00P  
10/06/2014 03:15 MST0.47P  0.90P  0.00P  
10/06/2014 03:30 MST0.52P  0.92P  0.00P  
10/06/2014 03:45 MST0.52P  0.92P  0.00P  
10/06/2014 04:00 MST0.47P  0.90P  0.00P  
10/06/2014 04:15 MST0.57P  0.94P  0.00P  
10/06/2014 04:30 MST0.59P  0.95P  0.00P  
10/06/2014 04:45 MST0.49P  0.91P  0.00P  
10/06/2014 05:00 MST0.52P  0.92P  0.00P  
10/06/2014 05:15 MST0.38P  0.86P  0.00P  
10/06/2014 05:30 MST0.42P  0.88P  0.00P  
10/06/2014 05:45 MST0.44P  0.89P  0.00P  
10/06/2014 06:00 MST0.42P  0.88P  0.00P  
10/06/2014 06:15 MST0.44P  0.89P  0.00P  
10/06/2014 06:30 MST0.44P  0.89P  0.00P  
10/06/2014 06:45 MST0.52P  0.92P  0.00P  
10/06/2014 07:00 MST0.49P  0.91P  0.00P  
10/06/2014 07:15 MST0.49P  0.91P  0.00P  
10/06/2014 07:30 MST0.54P  0.93P  0.00P  
10/06/2014 07:45 MST0.44P  0.89P  0.00P  
10/06/2014 08:00 MST0.71P  0.99P  0.00P  
10/06/2014 08:15 MST0.54P  0.93P  0.00P  
10/06/2014 08:30 MST0.42P  0.88P  0.00P  
10/06/2014 08:45 MST0.44P  0.89P  0.00P  
10/06/2014 09:00 MST0.44P  0.89P  0.00P  
10/06/2014 09:15 MST0.42P  0.88P  0.00P  
10/06/2014 09:30 MST0.54P  0.93P  0.00P  
10/06/2014 09:45 MST0.49P  0.91P  0.00P  
10/06/2014 10:00 MST0.47P  0.90P  0.00P  
10/06/2014 10:15 MST0.49P  0.91P  0.00P  
10/06/2014 10:30 MST0.47P  0.90P  0.00P  
10/06/2014 10:45 MST0.47P  0.90P  0.00P  
10/06/2014 11:00 MST0.47P  0.90P  0.00P  
10/06/2014 11:15 MST0.49P  0.91P  0.00P  
10/06/2014 11:30 MST0.57P  0.94P  0.00P  
10/06/2014 11:45 MST0.47P  0.90P  0.00P  
10/06/2014 12:00 MST0.54P  0.93P  0.00P  
10/06/2014 12:15 MST0.47P  0.90P  0.00P  
10/06/2014 12:30 MST0.52P  0.92P  0.00P  
10/06/2014 12:45 MST0.44P  0.89P  0.00P  
10/06/2014 13:00 MST0.42P  0.88P  0.00P  
10/06/2014 13:15 MST0.57P  0.94P  0.00P  
10/06/2014 13:30 MST0.44P  0.89P  0.00P  
10/06/2014 13:45 MST0.52P  0.92P  0.00P  
10/06/2014 14:00 MST0.47P  0.90P  0.00P  
10/06/2014 14:15 MST0.52P  0.92P  0.00P  
10/06/2014 14:30 MST0.42P  0.88P  0.00P  
10/06/2014 14:45 MST0.52P  0.92P  0.00P  
10/06/2014 15:00 MST0.38P  0.86P  0.00P  
10/06/2014 15:15 MST0.52P  0.92P  0.00P  
10/06/2014 15:30 MST0.47P  0.90P  0.00P  
10/06/2014 15:45 MST0.47P  0.90P  0.00P  
10/06/2014 16:00 MST0.49P  0.91P  0.00P  
10/06/2014 16:15 MST0.40P  0.87P  0.00P  
10/06/2014 16:30 MST0.40P  0.87P  0.00P  
10/06/2014 16:45 MST0.36P  0.85P  0.00P  
10/06/2014 17:00 MST0.38P  0.86P  0.00P  
10/06/2014 17:15 MST0.52P  0.92P  0.00P  
10/06/2014 17:30 MST0.38P  0.86P  0.00P  
10/06/2014 17:45 MST0.54P  0.93P  0.00P  
10/06/2014 18:00 MST0.49P  0.91P  0.00P  
10/06/2014 18:15 MST0.34P  0.84P  0.00P  
10/06/2014 18:30 MST0.36P  0.85P  0.00P  
10/06/2014 18:45 MST0.47P  0.90P  0.00P  
10/06/2014 19:00 MST0.36P  0.85P  0.00P  
10/06/2014 19:15 MST0.40P  0.87P  0.00P  
10/06/2014 19:30 MST0.44P  0.89P  0.00P  
10/06/2014 19:45 MST0.52P  0.92P  0.00P  
10/06/2014 20:00 MST0.47P  0.90P  0.00P  
10/06/2014 20:15 MST0.38P  0.86P  0.00P  
10/06/2014 20:30 MST0.42P  0.88P  0.00P  
10/06/2014 20:45 MST0.52P  0.92P  0.00P  
10/06/2014 21:00 MST0.44P  0.89P  0.00P  
10/06/2014 21:15 MST0.44P  0.89P  0.00P  
10/06/2014 21:30 MST0.36P  0.85P  0.00P  
10/06/2014 21:45 MST0.49P  0.91P  0.00P  
10/06/2014 22:00 MST0.47P  0.90P  0.00P  
10/06/2014 22:15 MST0.47P  0.90P  0.00P  
10/06/2014 22:30 MST0.44P  0.89P  0.00P  
10/06/2014 22:45 MST0.42P  0.88P  0.00P  
10/06/2014 23:00 MST0.44P  0.89P  0.00P  
10/06/2014 23:15 MST0.47P  0.90P  0.00P  
10/06/2014 23:30 MST0.52P  0.92P  0.00P  
10/06/2014 23:45 MST0.52P  0.92P  0.00P  
10/07/2014 00:00 MST0.47P  0.90P  0.00P  
10/07/2014 00:15 MST0.54P  0.93P  0.00P  
10/07/2014 00:30 MST0.34P  0.84P  0.00P  
10/07/2014 00:45 MST0.49P  0.91P  0.00P  
10/07/2014 01:00 MST0.40P  0.87P  0.00P  
10/07/2014 01:15 MST0.47P  0.90P  0.00P  
10/07/2014 01:30 MST0.52P  0.92P  0.00P  
10/07/2014 01:45 MST0.44P  0.89P  0.00P  
10/07/2014 02:00 MST0.52P  0.92P  0.00P  
10/07/2014 02:15 MST0.54P  0.93P  0.00P  
10/07/2014 02:30 MST0.52P  0.92P  0.00P  
10/07/2014 02:45 MST0.42P  0.88P  0.00P  
10/07/2014 03:00 MST0.42P  0.88P  0.00P  
10/07/2014 03:15 MST0.47P  0.90P  0.00P  
10/07/2014 03:30 MST0.52P  0.92P  0.00P  
10/07/2014 03:45 MST0.57P  0.94P  0.00P  
10/07/2014 04:00 MST0.54P  0.93P  0.00P  
10/07/2014 04:15 MST0.36P  0.85P  0.00P  
10/07/2014 04:30 MST0.62P  0.96P  0.00P  
10/07/2014 04:45 MST0.38P  0.86P  0.00P  
10/07/2014 05:00 MST0.49P  0.91P  0.00P  
10/07/2014 05:15 MST0.47P  0.90P  0.00P  
10/07/2014 05:30 MST0.40P  0.87P  0.00P  
10/07/2014 05:45 MST0.54P  0.93P  0.00P  
10/07/2014 06:00 MST0.49P  0.91P  0.00P  
10/07/2014 06:15 MST0.47P  0.90P  0.00P  
10/07/2014 06:30 MST0.49P  0.91P  0.00P  
10/07/2014 06:45 MST0.44P  0.89P  0.00P  
10/07/2014 07:00 MST0.57P  0.94P  0.00P  
10/07/2014 07:15 MST0.49P  0.91P  0.00P  
10/07/2014 07:30 MST0.57P  0.94P  0.00P  
10/07/2014 07:45 MST0.42P  0.88P  0.00P  
10/07/2014 08:00 MST0.49P  0.91P  0.00P  
10/07/2014 08:15 MST0.57P  0.94P  0.00P  
10/07/2014 08:30 MST0.49P  0.91P  0.00P  
10/07/2014 08:45 MST0.49P  0.91P  0.00P  
10/07/2014 09:00 MST0.62P  0.96P  0.00P  
10/07/2014 09:15 MST0.75P  1.00P  0.00P  
10/07/2014 09:30 MST0.52P  0.92P  0.00P  
10/07/2014 09:45 MST0.54P  0.93P  0.00P  
10/07/2014 10:00 MST0.44P  0.89P  0.00P  
10/07/2014 10:15 MST0.62P  0.96P  0.00P  
10/07/2014 10:30 MST0.62P  0.96P  0.00P  
10/07/2014 10:45 MST0.52P  0.92P  0.00P  
10/07/2014 11:00 MST0.44P  0.89P  0.00P  
10/07/2014 11:15 MST0.47P  0.90P  0.00P  
10/07/2014 11:30 MST0.44P  0.89P  0.00P  
10/07/2014 11:45 MST0.42P  0.88P  0.00P  
10/07/2014 12:00 MST0.44P  0.89P  0.00P  
10/07/2014 12:15 MST0.42P  0.88P  0.00P  
10/07/2014 12:30 MST0.42P  0.88P  0.00P  
10/07/2014 12:45 MST0.42P  0.88P  0.00P  
10/07/2014 13:00 MST0.40P  0.87P  0.00P  
10/07/2014 13:15 MST0.42P  0.88P  0.00P  
10/07/2014 13:30 MST0.42P  0.88P  0.00P  
10/07/2014 13:45 MST0.40P  0.87P  0.00P  
10/07/2014 14:00 MST0.42P  0.88P  0.00P  
10/07/2014 14:15 MST0.47P  0.90P  0.00P  
10/07/2014 14:30 MST0.44P  0.89P  0.04P  
10/07/2014 14:45 MST0.44P  0.89P  0.01P  
10/07/2014 15:00 MST0.44P  0.89P  0.00P  
10/07/2014 15:15 MST0.44P  0.89P  0.02P  
10/07/2014 15:30 MST0.42P  0.88P  0.00P  
10/07/2014 15:45 MST0.44P  0.89P  0.02P  
10/07/2014 16:00 MST0.42P  0.88P  0.00P  
10/07/2014 16:15 MST0.44P  0.89P  0.00P  
10/07/2014 16:30 MST0.44P  0.89P  0.00P  
10/07/2014 16:45 MST0.44P  0.89P  0.00P  
10/07/2014 17:00 MST0.44P  0.89P  0.00P  
10/07/2014 17:15 MST0.44P  0.89P  0.00P  
10/07/2014 17:30 MST0.42P  0.88P  0.00P  
10/07/2014 17:45 MST0.47P  0.90P  0.00P  
10/07/2014 18:00 MST0.47P  0.90P  0.00P  
10/07/2014 18:15 MST0.44P  0.89P  0.00P  
10/07/2014 18:30 MST0.44P  0.89P  0.00P  
10/07/2014 18:45 MST0.49P  0.91P  0.00P  
10/07/2014 19:00 MST0.44P  0.89P  0.00P  
10/07/2014 19:15 MST0.44P  0.89P  0.00P  
10/07/2014 19:30 MST0.44P  0.89P  0.00P  
10/07/2014 19:45 MST0.44P  0.89P  0.00P  
10/07/2014 20:00 MST0.44P  0.89P  0.00P  
10/07/2014 20:15 MST0.54P  0.93P  0.06P  
10/07/2014 20:30 MST0.49P  0.91P  0.02P  
10/07/2014 20:45 MST0.49P  0.91P  0.00P  
10/07/2014 21:00 MST0.47P  0.90P  0.00P  
10/07/2014 21:15 MST0.49P  0.91P  0.00P  
10/07/2014 21:30 MST0.47P  0.90P  0.00P  
10/07/2014 21:45 MST0.47P  0.90P  0.00P  
10/07/2014 22:00 MST0.44P  0.89P  0.00P  
10/07/2014 22:15 MST0.47P  0.90P  0.00P  
10/07/2014 22:30 MST0.47P  0.90P  0.00P  
10/07/2014 22:45 MST0.49P  0.91P  0.01P  
10/07/2014 23:00 MST0.47P  0.90P  0.00P  
10/07/2014 23:15 MST0.49P  0.91P  0.09P  
10/07/2014 23:30 MST0.62P  0.96P  0.12P  
10/07/2014 23:45 MST0.59P  0.95P  0.02P  
10/08/2014 00:00 MST0.57P  0.94P  0.03P  
10/08/2014 00:15 MST0.54P  0.93P  0.01P  
10/08/2014 00:30 MST0.57P  0.94P  0.01P  
10/08/2014 00:45 MST0.57P  0.94P  0.00P  
10/08/2014 01:00 MST0.52P  0.92P  0.00P  
10/08/2014 01:15 MST0.54P  0.93P  0.01P  
10/08/2014 01:30 MST0.52P  0.92P  0.00P  
10/08/2014 01:45 MST0.52P  0.92P  0.00P  
10/08/2014 02:00 MST0.54P  0.93P  0.00P  
10/08/2014 02:15 MST0.54P  0.93P  0.00P  
10/08/2014 02:30 MST0.54P  0.93P  0.00P  
10/08/2014 02:45 MST0.54P  0.93P  0.00P  
10/08/2014 03:00 MST0.54P  0.93P  0.01P  
10/08/2014 03:15 MST0.54P  0.93P  0.00P  
10/08/2014 03:30 MST0.52P  0.92P  0.00P  
10/08/2014 03:45 MST0.54P  0.93P  0.00P  
10/08/2014 04:00 MST0.54P  0.93P  0.00P  
10/08/2014 04:15 MST0.52P  0.92P  0.00P  
10/08/2014 04:30 MST0.52P  0.92P  0.00P  
10/08/2014 04:45 MST0.54P  0.93P  0.00P  
10/08/2014 05:00 MST0.54P  0.93P  0.00P  
10/08/2014 05:15 MST0.52P  0.92P  0.00P  
10/08/2014 05:30 MST0.52P  0.92P  0.00P  
10/08/2014 05:45 MST0.52P  0.92P  0.00P  
10/08/2014 06:00 MST0.52P  0.92P  0.00P  
10/08/2014 06:15 MST0.52P  0.92P  0.00P  
10/08/2014 06:30 MST0.52P  0.92P  0.00P  
10/08/2014 06:45 MST0.52P  0.92P  0.00P  
10/08/2014 07:00 MST0.52P  0.92P  0.00P  
10/08/2014 07:15 MST0.52P  0.92P  0.00P  
10/08/2014 07:30 MST0.52P  0.92P  0.00P  
10/08/2014 07:45 MST0.52P  0.92P  0.01P  
10/08/2014 08:00 MST0.49P  0.91P  0.00P  
10/08/2014 08:15 MST0.52P  0.92P  0.00P  
10/08/2014 08:30 MST      0.00P  
10/08/2014 08:45 MST0.54P  0.93P  0.00P  
10/08/2014 09:00 MST0.52P  0.92P  0.00P  
10/08/2014 09:15 MST0.49P  0.91P  0.00P  
10/08/2014 09:30 MST0.52P  0.92P  0.00P  
10/08/2014 09:45 MST0.49P  0.91P  0.00P  
10/08/2014 10:00 MST0.49P  0.91P  0.00P  
10/08/2014 10:15 MST0.49P  0.91P  0.00P  
10/08/2014 10:30 MST0.52P  0.92P  0.00P  
10/08/2014 10:45 MST0.49P  0.91P  0.00P  
10/08/2014 11:00 MST0.49P  0.91P  0.00P  
10/08/2014 11:15 MST0.49P  0.91P  0.00P  
10/08/2014 11:30 MST0.49P  0.91P  0.00P  
10/08/2014 11:45 MST0.49P  0.91P  0.00P  
10/08/2014 12:00 MST0.49P  0.91P  0.00P  
10/08/2014 12:15 MST0.52P  0.92P  0.00P  
10/08/2014 12:30 MST0.49P  0.91P  0.00P  
10/08/2014 12:45 MST0.49P  0.91P  0.00P  
10/08/2014 13:00 MST0.52P  0.92P  0.00P  
10/08/2014 13:15 MST0.49P  0.91P  0.00P  
10/08/2014 13:30 MST0.49P  0.91P  0.00P  
10/08/2014 13:45 MST0.47P  0.90P  0.00P  
10/08/2014 14:00 MST0.49P  0.91P  0.00P  
10/08/2014 14:15 MST0.49P  0.91P  0.00P  
10/08/2014 14:30 MST0.49P  0.91P  0.00P  
10/08/2014 14:45 MST      0.04P  
10/08/2014 15:00 MST0.52P  0.92P  0.01P  
10/08/2014 15:15 MST0.49P  0.91P  0.00P  
10/08/2014 15:30 MST0.54P  0.93P  0.06P  
10/08/2014 15:45 MST0.62P  0.96P  0.08P  
10/08/2014 16:00 MST0.68P  0.98P  0.10P  
10/08/2014 16:15 MST0.71P  0.99P  0.06P  
10/08/2014 16:30 MST0.68P  0.98P  0.02P  
10/08/2014 16:45 MST2.4P  1.25P  0.02P  
10/08/2014 17:00 MST5.4P  1.48P  0.05P  
10/08/2014 17:15 MST3.2P  1.33P  0.01P  
10/08/2014 17:30 MST2.7P  1.28P  0.01P  
10/08/2014 17:45 MST2.1P  1.22P  0.00P  
10/08/2014 18:00 MST1.6P  1.16P  0.01P  
10/08/2014 18:15 MST1.6P  1.16P  0.00P  
10/08/2014 18:30 MST1.2P  1.09P  0.02P  
10/08/2014 18:45 MST1.1P  1.08P  0.00P  
10/08/2014 19:00 MST1.0P  1.06P  0.00P  
10/08/2014 19:15 MST0.93P  1.04P  0.00P  
10/08/2014 19:30 MST1.0P  1.06P  0.00P  
10/08/2014 19:45 MST1.0P  1.06P  0.01P  
10/08/2014 20:00 MST0.93P  1.04P  0.00P  
10/08/2014 20:15 MST0.93P  1.04P  0.00P  
10/08/2014 20:30 MST0.89P  1.03P  0.00P  
10/08/2014 20:45 MST0.89P  1.03P  0.00P  
10/08/2014 21:00 MST0.82P  1.02P  0.00P  
10/08/2014 21:15 MST0.78P  1.01P  0.00P  
10/08/2014 21:30 MST0.78P  1.01P  0.00P  
10/08/2014 21:45 MST0.75P  1.00P  0.00P  
10/08/2014 22:00 MST0.71P  0.99P  0.00P  
10/08/2014 22:15 MST0.75P  1.00P  0.00P  
10/08/2014 22:30 MST0.71P  0.99P  0.00P  
10/08/2014 22:45 MST0.71P  0.99P  0.00P  
10/08/2014 23:00 MST0.65P  0.97P  0.00P  
10/08/2014 23:15 MST0.65P  0.97P  0.00P  
10/08/2014 23:30 MST0.68P  0.98P  0.00P  
10/08/2014 23:45 MST0.62P  0.96P  0.00P  
10/09/2014 00:00 MST0.62P  0.96P  0.00P  
10/09/2014 00:15 MST0.62P  0.96P  0.00P  
10/09/2014 00:30 MST0.62P  0.96P  0.00P  
10/09/2014 00:45 MST0.62P  0.96P  0.00P  
10/09/2014 01:00 MST0.59P  0.95P  0.00P  
10/09/2014 01:15 MST0.57P  0.94P  0.00P  
10/09/2014 01:30 MST0.59P  0.95P  0.00P  
10/09/2014 01:45 MST0.57P  0.94P  0.00P  
10/09/2014 02:00 MST      0.00P  
10/09/2014 02:15 MST0.59P  0.95P  0.00P  
10/09/2014 02:30 MST0.57P  0.94P  0.00P  
10/09/2014 02:45 MST0.57P  0.94P  0.00P  
10/09/2014 03:00 MST0.54P  0.93P  0.00P  
10/09/2014 03:15 MST0.57P  0.94P  0.00P  
10/09/2014 03:30 MST0.57P  0.94P  0.00P  
10/09/2014 03:45 MST0.54P  0.93P  0.00P  
10/09/2014 04:00 MST0.57P  0.94P  0.00P  
10/09/2014 04:15 MST0.57P  0.94P  0.00P  
10/09/2014 04:30 MST0.57P  0.94P  0.00P  
10/09/2014 04:45 MST0.54P  0.93P  0.00P  
10/09/2014 05:00 MST0.54P  0.93P  0.00P  
10/09/2014 05:15 MST0.59P  0.95P  0.00P  
10/09/2014 05:30 MST0.57P  0.94P  0.00P  
10/09/2014 05:45 MST0.57P  0.94P  0.00P  
10/09/2014 06:00 MST0.54P  0.93P  0.00P  
10/09/2014 06:15 MST0.54P  0.93P  0.00P  
10/09/2014 06:30 MST0.59P  0.95P  0.00P  
10/09/2014 06:45 MST0.57P  0.94P  0.00P  
10/09/2014 07:00 MST0.54P  0.93P  0.00P  
10/09/2014 07:15 MST0.54P  0.93P  0.00P  
10/09/2014 07:30 MST0.54P  0.93P  0.00P  
10/09/2014 07:45 MST0.59P  0.95P  0.00P  
10/09/2014 08:00 MST0.52P  0.92P  0.00P  
10/09/2014 08:15 MST0.54P  0.93P  0.00P  
10/09/2014 08:30 MST0.54P  0.93P  0.00P  
10/09/2014 08:45 MST0.54P  0.93P  0.00P  
10/09/2014 09:00 MST0.54P  0.93P  0.00P  
10/09/2014 09:15 MST0.54P  0.93P  0.00P  
10/09/2014 09:30 MST0.52P  0.92P  0.00P  
10/09/2014 09:45 MST0.54P  0.93P  0.00P  
10/09/2014 10:00 MST0.54P  0.93P  0.00P  
10/09/2014 10:15 MST0.54P  0.93P  0.00P  
10/09/2014 10:30 MST0.52P  0.92P  0.00P  
10/09/2014 10:45 MST0.52P  0.92P  0.00P  
10/09/2014 11:00 MST0.52P  0.92P  0.00P  
10/09/2014 11:15 MST0.54P  0.93P  0.00P  
10/09/2014 11:30 MST0.54P  0.93P  0.00P  
10/09/2014 11:45 MST0.52P  0.92P  0.00P  
10/09/2014 12:00 MST0.54P  0.93P  0.00P  
10/09/2014 12:15 MST0.52P  0.92P  0.00P  
10/09/2014 12:30 MST0.52P  0.92P  0.00P  
10/09/2014 12:45 MST0.52P  0.92P  0.00P  
10/09/2014 13:00 MST0.49P  0.91P  0.00P  
10/09/2014 13:15 MST0.52P  0.92P  0.00P  
10/09/2014 13:30 MST0.52P  0.92P  0.00P  
10/09/2014 13:45 MST0.49P  0.91P  0.00P  
10/09/2014 14:00 MST0.49P  0.91P  0.00P  
10/09/2014 14:15 MST0.52P  0.92P  0.00P  
10/09/2014 14:30 MST0.52P  0.92P  0.00P  
10/09/2014 14:45 MST0.52P  0.92P  0.00P  
10/09/2014 15:00 MST0.52P  0.92P  0.00P  
10/09/2014 15:15 MST0.52P  0.92P  0.00P  
10/09/2014 15:30 MST0.49P  0.91P  0.00P  
10/09/2014 15:45 MST0.52P  0.92P  0.00P  
10/09/2014 16:00 MST0.52P  0.92P  0.00P  
10/09/2014 16:15 MST      0.00P  
10/09/2014 16:30 MST0.52P  0.92P  0.00P  
10/09/2014 16:45 MST0.49P  0.91P  0.00P  
10/09/2014 17:00 MST0.52P  0.92P  0.00P  
10/09/2014 17:15 MST0.52P  0.92P  0.00P  
10/09/2014 17:30 MST0.52P  0.92P  0.00P  
10/09/2014 17:45 MST0.49P  0.91P  0.00P  
10/09/2014 18:00 MST0.49P  0.91P  0.00P  
10/09/2014 18:15 MST0.49P  0.91P  0.00P  
10/09/2014 18:30 MST0.52P  0.92P  0.00P  
10/09/2014 18:45 MST0.49P  0.91P  0.00P  
10/09/2014 19:00 MST0.54P  0.93P  0.00P  
10/09/2014 19:15 MST0.52P  0.92P  0.00P  
10/09/2014 19:30 MST0.49P  0.91P  0.00P  
10/09/2014 19:45 MST0.49P  0.91P  0.00P  
10/09/2014 20:00 MST0.49P  0.91P  0.00P  
10/09/2014 20:15 MST0.57P  0.94P  0.00P  
10/09/2014 20:30 MST0.49P  0.91P  0.00P  
10/09/2014 20:45 MST0.52P  0.92P  0.00P  
10/09/2014 21:00 MST0.47P  0.90P  0.00P  
10/09/2014 21:15 MST0.49P  0.91P  0.00P  
10/09/2014 21:30 MST0.49P  0.91P  0.00P  
10/09/2014 21:45 MST0.52P  0.92P  0.00P  
10/09/2014 22:00 MST0.49P  0.91P  0.00P  
10/09/2014 22:15 MST0.49P  0.91P  0.00P  
10/09/2014 22:30 MST0.49P  0.91P  0.00P  
10/09/2014 22:45 MST0.49P  0.91P  0.00P  
10/09/2014 23:00 MST0.49P  0.91P  0.00P  
10/09/2014 23:15 MST0.47P  0.90P  0.00P  
10/09/2014 23:30 MST0.49P  0.91P  0.00P  
10/09/2014 23:45 MST0.49P  0.91P  0.00P  
10/10/2014 00:00 MST0.49P  0.91P  0.00P  
10/10/2014 00:15 MST0.49P  0.91P  0.00P  
10/10/2014 00:30 MST0.49P  0.91P  0.00P  
10/10/2014 00:45 MST0.52P  0.92P  0.00P  
10/10/2014 01:00 MST0.49P  0.91P  0.00P  
10/10/2014 01:15 MST0.47P  0.90P  0.00P  
10/10/2014 01:30 MST0.49P  0.91P  0.00P  
10/10/2014 01:45 MST0.49P  0.91P  0.00P  
10/10/2014 02:00 MST0.52P  0.92P  0.00P  
10/10/2014 02:15 MST0.49P  0.91P  0.00P  
10/10/2014 02:30 MST0.49P  0.91P  0.00P  
10/10/2014 02:45 MST0.47P  0.90P  0.00P  
10/10/2014 03:00 MST0.49P  0.91P  0.00P  
10/10/2014 03:15 MST0.52P  0.92P  0.00P  
10/10/2014 03:30 MST0.49P  0.91P  0.00P  
10/10/2014 03:45 MST0.52P  0.92P  0.00P  
10/10/2014 04:00 MST0.52P  0.92P  0.00P  
10/10/2014 04:15 MST0.52P  0.92P  0.00P  
10/10/2014 04:30 MST0.52P  0.92P  0.00P  
10/10/2014 04:45 MST0.52P  0.92P  0.00P  
10/10/2014 05:00 MST0.52P  0.92P  0.00P  
10/10/2014 05:15 MST0.52P  0.92P  0.00P  
10/10/2014 05:30 MST0.52P  0.92P  0.00P  
10/10/2014 05:45 MST0.54P  0.93P  0.00P  
10/10/2014 06:00 MST0.52P  0.92P  0.00P  
10/10/2014 06:15 MST0.54P  0.93P  0.00P  
10/10/2014 06:30 MST0.52P  0.92P  0.00P  
10/10/2014 06:45 MST0.49P  0.91P  0.00P  
10/10/2014 07:00 MST0.52P  0.92P  0.00P  
10/10/2014 07:15 MST0.54P  0.93P  0.00P  
10/10/2014 07:30 MST0.52P  0.92P  0.00P  
10/10/2014 07:45 MST0.54P  0.93P  0.00P  
10/10/2014 08:00 MST0.54P  0.93P  0.00P  
10/10/2014 08:15 MST0.52P  0.92P  0.00P  
10/10/2014 08:30 MST0.52P  0.92P  0.00P  
10/10/2014 08:45 MST0.54P  0.93P  0.00P  
10/10/2014 09:00 MST0.52P  0.92P  0.00P  
10/10/2014 09:15 MST0.54P  0.93P  0.00P  
10/10/2014 09:30 MST0.52P  0.92P  0.00P  
10/10/2014 09:45 MST0.52P  0.92P  0.00P  
10/10/2014 10:00 MST0.54P  0.93P  0.00P  
10/10/2014 10:15 MST0.52P  0.92P  0.00P  
10/10/2014 10:30 MST0.54P  0.93P  0.00P  
10/10/2014 10:45 MST0.52P  0.92P  0.00P  
10/10/2014 11:00 MST0.54P  0.93P  0.00P  
10/10/2014 11:15 MST0.52P  0.92P  0.00P  
10/10/2014 11:30 MST0.52P  0.92P  0.00P  
10/10/2014 11:45 MST0.52P  0.92P  0.00P  
10/10/2014 12:00 MST0.52P  0.92P  0.00P  
10/10/2014 12:15 MST0.52P  0.92P  0.00P  
10/10/2014 12:30 MST0.49P  0.91P  0.00P  
10/10/2014 12:45 MST0.52P  0.92P  0.00P  
10/10/2014 13:00 MST0.49P  0.91P  0.00P  
10/10/2014 13:15 MST0.52P  0.92P  0.00P  
10/10/2014 13:30 MST0.52P  0.92P  0.00P  
10/10/2014 13:45 MST0.49P  0.91P  0.00P  
10/10/2014 14:00 MST0.49P  0.91P  0.00P  
10/10/2014 14:15 MST0.49P  0.91P  0.00P  
10/10/2014 14:30 MST0.49P  0.91P  0.00P  
10/10/2014 14:45 MST0.49P  0.91P  0.00P  
10/10/2014 15:00 MST0.49P  0.91P  0.00P  
10/10/2014 15:15 MST0.49P  0.91P  0.00P  
10/10/2014 15:30 MST0.47P  0.90P  0.00P  
10/10/2014 15:45 MST0.49P  0.91P  0.00P  
10/10/2014 16:00 MST0.47P  0.90P  0.00P  
10/10/2014 16:15 MST0.47P  0.90P  0.00P  
10/10/2014 16:30 MST0.47P  0.90P  0.00P  
10/10/2014 16:45 MST0.49P  0.91P  0.00P  
10/10/2014 17:00 MST0.49P  0.91P  0.00P  
10/10/2014 17:15 MST0.49P  0.91P  0.00P  
10/10/2014 17:30 MST0.47P  0.90P  0.00P  
10/10/2014 17:45 MST0.49P  0.91P  0.00P  
10/10/2014 18:00 MST0.49P  0.91P  0.00P  
10/10/2014 18:15 MST0.49P  0.91P  0.00P  
10/10/2014 18:30 MST0.49P  0.91P  0.00P  
10/10/2014 18:45 MST0.49P  0.91P  0.00P  
10/10/2014 19:00 MST0.49P  0.91P  0.00P  
10/10/2014 19:15 MST0.49P  0.91P  0.00P  
10/10/2014 19:30 MST0.49P  0.91P  0.00P  
10/10/2014 19:45 MST0.47P  0.90P  0.00P  
10/10/2014 20:00 MST0.49P  0.91P  0.00P  
10/10/2014 20:15 MST0.52P  0.92P  0.00P  
10/10/2014 20:30 MST0.49P  0.91P  0.00P  
10/10/2014 20:45 MST0.47P  0.90P  0.00P  
10/10/2014 21:00 MST0.47P  0.90P  0.00P  
10/10/2014 21:15 MST0.49P  0.91P  0.00P  
10/10/2014 21:30 MST0.49P  0.91P  0.00P  
10/10/2014 21:45 MST0.49P  0.91P  0.00P  
10/10/2014 22:00 MST0.49P  0.91P  0.00P  
10/10/2014 22:15 MST0.49P  0.91P  0.00P  
10/10/2014 22:30 MST0.49P  0.91P  0.00P  
10/10/2014 22:45 MST0.49P  0.91P  0.00P  
10/10/2014 23:00 MST0.49P  0.91P  0.00P  
10/10/2014 23:15 MST0.49P  0.91P  0.00P  
10/10/2014 23:30 MST0.49P  0.91P  0.00P  
10/10/2014 23:45 MST0.49P  0.91P  0.00P  
10/11/2014 00:00 MST0.49P  0.91P  0.00P  
10/11/2014 00:15 MST0.49P  0.91P  0.00P  
10/11/2014 00:30 MST0.49P  0.91P  0.00P  
10/11/2014 00:45 MST0.52P  0.92P  0.00P  
10/11/2014 01:00 MST0.49P  0.91P  0.00P  
10/11/2014 01:15 MST0.49P  0.91P  0.00P  
10/11/2014 01:30 MST0.54P  0.93P  0.00P  
10/11/2014 01:45 MST0.57P  0.94P  0.00P  
10/11/2014 02:00 MST0.49P  0.91P  0.00P  
10/11/2014 02:15 MST0.49P  0.91P  0.00P  
10/11/2014 02:30 MST0.49P  0.91P  0.00P  
10/11/2014 02:45 MST0.49P  0.91P  0.00P  
10/11/2014 03:00 MST0.49P  0.91P  0.00P  
10/11/2014 03:15 MST0.49P  0.91P  0.00P  
10/11/2014 03:30 MST0.49P  0.91P  0.00P  
10/11/2014 03:45 MST0.49P  0.91P  0.00P  
10/11/2014 04:00 MST0.47P  0.90P  0.00P  
10/11/2014 04:15 MST0.49P  0.91P  0.00P  
10/11/2014 04:30 MST0.49P  0.91P  0.00P  
10/11/2014 04:45 MST0.54P  0.93P  0.00P  
10/11/2014 05:00 MST0.49P  0.91P  0.00P  
10/11/2014 05:15 MST0.49P  0.91P  0.00P  
10/11/2014 05:30 MST0.49P  0.91P  0.00P  
10/11/2014 05:45 MST      0.00P  
10/11/2014 06:00 MST0.49P  0.91P  0.00P  
10/11/2014 06:15 MST0.49P  0.91P  0.00P  
10/11/2014 06:30 MST0.49P  0.91P  0.00P  
10/11/2014 06:45 MST0.54P  0.93P  0.00P  
10/11/2014 07:00 MST0.49P  0.91P  0.00P  
10/11/2014 07:15 MST0.49P  0.91P  0.00P  
10/11/2014 07:30 MST0.49P  0.91P  0.00P  
10/11/2014 07:45 MST0.52P  0.92P  0.00P  
10/11/2014 08:00 MST0.49P  0.91P  0.00P  
10/11/2014 08:15 MST0.47P  0.90P  0.00P  
10/11/2014 08:30 MST0.49P  0.91P  0.00P  
10/11/2014 08:45 MST0.49P  0.91P  0.00P  
10/11/2014 09:00 MST0.49P  0.91P  0.00P  
10/11/2014 09:15 MST0.49P  0.91P  0.00P  
10/11/2014 09:30 MST0.49P  0.91P  0.00P  
10/11/2014 09:45 MST0.49P  0.91P  0.00P  
10/11/2014 10:00 MST0.47P  0.90P  0.00P  
10/11/2014 10:15 MST0.49P  0.91P  0.00P  
10/11/2014 10:30 MST0.49P  0.91P  0.00P  
10/11/2014 10:45 MST0.49P  0.91P  0.00P  
10/11/2014 11:00 MST0.49P  0.91P  0.00P  
10/11/2014 11:15 MST0.49P  0.91P  0.00P  
10/11/2014 11:30 MST0.49P  0.91P  0.00P  
10/11/2014 11:45 MST0.47P  0.90P  0.00P  
10/11/2014 12:00 MST0.49P  0.91P  0.00P  
10/11/2014 12:15 MST0.49P  0.91P  0.00P  
10/11/2014 12:30 MST0.47P  0.90P  0.00P  
10/11/2014 12:45 MST0.47P  0.90P  0.00P  
10/11/2014 13:00 MST0.47P  0.90P  0.00P  
10/11/2014 13:15 MST0.47P  0.90P  0.00P  
10/11/2014 13:30 MST0.47P  0.90P  0.00P  
10/11/2014 13:45 MST0.47P  0.90P  0.00P  
10/11/2014 14:00 MST0.47P  0.90P  0.00P  
10/11/2014 14:15 MST0.49P  0.91P  0.00P  
10/11/2014 14:30 MST0.44P  0.89P  0.00P  
10/11/2014 14:45 MST0.44P  0.89P  0.00P  
10/11/2014 15:00 MST0.44P  0.89P  0.00P  
10/11/2014 15:15 MST0.49P  0.91P  0.00P  
10/11/2014 15:30 MST0.47P  0.90P  0.00P  
10/11/2014 15:45 MST0.47P  0.90P  0.00P  
10/11/2014 16:00 MST0.47P  0.90P  0.00P  
10/11/2014 16:15 MST0.47P  0.90P  0.00P  
10/11/2014 16:30 MST0.47P  0.90P  0.00P  
10/11/2014 16:45 MST0.47P  0.90P  0.00P  
10/11/2014 17:00 MST0.47P  0.90P  0.00P  
10/11/2014 17:15 MST0.47P  0.90P  0.00P  
10/11/2014 17:30 MST0.44P  0.89P  0.00P  
10/11/2014 17:45 MST0.49P  0.91P  0.00P  
10/11/2014 18:00 MST0.47P  0.90P  0.00P  
10/11/2014 18:15 MST0.47P  0.90P  0.00P  
10/11/2014 18:30 MST0.47P  0.90P  0.00P  
10/11/2014 18:45 MST0.49P  0.91P  0.00P  
10/11/2014 19:00 MST0.54P  0.93P  0.00P  
10/11/2014 19:15 MST0.47P  0.90P  0.00P  
10/11/2014 19:30 MST0.47P  0.90P  0.00P  
10/11/2014 19:45 MST0.49P  0.91P  0.00P  
10/11/2014 20:00 MST0.47P  0.90P  0.00P  
10/11/2014 20:15 MST0.47P  0.90P  0.00P  
10/11/2014 20:30 MST0.49P  0.91P  0.00P  
10/11/2014 20:45 MST0.47P  0.90P  0.00P  
10/11/2014 21:00 MST0.49P  0.91P  0.00P  
10/11/2014 21:15 MST0.49P  0.91P  0.00P  
10/11/2014 21:30 MST0.47P  0.90P  0.00P  
10/11/2014 21:45 MST0.49P  0.91P  0.00P  
10/11/2014 22:00 MST0.49P  0.91P  0.00P  
10/11/2014 22:15 MST0.49P  0.91P  0.00P  
10/11/2014 22:30 MST0.49P  0.91P  0.00P  
10/11/2014 22:45 MST0.49P  0.91P  0.00P  
10/11/2014 23:00 MST0.49P  0.91P  0.00P  
10/11/2014 23:15 MST0.49P  0.91P  0.00P  
10/11/2014 23:30 MST0.47P  0.90P  0.00P  
10/11/2014 23:45 MST0.49P  0.91P  0.00P  
10/12/2014 00:00 MST0.49P  0.91P  0.00P  
10/12/2014 00:15 MST0.49P  0.91P  0.00P  
10/12/2014 00:30 MST0.49P  0.91P  0.00P  
10/12/2014 00:45 MST0.49P  0.91P  0.00P  
10/12/2014 01:00 MST0.49P  0.91P  0.00P  
10/12/2014 01:15 MST0.47P  0.90P  0.00P  
10/12/2014 01:30 MST0.49P  0.91P  0.00P  
10/12/2014 01:45 MST0.47P  0.90P  0.00P  
10/12/2014 02:00 MST0.47P  0.90P  0.00P  
10/12/2014 02:15 MST0.49P  0.91P  0.00P  
10/12/2014 02:30 MST0.49P  0.91P  0.00P  
10/12/2014 02:45 MST0.47P  0.90P  0.00P  
10/12/2014 03:00 MST0.47P  0.90P  0.00P  
10/12/2014 03:15 MST0.47P  0.90P  0.00P  
10/12/2014 03:30 MST0.47P  0.90P  0.00P  
10/12/2014 03:45 MST0.47P  0.90P  0.00P  
10/12/2014 04:00 MST0.47P  0.90P  0.00P  
10/12/2014 04:15 MST0.49P  0.91P  0.00P  
10/12/2014 04:30 MST0.47P  0.90P  0.00P  
10/12/2014 04:45 MST0.49P  0.91P  0.00P  
10/12/2014 05:00 MST0.47P  0.90P  0.00P  
10/12/2014 05:15 MST0.49P  0.91P  0.00P  
10/12/2014 05:30 MST0.47P  0.90P  0.00P  
10/12/2014 05:45 MST0.47P  0.90P  0.00P  
10/12/2014 06:00 MST0.47P  0.90P  0.00P  
10/12/2014 06:15 MST0.47P  0.90P  0.00P  
10/12/2014 06:30 MST0.47P  0.90P  0.00P  
10/12/2014 06:45 MST0.47P  0.90P  0.00P  
10/12/2014 07:00 MST0.49P  0.91P  0.00P  
10/12/2014 07:15 MST0.49P  0.91P  0.00P  
10/12/2014 07:30 MST0.49P  0.91P  0.00P  
10/12/2014 07:45 MST0.52P  0.92P  0.00P  
10/12/2014 08:00 MST0.54P  0.93P  0.00P  
10/12/2014 08:15 MST0.47P  0.90P  0.00P  
10/12/2014 08:30 MST0.49P  0.91P  0.00P  
10/12/2014 08:45 MST0.47P  0.90P  0.00P  
10/12/2014 09:00 MST0.47P  0.90P  0.00P  
10/12/2014 09:15 MST0.49P  0.91P  0.00P  
10/12/2014 09:30 MST0.52P  0.92P  0.00P  
10/12/2014 09:45 MST0.49P  0.91P  0.00P  
10/12/2014 10:00 MST0.47P  0.90P  0.00P  
10/12/2014 10:15 MST0.49P  0.91P  0.00P  
10/12/2014 10:30 MST0.47P  0.90P  0.00P  
10/12/2014 10:45 MST0.49P  0.91P  0.00P  
10/12/2014 11:00 MST0.49P  0.91P  0.00P  
10/12/2014 11:15 MST0.52P  0.92P  0.00P  
10/12/2014 11:30 MST0.49P  0.91P  0.00P  
10/12/2014 11:45 MST0.54P  0.93P  0.00P  
10/12/2014 12:00 MST0.49P  0.91P  0.00P  
10/12/2014 12:15 MST0.49P  0.91P  0.00P  
10/12/2014 12:30 MST0.47P  0.90P  0.00P  
10/12/2014 12:45 MST0.49P  0.91P  0.00P  
10/12/2014 13:00 MST0.47P  0.90P  0.00P  
10/12/2014 13:15 MST0.47P  0.90P  0.00P  
10/12/2014 13:30 MST0.49P  0.91P  0.00P  
10/12/2014 13:45 MST0.47P  0.90P  0.00P  
10/12/2014 14:00 MST0.42P  0.88P  0.00P  
10/12/2014 14:15 MST0.44P  0.89P  0.00P  
10/12/2014 14:30 MST0.44P  0.89P  0.00P  
10/12/2014 14:45 MST0.44P  0.89P  0.00P  
10/12/2014 15:00 MST0.44P  0.89P  0.00P  
10/12/2014 15:15 MST0.44P  0.89P  0.00P  
10/12/2014 15:30 MST0.44P  0.89P  0.00P  
10/12/2014 15:45 MST0.52P  0.92P  0.00P  
10/12/2014 16:00 MST0.44P  0.89P  0.00P  
10/12/2014 16:15 MST0.42P  0.88P  0.00P  
10/12/2014 16:30 MST0.42P  0.88P  0.00P  
10/12/2014 16:45 MST0.44P  0.89P  0.00P  
10/12/2014 17:00 MST0.44P  0.89P  0.00P  
10/12/2014 17:15 MST0.49P  0.91P  0.00P  
10/12/2014 17:30 MST0.44P  0.89P  0.00P  
10/12/2014 17:45 MST0.44P  0.89P  0.00P  
10/12/2014 18:00 MST0.47P  0.90P  0.00P  
10/12/2014 18:15 MST0.47P  0.90P  0.00P  
10/12/2014 18:30 MST0.47P  0.90P  0.00P  
10/12/2014 18:45 MST0.47P  0.90P  0.00P  
10/12/2014 19:00 MST0.49P  0.91P  0.00P  
10/12/2014 19:15 MST0.49P  0.91P  0.00P  
10/12/2014 19:30 MST0.52P  0.92P  0.00P  
10/12/2014 19:45 MST0.52P  0.92P  0.00P  
10/12/2014 20:00 MST0.47P  0.90P  0.00P  
10/12/2014 20:15 MST0.47P  0.90P  0.00P  
10/12/2014 20:30 MST0.47P  0.90P  0.00P  
10/12/2014 20:45 MST0.49P  0.91P  0.00P  
10/12/2014 21:00 MST0.47P  0.90P  0.00P  
10/12/2014 21:15 MST0.47P  0.90P  0.00P  
10/12/2014 21:30 MST0.44P  0.89P  0.00P  
10/12/2014 21:45 MST0.49P  0.91P  0.00P  
10/12/2014 22:00 MST0.44P  0.89P  0.00P  
10/12/2014 22:15 MST0.44P  0.89P  0.00P  
10/12/2014 22:30 MST0.44P  0.89P  0.00P  
10/12/2014 22:45 MST0.42P  0.88P  0.00P  
10/12/2014 23:00 MST0.44P  0.89P  0.00P  
10/12/2014 23:15 MST0.44P  0.89P  0.00P  
10/12/2014 23:30 MST0.44P  0.89P  0.00P  
10/12/2014 23:45 MST0.44P  0.89P  0.00P  
10/13/2014 00:00 MST0.44P  0.89P  0.00P  
10/13/2014 00:15 MST0.44P  0.89P  0.00P  
10/13/2014 00:30 MST0.44P  0.89P  0.00P  
10/13/2014 00:45 MST0.44P  0.89P  0.00P  
10/13/2014 01:00 MST0.44P  0.89P  0.00P  
10/13/2014 01:15 MST0.44P  0.89P  0.00P  
10/13/2014 01:30 MST0.47P  0.90P  0.00P  
10/13/2014 01:45 MST0.49P  0.91P  0.00P  
10/13/2014 02:00 MST0.44P  0.89P  0.00P  
10/13/2014 02:15 MST0.44P  0.89P  0.00P  
10/13/2014 02:30 MST0.49P  0.91P  0.00P  
10/13/2014 02:45 MST0.52P  0.92P  0.00P  
10/13/2014 03:00 MST0.52P  0.92P  0.00P  
10/13/2014 03:15 MST0.49P  0.91P  0.00P  
10/13/2014 03:30 MST0.54P  0.93P  0.00P  
10/13/2014 03:45 MST0.52P  0.92P  0.00P  
10/13/2014 04:00 MST0.52P  0.92P  0.00P  
10/13/2014 04:15 MST0.49P  0.91P  0.00P  
10/13/2014 04:30 MST0.52P  0.92P  0.00P  
10/13/2014 04:45 MST0.52P  0.92P  0.00P  
10/13/2014 05:00 MST0.52P  0.92P  0.00P  
10/13/2014 05:15 MST0.52P  0.92P  0.00P  
10/13/2014 05:30 MST0.52P  0.92P  0.00P  
10/13/2014 05:45 MST0.52P  0.92P  0.00P  
10/13/2014 06:00 MST0.52P  0.92P  0.00P  
10/13/2014 06:15 MST0.52P  0.92P  0.00P  
10/13/2014 06:30 MST0.54P  0.93P  0.00P  
10/13/2014 06:45 MST0.52P  0.92P  0.00P  
10/13/2014 07:00 MST0.54P  0.93P  0.00P  
10/13/2014 07:15 MST0.54P  0.93P  0.00P  
10/13/2014 07:30 MST0.52P  0.92P  0.00P  
10/13/2014 07:45 MST0.52P  0.92P  0.00P  
10/13/2014 08:00 MST0.49P  0.91P  0.00P  
10/13/2014 08:15 MST0.54P  0.93P  0.00P  
10/13/2014 08:30 MST0.52P  0.92P  0.00P  
10/13/2014 08:45 MST0.52P  0.92P  0.00P  
10/13/2014 09:00 MST0.52P  0.92P  0.00P  
10/13/2014 09:15 MST0.52P  0.92P  0.00P  
10/13/2014 09:30 MST0.52P  0.92P  0.00P  
10/13/2014 09:45 MST0.52P  0.92P  0.00P  
10/13/2014 10:00 MST0.52P  0.92P  0.00P  
10/13/2014 10:15 MST0.52P  0.92P  0.00P  
10/13/2014 10:30 MST0.52P  0.92P  0.00P  
10/13/2014 10:45 MST0.49P  0.91P  0.00P  
10/13/2014 11:00 MST0.49P  0.91P  0.00P  
10/13/2014 11:15 MST0.49P  0.91P  0.00P  
10/13/2014 11:30 MST0.52P  0.92P  0.00P  
10/13/2014 11:45 MST0.49P  0.91P  0.00P  
10/13/2014 12:00 MST0.49P  0.91P  0.00P  
10/13/2014 12:15 MST0.52P  0.92P  0.00P  
10/13/2014 12:30 MST0.49P  0.91P  0.00P  
10/13/2014 12:45 MST0.49P  0.91P  0.00P  
10/13/2014 13:00 MST0.49P  0.91P  0.00P  
10/13/2014 13:15 MST0.47P  0.90P  0.00P  
10/13/2014 13:30 MST0.47P  0.90P  0.00P  
10/13/2014 13:45 MST0.49P  0.91P  0.00P  
10/13/2014 14:00 MST0.49P  0.91P  0.00P  
10/13/2014 14:15 MST0.49P  0.91P  0.00P  
10/13/2014 14:30 MST0.47P  0.90P  0.00P  
10/13/2014 14:45 MST0.49P  0.91P  0.00P  
10/13/2014 15:00 MST0.49P  0.91P  0.00P  
10/13/2014 15:15 MST0.49P  0.91P  0.00P  
10/13/2014 15:30 MST0.49P  0.91P  0.00P  
10/13/2014 15:45 MST0.49P  0.91P  0.00P  
10/13/2014 16:00 MST0.49P  0.91P  0.00P  
10/13/2014 16:15 MST0.47P  0.90P  0.00P  
10/13/2014 16:30 MST0.47P  0.90P  0.00P  
10/13/2014 16:45 MST0.47P  0.90P  0.00P  
10/13/2014 17:00 MST0.49P  0.91P  0.00P  
10/13/2014 17:15 MST0.49P  0.91P  0.00P  
10/13/2014 17:30 MST0.49P  0.91P  0.00P  
10/13/2014 17:45 MST0.49P  0.91P  0.00P  
10/13/2014 18:00 MST0.49P  0.91P  0.00P  
10/13/2014 18:15 MST0.49P  0.91P  0.00P  
10/13/2014 18:30 MST0.49P  0.91P  0.00P  
10/13/2014 18:45 MST0.52P  0.92P  0.00P  
10/13/2014 19:00 MST0.52P  0.92P  0.00P  
10/13/2014 19:15 MST0.52P  0.92P  0.00P  
10/13/2014 19:30 MST0.49P  0.91P  0.00P  
10/13/2014 19:45 MST0.49P  0.91P  0.00P  
10/13/2014 20:00 MST0.52P  0.92P  0.00P  
10/13/2014 20:15 MST0.49P  0.91P  0.00P  
10/13/2014 20:30 MST0.54P  0.93P  0.00P  
10/13/2014 20:45 MST0.49P  0.91P  0.00P  
10/13/2014 21:00 MST0.52P  0.92P  0.00P  
10/13/2014 21:15 MST0.54P  0.93P  0.00P  
10/13/2014 21:30 MST0.52P  0.92P  0.00P  
10/13/2014 21:45 MST0.52P  0.92P  0.00P  
10/13/2014 22:00 MST0.49P  0.91P  0.00P  
10/13/2014 22:15 MST0.52P  0.92P  0.00P  
10/13/2014 22:30 MST0.52P  0.92P  0.00P  
10/13/2014 22:45 MST0.52P  0.92P  0.00P  
10/13/2014 23:00 MST0.52P  0.92P  0.00P  
10/13/2014 23:15 MST0.52P  0.92P  0.00P  
10/13/2014 23:30 MST0.52P  0.92P  0.00P  
10/13/2014 23:45 MST0.52P  0.92P  0.00P  
10/14/2014 00:00 MST0.52P  0.92P  0.00P  
10/14/2014 00:15 MST0.52P  0.92P  0.00P  
10/14/2014 00:30 MST0.52P  0.92P  0.00P  
10/14/2014 00:45 MST0.52P  0.92P  0.00P  
10/14/2014 01:00 MST0.52P  0.92P  0.00P  
10/14/2014 01:15 MST0.52P  0.92P  0.00P  
10/14/2014 01:30 MST0.49P  0.91P  0.00P  
10/14/2014 01:45 MST0.52P  0.92P  0.00P  
10/14/2014 02:00 MST0.52P  0.92P  0.00P  
10/14/2014 02:15 MST0.52P  0.92P  0.00P  
10/14/2014 02:30 MST0.54P  0.93P  0.00P  
10/14/2014 02:45 MST0.54P  0.93P  0.00P  
10/14/2014 03:00 MST0.52P  0.92P  0.00P  
10/14/2014 03:15 MST0.52P  0.92P  0.00P  
10/14/2014 03:30 MST0.52P  0.92P  0.00P  
10/14/2014 03:45 MST0.52P  0.92P  0.00P  
10/14/2014 04:00 MST0.52P  0.92P  0.00P  
10/14/2014 04:15 MST0.54P  0.93P  0.00P  
10/14/2014 04:30 MST0.52P  0.92P  0.00P  
10/14/2014 04:45 MST0.52P  0.92P  0.00P  
10/14/2014 05:00 MST0.52P  0.92P  0.00P  
10/14/2014 05:15 MST0.54P  0.93P  0.00P  
10/14/2014 05:30 MST0.52P  0.92P  0.00P  
10/14/2014 05:45 MST0.52P  0.92P  0.00P  
10/14/2014 06:00 MST0.52P  0.92P  0.00P  
10/14/2014 06:15 MST0.52P  0.92P  0.00P  
10/14/2014 06:30 MST0.52P  0.92P  0.00P  
10/14/2014 06:45 MST0.52P  0.92P  0.00P  
10/14/2014 07:00 MST0.52P  0.92P  0.00P  
10/14/2014 07:15 MST0.52P  0.92P  0.00P  
10/14/2014 07:30 MST0.52P  0.92P  0.00P  
10/14/2014 07:45 MST0.52P  0.92P  0.00P  
10/14/2014 08:00 MST0.52P  0.92P  0.00P  
10/14/2014 08:15 MST0.52P  0.92P  0.00P  
10/14/2014 08:30 MST0.52P  0.92P  0.00P  
10/14/2014 08:45 MST0.52P  0.92P  0.00P  
10/14/2014 09:00 MST0.52P  0.92P  0.00P  
10/14/2014 09:15 MST0.52P  0.92P  0.00P  
10/14/2014 09:30 MST0.54P  0.93P  0.00P  
10/14/2014 09:45 MST0.52P  0.92P  0.00P  
10/14/2014 10:00 MST0.52P  0.92P  0.00P  
10/14/2014 10:15 MST0.54P  0.93P  0.00P  
10/14/2014 10:30 MST0.52P  0.92P  0.00P  
10/14/2014 10:45 MST0.54P  0.93P  0.00P  
10/14/2014 11:00 MST0.52P  0.92P  0.00P  
10/14/2014 11:15 MST0.52P  0.92P  0.00P  
10/14/2014 11:30 MST0.52P  0.92P  0.00P  
10/14/2014 11:45 MST0.52P  0.92P  0.00P  
10/14/2014 12:00 MST0.49P  0.91P  0.00P  
10/14/2014 12:15 MST0.52P  0.92P  0.00P  
10/14/2014 12:30 MST0.49P  0.91P  0.00P  
10/14/2014 12:45 MST0.49P  0.91P  0.00P  
10/14/2014 13:00 MST0.49P  0.91P  0.00P  
10/14/2014 13:15 MST0.49P  0.91P  0.00P  
10/14/2014 13:30 MST0.49P  0.91P  0.00P  
10/14/2014 13:45 MST0.52P  0.92P  0.00P  
10/14/2014 14:00 MST0.49P  0.91P  0.00P  
10/14/2014 14:15 MST0.49P  0.91P  0.00P  
10/14/2014 14:30 MST0.49P  0.91P  0.00P  
10/14/2014 14:45 MST0.47P  0.90P  0.00P  
10/14/2014 15:00 MST0.49P  0.91P  0.00P  
10/14/2014 15:15 MST0.47P  0.90P  0.00P  
10/14/2014 15:30 MST0.49P  0.91P  0.00P  
10/14/2014 15:45 MST0.49P  0.91P  0.00P  
10/14/2014 16:00 MST0.49P  0.91P  0.00P  
10/14/2014 16:15 MST0.47P  0.90P  0.00P  
10/14/2014 16:30 MST0.49P  0.91P  0.00P  
10/14/2014 16:45 MST0.49P  0.91P  0.00P  
10/14/2014 17:00 MST0.47P  0.90P  0.00P  
10/14/2014 17:15 MST0.47P  0.90P  0.00P  
10/14/2014 17:30 MST0.47P  0.90P  0.00P  
10/14/2014 17:45 MST0.49P  0.91P  0.00P  
10/14/2014 18:00 MST0.49P  0.91P  0.00P  
10/14/2014 18:15 MST0.49P  0.91P  0.00P  
10/14/2014 18:30 MST0.49P  0.91P  0.00P  
10/14/2014 18:45 MST0.49P  0.91P  0.00P  
10/14/2014 19:00 MST0.52P  0.92P  0.00P  
10/14/2014 19:15 MST0.49P  0.91P  0.00P  
10/14/2014 19:30 MST0.52P  0.92P  0.00P  
10/14/2014 19:45 MST0.52P  0.92P  0.00P  
10/14/2014 20:00 MST0.49P  0.91P  0.00P  
10/14/2014 20:15 MST0.49P  0.91P  0.00P  
10/14/2014 20:30 MST0.49P  0.91P  0.00P  
10/14/2014 20:45 MST0.49P  0.91P  0.00P  
10/14/2014 21:00 MST0.52P  0.92P  0.00P  
10/14/2014 21:15 MST0.52P  0.92P  0.00P  
10/14/2014 21:30 MST0.52P  0.92P  0.00P  
10/14/2014 21:45 MST0.49P  0.91P  0.00P  
10/14/2014 22:00 MST0.49P  0.91P  0.00P  
10/14/2014 22:15 MST0.47P  0.90P  0.00P  
10/14/2014 22:30 MST0.52P  0.92P  0.00P  
10/14/2014 22:45 MST0.49P  0.91P  0.00P  
10/14/2014 23:00 MST0.49P  0.91P  0.00P  
10/14/2014 23:15 MST0.52P  0.92P  0.00P  
10/14/2014 23:30 MST0.52P  0.92P  0.00P  
10/14/2014 23:45 MST0.49P  0.91P  0.00P  
10/15/2014 00:00 MST0.49P  0.91P  0.00P  
10/15/2014 00:15 MST0.52P  0.92P  0.00P  
10/15/2014 00:30 MST0.49P  0.91P  0.00P  
10/15/2014 00:45 MST0.52P  0.92P  0.00P  
10/15/2014 01:00 MST0.52P  0.92P  0.00P  
10/15/2014 01:15 MST0.52P  0.92P  0.00P  
10/15/2014 01:30 MST0.49P  0.91P  0.00P  
10/15/2014 01:45 MST0.52P  0.92P  0.00P  
10/15/2014 02:00 MST0.49P  0.91P  0.00P  
10/15/2014 02:15 MST0.54P  0.93P  0.00P  
10/15/2014 02:30 MST0.52P  0.92P  0.00P  
10/15/2014 02:45 MST0.52P  0.92P  0.00P  
10/15/2014 03:00 MST0.52P  0.92P  0.00P  
10/15/2014 03:15 MST0.52P  0.92P  0.00P  
10/15/2014 03:30 MST0.52P  0.92P  0.00P  
10/15/2014 03:45 MST0.52P  0.92P  0.00P  
10/15/2014 04:00 MST0.54P  0.93P  0.00P  
10/15/2014 04:15 MST0.52P  0.92P  0.00P  
10/15/2014 04:30 MST0.52P  0.92P  0.00P  
10/15/2014 04:45 MST0.52P  0.92P  0.00P  
10/15/2014 05:00 MST0.52P  0.92P  0.00P  
10/15/2014 05:15 MST0.52P  0.92P  0.00P  
10/15/2014 05:30 MST0.52P  0.92P  0.00P  
10/15/2014 05:45 MST0.49P  0.91P  0.00P  
10/15/2014 06:00 MST0.52P  0.92P  0.00P  
10/15/2014 06:15 MST0.52P  0.92P  0.00P  
10/15/2014 06:30 MST0.52P  0.92P  0.00P  
10/15/2014 06:45 MST0.49P  0.91P  0.00P  
10/15/2014 07:00 MST0.52P  0.92P  0.00P  
10/15/2014 07:15 MST0.52P  0.92P  0.00P  
10/15/2014 07:30 MST0.52P  0.92P  0.00P  
10/15/2014 07:45 MST0.52P  0.92P  0.00P  
10/15/2014 08:00 MST0.52P  0.92P  0.00P  
10/15/2014 08:15 MST0.52P  0.92P  0.00P  
10/15/2014 08:30 MST0.52P  0.92P  0.00P  
10/15/2014 08:45 MST0.52P  0.92P  0.00P  
10/15/2014 09:00 MST0.52P  0.92P  0.00P  
10/15/2014 09:15 MST0.52P  0.92P  0.00P  
10/15/2014 09:30 MST0.52P  0.92P  0.00P  
10/15/2014 09:45 MST0.52P  0.92P  0.00P  
10/15/2014 10:00 MST0.52P  0.92P  0.00P  
10/15/2014 10:15 MST0.52P  0.92P  0.00P  
10/15/2014 10:30 MST0.52P  0.92P  0.00P  
10/15/2014 10:45 MST0.49P  0.91P  0.00P  
10/15/2014 11:00 MST0.49P  0.91P  0.00P  
10/15/2014 11:15 MST0.49P  0.91P  0.00P  
10/15/2014 11:30 MST0.49P  0.91P  0.00P  
10/15/2014 11:45 MST0.49P  0.91P  0.00P  
10/15/2014 12:00 MST0.49P  0.91P  0.00P  
10/15/2014 12:15 MST0.49P  0.91P  0.00P  
10/15/2014 12:30 MST0.52P  0.92P  0.00P  
10/15/2014 12:45 MST0.49P  0.91P  0.00P  
10/15/2014 13:00 MST0.49P  0.91P  0.00P  
10/15/2014 13:15 MST0.47P  0.90P  0.00P  
10/15/2014 13:30 MST0.47P  0.90P  0.00P  
10/15/2014 13:45 MST0.49P  0.91P  0.00P  
10/15/2014 14:00 MST0.49P  0.91P  0.00P  
10/15/2014 14:15 MST0.47P  0.90P  0.00P  
10/15/2014 14:30 MST0.47P  0.90P  0.00P  
10/15/2014 14:45 MST0.49P  0.91P  0.00P  
10/15/2014 15:00 MST0.47P  0.90P  0.00P  
10/15/2014 15:15 MST0.47P  0.90P  0.00P  
10/15/2014 15:30 MST0.47P  0.90P  0.00P  
10/15/2014 15:45 MST0.47P  0.90P  0.00P  
10/15/2014 16:00 MST0.47P  0.90P  0.00P  
10/15/2014 16:15 MST0.47P  0.90P  0.00P  
10/15/2014 16:30 MST0.47P  0.90P  0.00P  
10/15/2014 16:45 MST0.47P  0.90P  0.00P  
10/15/2014 17:00 MST0.47P  0.90P  0.00P  
10/15/2014 17:15 MST0.44P  0.89P  0.00P  
10/15/2014 17:30 MST0.47P  0.90P  0.00P  
10/15/2014 17:45 MST0.49P  0.91P  0.00P  
10/15/2014 18:00 MST0.47P  0.90P  0.00P  
10/15/2014 18:15 MST0.47P  0.90P  0.00P  
10/15/2014 18:30 MST0.47P  0.90P  0.00P  
10/15/2014 18:45 MST0.47P  0.90P  0.00P  
10/15/2014 19:00 MST0.47P  0.90P  0.00P  
10/15/2014 19:15 MST0.47P  0.90P  0.00P  
10/15/2014 19:30 MST0.49P  0.91P  0.00P  
10/15/2014 19:45 MST0.47P  0.90P  0.00P  
10/15/2014 20:00 MST0.47P  0.90P  0.00P  
10/15/2014 20:15 MST0.49P  0.91P  0.00P  
10/15/2014 20:30 MST0.49P  0.91P  0.00P  
10/15/2014 20:45 MST0.49P  0.91P  0.00P  
10/15/2014 21:00 MST0.47P  0.90P  0.00P  
10/15/2014 21:15 MST0.47P  0.90P  0.00P  
10/15/2014 21:30 MST0.52P  0.92P  0.00P  
10/15/2014 21:45 MST0.52P  0.92P  0.00P  
10/15/2014 22:00 MST0.49P  0.91P  0.00P  
10/15/2014 22:15 MST0.49P  0.91P  0.00P  
10/15/2014 22:30 MST0.49P  0.91P  0.00P  
10/15/2014 22:45 MST0.49P  0.91P  0.00P  
10/15/2014 23:00 MST0.52P  0.92P  0.00P  
10/15/2014 23:15 MST0.49P  0.91P  0.00P  
10/15/2014 23:30 MST0.49P  0.91P  0.00P  
10/15/2014 23:45 MST0.49P  0.91P  0.00P  
10/16/2014 00:00 MST0.49P  0.91P  0.00P  
10/16/2014 00:15 MST0.47P  0.90P  0.00P  
10/16/2014 00:30 MST0.49P  0.91P  0.00P  
10/16/2014 00:45 MST0.47P  0.90P  0.00P  
10/16/2014 01:00 MST0.49P  0.91P  0.00P  
10/16/2014 01:15 MST0.49P  0.91P  0.00P  
10/16/2014 01:30 MST0.49P  0.91P  0.00P  
10/16/2014 01:45 MST0.49P  0.91P  0.00P  
10/16/2014 02:00 MST0.52P  0.92P  0.00P  
10/16/2014 02:15 MST0.49P  0.91P  0.00P  
10/16/2014 02:30 MST0.49P  0.91P  0.00P  
10/16/2014 02:45 MST0.49P  0.91P  0.00P  
10/16/2014 03:00 MST0.49P  0.91P  0.00P  
10/16/2014 03:15 MST0.49P  0.91P  0.00P  
10/16/2014 03:30 MST0.49P  0.91P  0.00P  
10/16/2014 03:45 MST0.52P  0.92P  0.00P  
10/16/2014 04:00 MST0.52P  0.92P  0.00P  
10/16/2014 04:15 MST0.52P  0.92P  0.00P  
10/16/2014 04:30 MST0.52P  0.92P  0.00P  
10/16/2014 04:45 MST0.49P  0.91P  0.00P  
10/16/2014 05:00 MST0.49P  0.91P  0.00P  
10/16/2014 05:15 MST0.52P  0.92P  0.00P  
10/16/2014 05:30 MST0.52P  0.92P  0.00P  
10/16/2014 05:45 MST0.54P  0.93P  0.00P  
10/16/2014 06:00 MST0.49P  0.91P  0.00P  
10/16/2014 06:15 MST0.49P  0.91P  0.00P  
10/16/2014 06:30 MST0.52P  0.92P  0.00P  
10/16/2014 06:45 MST0.52P  0.92P  0.00P  
10/16/2014 07:00 MST0.52P  0.92P  0.00P  
10/16/2014 07:15 MST0.52P  0.92P  0.00P  
10/16/2014 07:30 MST0.52P  0.92P  0.00P  
10/16/2014 07:45 MST0.52P  0.92P  0.00P  
10/16/2014 08:00 MST0.52P  0.92P  0.00P  
10/16/2014 08:15 MST0.52P  0.92P  0.00P  
10/16/2014 08:30 MST0.52P  0.92P  0.00P  
10/16/2014 08:45 MST0.54P  0.93P  0.00P  
10/16/2014 09:00 MST0.52P  0.92P  0.00P  
10/16/2014 09:15 MST0.52P  0.92P  0.00P  
10/16/2014 09:30 MST0.54P  0.93P  0.00P  
10/16/2014 09:45 MST0.52P  0.92P  0.00P  
10/16/2014 10:00 MST0.52P  0.92P  0.00P  
10/16/2014 10:15 MST0.52P  0.92P  0.00P  
10/16/2014 10:30 MST0.52P  0.92P  0.00P  
10/16/2014 10:45 MST0.52P  0.92P  0.00P  
10/16/2014 11:00 MST0.52P  0.92P  0.00P  
10/16/2014 11:15 MST0.49P  0.91P  0.00P  
10/16/2014 11:30 MST0.52P  0.92P  0.00P  
10/16/2014 11:45 MST0.49P  0.91P  0.00P  
10/16/2014 12:00 MST0.49P  0.91P  0.00P  
10/16/2014 12:15 MST0.49P  0.91P  0.00P  
10/16/2014 12:30 MST0.47P  0.90P  0.00P  
10/16/2014 12:45 MST0.47P  0.90P  0.00P  
10/16/2014 13:00 MST0.49P  0.91P  0.00P  
10/16/2014 13:15 MST0.49P  0.91P  0.00P  
10/16/2014 13:30 MST0.47P  0.90P  0.00P  
10/16/2014 13:45 MST0.49P  0.91P  0.00P  
10/16/2014 14:00 MST0.47P  0.90P  0.00P  
10/16/2014 14:15 MST0.47P  0.90P  0.00P  
10/16/2014 14:30 MST0.47P  0.90P  0.00P  
10/16/2014 14:45 MST0.47P  0.90P  0.00P  
10/16/2014 15:00 MST0.47P  0.90P  0.00P  
10/16/2014 15:15 MST0.47P  0.90P  0.00P  
10/16/2014 15:30 MST0.47P  0.90P  0.00P  
10/16/2014 15:45 MST0.47P  0.90P  0.00P  
10/16/2014 16:00 MST0.44P  0.89P  0.00P  
10/16/2014 16:15 MST0.44P  0.89P  0.00P  
10/16/2014 16:30 MST0.47P  0.90P  0.00P  
10/16/2014 16:45 MST0.44P  0.89P  0.00P  
10/16/2014 17:00 MST0.47P  0.90P  0.00P  
10/16/2014 17:15 MST0.47P  0.90P  0.00P  
10/16/2014 17:30 MST0.47P  0.90P  0.00P  
10/16/2014 17:45 MST0.47P  0.90P  0.00P  
10/16/2014 18:00 MST0.47P  0.90P  0.00P  
10/16/2014 18:15 MST0.47P  0.90P  0.00P  
10/16/2014 18:30 MST0.49P  0.91P  0.00P  
10/16/2014 18:45 MST0.47P  0.90P  0.00P  
10/16/2014 19:00 MST0.49P  0.91P  0.00P  
10/16/2014 19:15 MST0.52P  0.92P  0.00P  
10/16/2014 19:30 MST0.49P  0.91P  0.00P  
10/16/2014 19:45 MST0.49P  0.91P  0.00P  
10/16/2014 20:00 MST0.49P  0.91P  0.00P  
10/16/2014 20:15 MST0.47P  0.90P  0.00P  
10/16/2014 20:30 MST0.49P  0.91P  0.00P  
10/16/2014 20:45 MST0.49P  0.91P  0.00P  
10/16/2014 21:00 MST0.52P  0.92P  0.00P  
10/16/2014 21:15 MST0.49P  0.91P  0.00P  
10/16/2014 21:30 MST0.49P  0.91P  0.00P  
10/16/2014 21:45 MST0.49P  0.91P  0.00P  
10/16/2014 22:00 MST0.52P  0.92P  0.00P  
10/16/2014 22:15 MST0.52P  0.92P  0.00P  
10/16/2014 22:30 MST0.49P  0.91P  0.00P  
10/16/2014 22:45 MST0.49P  0.91P  0.00P  
10/16/2014 23:00 MST0.49P  0.91P  0.00P  
10/16/2014 23:15 MST0.49P  0.91P  0.00P  
10/16/2014 23:30 MST0.49P  0.91P  0.00P  
10/16/2014 23:45 MST0.52P  0.92P  0.00P  
10/17/2014 00:00 MST0.49P  0.91P  0.00P  
10/17/2014 00:15 MST0.49P  0.91P  0.00P  
10/17/2014 00:30 MST0.49P  0.91P  0.00P  
10/17/2014 00:45 MST0.52P  0.92P  0.00P  
10/17/2014 01:00 MST0.49P  0.91P  0.00P  
10/17/2014 01:15 MST0.49P  0.91P  0.00P  
10/17/2014 01:30 MST0.52P  0.92P  0.00P  
10/17/2014 01:45 MST0.52P  0.92P  0.00P  
10/17/2014 02:00 MST0.52P  0.92P  0.00P  
10/17/2014 02:15 MST0.49P  0.91P  0.00P  
10/17/2014 02:30 MST0.49P  0.91P  0.00P  
10/17/2014 02:45 MST0.49P  0.91P  0.00P  
10/17/2014 03:00 MST0.52P  0.92P  0.00P  
10/17/2014 03:15 MST0.52P  0.92P  0.00P  
10/17/2014 03:30 MST0.49P  0.91P  0.00P  
10/17/2014 03:45 MST0.49P  0.91P  0.00P  
10/17/2014 04:00 MST0.52P  0.92P  0.00P  
10/17/2014 04:15 MST0.49P  0.91P  0.00P  
10/17/2014 04:30 MST0.52P  0.92P  0.00P  
10/17/2014 04:45 MST0.52P  0.92P  0.00P  
10/17/2014 05:00 MST0.52P  0.92P  0.00P  
10/17/2014 05:15 MST0.49P  0.91P  0.00P  
10/17/2014 05:30 MST0.49P  0.91P  0.00P  
10/17/2014 05:45 MST0.49P  0.91P  0.00P  
10/17/2014 06:00 MST0.52P  0.92P  0.00P  
10/17/2014 06:15 MST0.49P  0.91P  0.00P  
10/17/2014 06:30 MST0.52P  0.92P  0.00P  
10/17/2014 06:45 MST0.52P  0.92P  0.00P  
10/17/2014 07:00 MST0.52P  0.92P  0.00P  
10/17/2014 07:15 MST0.52P  0.92P  0.00P  
10/17/2014 07:30 MST0.52P  0.92P  0.00P  
10/17/2014 07:45 MST0.52P  0.92P  0.00P  
10/17/2014 08:00 MST0.52P  0.92P  0.00P  
10/17/2014 08:15 MST0.52P  0.92P  0.00P  
10/17/2014 08:30 MST0.54P  0.93P  0.00P  
10/17/2014 08:45 MST0.49P  0.91P  0.00P  
10/17/2014 09:00 MST0.54P  0.93P  0.00P  
10/17/2014 09:15 MST0.49P  0.91P  0.00P  
10/17/2014 09:30 MST0.49P  0.91P  0.00P  
10/17/2014 09:45 MST0.52P  0.92P  0.00P  
10/17/2014 10:00 MST0.52P  0.92P  0.00P  
10/17/2014 10:15 MST0.49P  0.91P  0.00P  
10/17/2014 10:30 MST0.52P  0.92P  0.00P  
10/17/2014 10:45 MST0.47P  0.90P  0.00P  
10/17/2014 11:00 MST0.49P  0.91P  0.00P  
10/17/2014 11:15 MST0.47P  0.90P  0.00P  
10/17/2014 11:30 MST0.49P  0.91P  0.00P  
10/17/2014 11:45 MST0.49P  0.91P  0.00P  
10/17/2014 12:00 MST0.47P  0.90P  0.00P  
10/17/2014 12:15 MST0.52P  0.92P  0.00P  
10/17/2014 12:30 MST0.49P  0.91P  0.00P  
10/17/2014 12:45 MST0.49P  0.91P  0.00P  
10/17/2014 13:00 MST0.49P  0.91P  0.00P  
10/17/2014 13:15 MST0.49P  0.91P  0.00P  
10/17/2014 13:30 MST0.47P  0.90P  0.00P  
10/17/2014 13:45 MST0.49P  0.91P  0.00P  
10/17/2014 14:00 MST0.49P  0.91P  0.00P  
10/17/2014 14:15 MST0.47P  0.90P  0.00P  
10/17/2014 14:30 MST0.52P  0.92P  0.00P  
10/17/2014 14:45 MST0.49P  0.91P  0.00P  
10/17/2014 15:00 MST0.47P  0.90P  0.00P  
10/17/2014 15:15 MST0.49P  0.91P  0.00P  
10/17/2014 15:30 MST0.47P  0.90P  0.00P  
10/17/2014 15:45 MST0.47P  0.90P  0.00P  
10/17/2014 16:00 MST0.47P  0.90P  0.00P  
10/17/2014 16:15 MST0.47P  0.90P  0.00P  
10/17/2014 16:30 MST0.49P  0.91P  0.00P  
10/17/2014 16:45 MST0.47P  0.90P  0.00P  
10/17/2014 17:00 MST0.47P  0.90P  0.00P  
10/17/2014 17:15 MST0.47P  0.90P  0.00P  
10/17/2014 17:30 MST0.47P  0.90P  0.00P  
10/17/2014 17:45 MST0.47P  0.90P  0.00P  
10/17/2014 18:00 MST0.47P  0.90P  0.00P  
10/17/2014 18:15 MST0.49P  0.91P  0.00P  
10/17/2014 18:30 MST0.52P  0.92P  0.00P  
10/17/2014 18:45 MST0.49P  0.91P  0.00P  
10/17/2014 19:00 MST0.49P  0.91P  0.00P  
10/17/2014 19:15 MST0.52P  0.92P  0.00P  
10/17/2014 19:30 MST0.47P  0.90P  0.00P  
10/17/2014 19:45 MST0.49P  0.91P  0.00P  
10/17/2014 20:00 MST0.49P  0.91P  0.00P  
10/17/2014 20:15 MST0.49P  0.91P  0.00P  
10/17/2014 20:30 MST0.49P  0.91P  0.00P  
10/17/2014 20:45 MST0.49P  0.91P  0.00P  
10/17/2014 21:00 MST0.52P  0.92P  0.00P  
10/17/2014 21:15 MST0.49P  0.91P  0.00P  
10/17/2014 21:30 MST0.49P  0.91P  0.00P  
10/17/2014 21:45 MST0.52P  0.92P  0.00P  
10/17/2014 22:00 MST0.52P  0.92P  0.00P  
10/17/2014 22:15 MST0.49P  0.91P  0.00P  
10/17/2014 22:30 MST0.49P  0.91P  0.00P  
10/17/2014 22:45 MST0.49P  0.91P  0.00P  
10/17/2014 23:00 MST0.49P  0.91P  0.00P  
10/17/2014 23:15 MST0.52P  0.92P  0.00P  
10/17/2014 23:30 MST0.47P  0.90P  0.00P  
10/17/2014 23:45 MST0.49P  0.91P  0.00P  
10/18/2014 00:00 MST0.49P  0.91P  0.00P  
10/18/2014 00:15 MST0.47P  0.90P  0.00P  
10/18/2014 00:30 MST0.44P  0.89P  0.00P  
10/18/2014 00:45 MST0.44P  0.89P  0.00P  
10/18/2014 01:00 MST0.47P  0.90P  0.00P  
10/18/2014 01:15 MST0.47P  0.90P  0.00P  
10/18/2014 01:30 MST0.44P  0.89P  0.00P  
10/18/2014 01:45 MST0.47P  0.90P  0.00P  
10/18/2014 02:00 MST0.47P  0.90P  0.00P  
10/18/2014 02:15 MST0.47P  0.90P  0.00P  
10/18/2014 02:30 MST0.49P  0.91P  0.00P  
10/18/2014 02:45 MST      0.00P  
10/18/2014 03:00 MST0.47P  0.90P  0.00P  
10/18/2014 03:15 MST0.52P  0.92P  0.00P  
10/18/2014 03:30 MST0.52P  0.92P  0.00P  
10/18/2014 03:45 MST0.52P  0.92P  0.00P  
10/18/2014 04:00 MST0.52P  0.92P  0.00P  
10/18/2014 04:15 MST0.52P  0.92P  0.00P  
10/18/2014 04:30 MST0.52P  0.92P  0.00P  
10/18/2014 04:45 MST0.52P  0.92P  0.00P  
10/18/2014 05:00 MST0.52P  0.92P  0.00P  
10/18/2014 05:15 MST0.49P  0.91P  0.00P  
10/18/2014 05:30 MST0.49P  0.91P  0.00P  
10/18/2014 05:45 MST0.49P  0.91P  0.00P  
10/18/2014 06:00 MST0.47P  0.90P  0.00P  
10/18/2014 06:15 MST0.49P  0.91P  0.00P  
10/18/2014 06:30 MST0.52P  0.92P  0.00P  
10/18/2014 06:45 MST0.49P  0.91P  0.00P  
10/18/2014 07:00 MST0.49P  0.91P  0.00P  
10/18/2014 07:15 MST0.49P  0.91P  0.00P  
10/18/2014 07:30 MST0.49P  0.91P  0.00P  
10/18/2014 07:45 MST0.52P  0.92P  0.00P  
10/18/2014 08:00 MST0.52P  0.92P  0.00P  
10/18/2014 08:15 MST0.52P  0.92P  0.00P  
10/18/2014 08:30 MST0.54P  0.93P  0.00P  
10/18/2014 08:45 MST0.52P  0.92P  0.00P  
10/18/2014 09:00 MST0.49P  0.91P  0.00P  
10/18/2014 09:15 MST0.52P  0.92P  0.00P  
10/18/2014 09:30 MST0.52P  0.92P  0.00P  
10/18/2014 09:45 MST0.52P  0.92P  0.00P  
10/18/2014 10:00 MST0.52P  0.92P  0.00P  
10/18/2014 10:15 MST0.49P  0.91P  0.00P  
10/18/2014 10:30 MST0.52P  0.92P  0.00P  
10/18/2014 10:45 MST0.49P  0.91P  0.00P  
10/18/2014 11:00 MST0.49P  0.91P  0.00P  
10/18/2014 11:15 MST0.52P  0.92P  0.00P  
10/18/2014 11:30 MST0.52P  0.92P  0.00P  
10/18/2014 11:45 MST0.52P  0.92P  0.00P  
10/18/2014 12:00 MST0.47P  0.90P  0.00P  
10/18/2014 12:15 MST0.49P  0.91P  0.00P  
10/18/2014 12:30 MST0.52P  0.92P  0.00P  
10/18/2014 12:45 MST0.49P  0.91P  0.00P  
10/18/2014 13:00 MST0.49P  0.91P  0.00P  
10/18/2014 13:15 MST0.52P  0.92P  0.00P  
10/18/2014 13:30 MST0.49P  0.91P  0.00P  
10/18/2014 13:45 MST0.49P  0.91P  0.00P  
10/18/2014 14:00 MST0.47P  0.90P  0.00P  
10/18/2014 14:15 MST0.47P  0.90P  0.00P  
10/18/2014 14:30 MST0.47P  0.90P  0.00P  
10/18/2014 14:45 MST0.47P  0.90P  0.00P  
10/18/2014 15:00 MST0.47P  0.90P  0.00P  
10/18/2014 15:15 MST0.47P  0.90P  0.00P  
10/18/2014 15:30 MST0.47P  0.90P  0.00P  
10/18/2014 15:45 MST0.47P  0.90P  0.00P  
10/18/2014 16:00 MST0.49P  0.91P  0.00P  
10/18/2014 16:15 MST0.47P  0.90P  0.00P  
10/18/2014 16:30 MST0.47P  0.90P  0.00P  
10/18/2014 16:45 MST0.47P  0.90P  0.00P  
10/18/2014 17:00 MST0.49P  0.91P  0.00P  
10/18/2014 17:15 MST0.47P  0.90P  0.00P  
10/18/2014 17:30 MST0.47P  0.90P  0.00P  
10/18/2014 17:45 MST0.47P  0.90P  0.00P  
10/18/2014 18:00 MST0.49P  0.91P  0.00P  
10/18/2014 18:15 MST0.49P  0.91P  0.00P  
10/18/2014 18:30 MST0.47P  0.90P  0.00P  
10/18/2014 18:45 MST0.47P  0.90P  0.00P  
10/18/2014 19:00 MST0.47P  0.90P  0.00P  
10/18/2014 19:15 MST0.47P  0.90P  0.00P  
10/18/2014 19:30 MST0.49P  0.91P  0.00P  
10/18/2014 19:45 MST0.47P  0.90P  0.00P  
10/18/2014 20:00 MST0.49P  0.91P  0.00P  
10/18/2014 20:15 MST0.49P  0.91P  0.00P  
10/18/2014 20:30 MST0.49P  0.91P  0.00P  
10/18/2014 20:45 MST0.52P  0.92P  0.00P  
10/18/2014 21:00 MST0.49P  0.91P  0.00P  
10/18/2014 21:15 MST0.49P  0.91P  0.00P  
10/18/2014 21:30 MST0.47P  0.90P  0.00P  
10/18/2014 21:45 MST0.47P  0.90P  0.00P  
10/18/2014 22:00 MST0.47P  0.90P  0.00P  
10/18/2014 22:15 MST0.47P  0.90P  0.00P  
10/18/2014 22:30 MST0.49P  0.91P  0.00P  
10/18/2014 22:45 MST0.49P  0.91P  0.00P  
10/18/2014 23:00 MST0.49P  0.91P  0.00P  
10/18/2014 23:15 MST0.49P  0.91P  0.00P  
10/18/2014 23:30 MST0.49P  0.91P  0.00P  
10/18/2014 23:45 MST0.49P  0.91P  0.00P  
10/19/2014 00:00 MST0.47P  0.90P  0.00P  
10/19/2014 00:15 MST0.49P  0.91P  0.00P  
10/19/2014 00:30 MST0.49P  0.91P  0.00P  
10/19/2014 00:45 MST0.49P  0.91P  0.00P  
10/19/2014 01:00 MST0.52P  0.92P  0.00P  
10/19/2014 01:15 MST0.49P  0.91P  0.00P  
10/19/2014 01:30 MST0.49P  0.91P  0.00P  
10/19/2014 01:45 MST0.49P  0.91P  0.00P  
10/19/2014 02:00 MST0.49P  0.91P  0.00P  
10/19/2014 02:15 MST0.49P  0.91P  0.00P  
10/19/2014 02:30 MST0.52P  0.92P  0.00P  
10/19/2014 02:45 MST0.52P  0.92P  0.00P  
10/19/2014 03:00 MST0.49P  0.91P  0.00P  
10/19/2014 03:15 MST0.49P  0.91P  0.00P  
10/19/2014 03:30 MST0.49P  0.91P  0.00P  
10/19/2014 03:45 MST0.49P  0.91P  0.00P  
10/19/2014 04:00 MST0.49P  0.91P  0.00P  
10/19/2014 04:15 MST0.49P  0.91P  0.00P  
10/19/2014 04:30 MST0.49P  0.91P  0.00P  
10/19/2014 04:45 MST0.49P  0.91P  0.00P  
10/19/2014 05:00 MST0.49P  0.91P  0.00P  
10/19/2014 05:15 MST0.49P  0.91P  0.00P  
10/19/2014 05:30 MST0.49P  0.91P  0.00P  
10/19/2014 05:45 MST0.52P  0.92P  0.00P  
10/19/2014 06:00 MST0.49P  0.91P  0.00P  
10/19/2014 06:15 MST0.49P  0.91P  0.00P  
10/19/2014 06:30 MST0.49P  0.91P  0.00P  
10/19/2014 06:45 MST0.52P  0.92P  0.00P  
10/19/2014 07:00 MST0.49P  0.91P  0.00P  
10/19/2014 07:15 MST0.49P  0.91P  0.00P  
10/19/2014 07:30 MST0.49P  0.91P  0.00P  
10/19/2014 07:45 MST0.49P  0.91P  0.00P  
10/19/2014 08:00 MST0.49P  0.91P  0.00P  
10/19/2014 08:15 MST0.52P  0.92P  0.00P  
10/19/2014 08:30 MST0.49P  0.91P  0.00P  
10/19/2014 08:45 MST0.49P  0.91P  0.00P  
10/19/2014 09:00 MST0.52P  0.92P  0.00P  
10/19/2014 09:15 MST0.49P  0.91P  0.00P  
10/19/2014 09:30 MST0.49P  0.91P  0.00P  
10/19/2014 09:45 MST0.49P  0.91P  0.00P  
10/19/2014 10:00 MST0.49P  0.91P  0.00P  
10/19/2014 10:15 MST0.47P  0.90P  0.00P  
10/19/2014 10:30 MST0.49P  0.91P  0.00P  
10/19/2014 10:45 MST0.52P  0.92P  0.00P  
10/19/2014 11:00 MST0.47P  0.90P  0.00P  
10/19/2014 11:15 MST0.49P  0.91P  0.00P  
10/19/2014 11:30 MST0.49P  0.91P  0.00P  
10/19/2014 11:45 MST0.49P  0.91P  0.00P  
10/19/2014 12:00 MST0.49P  0.91P  0.00P  
10/19/2014 12:15 MST0.47P  0.90P  0.00P  
10/19/2014 12:30 MST0.49P  0.91P  0.00P  
10/19/2014 12:45 MST0.47P  0.90P  0.00P  
10/19/2014 13:00 MST0.47P  0.90P  0.00P  
10/19/2014 13:15 MST0.49P  0.91P  0.00P  
10/19/2014 13:30 MST0.49P  0.91P  0.00P  
10/19/2014 13:45 MST0.49P  0.91P  0.00P  
10/19/2014 14:00 MST0.49P  0.91P  0.00P  
10/19/2014 14:15 MST0.47P  0.90P  0.00P  
10/19/2014 14:30 MST0.49P  0.91P  0.00P  
10/19/2014 14:45 MST0.47P  0.90P  0.00P  
10/19/2014 15:00 MST0.47P  0.90P  0.00P  
10/19/2014 15:15 MST0.49P  0.91P  0.00P  
10/19/2014 15:30 MST0.47P  0.90P  0.00P  
10/19/2014 15:45 MST0.47P  0.90P  0.00P  
10/19/2014 16:00 MST0.47P  0.90P  0.00P  
10/19/2014 16:15 MST0.47P  0.90P  0.00P  
10/19/2014 16:30 MST0.47P  0.90P  0.00P  
10/19/2014 16:45 MST0.49P  0.91P  0.00P  
10/19/2014 17:00 MST0.47P  0.90P  0.00P  
10/19/2014 17:15 MST0.47P  0.90P  0.00P  
10/19/2014 17:30 MST0.47P  0.90P  0.00P  
10/19/2014 17:45 MST0.47P  0.90P  0.00P  
10/19/2014 18:00 MST0.47P  0.90P  0.00P  
10/19/2014 18:15 MST0.47P  0.90P  0.00P  
10/19/2014 18:30 MST0.47P  0.90P  0.00P  
10/19/2014 18:45 MST0.47P  0.90P  0.00P  
10/19/2014 19:00 MST0.49P  0.91P  0.00P  
10/19/2014 19:15 MST0.47P  0.90P  0.00P  
10/19/2014 19:30 MST0.47P  0.90P  0.00P  
10/19/2014 19:45 MST0.47P  0.90P  0.00P  
10/19/2014 20:00 MST0.49P  0.91P  0.00P  
10/19/2014 20:15 MST0.47P  0.90P  0.00P  
10/19/2014 20:30 MST0.49P  0.91P  0.00P  
10/19/2014 20:45 MST0.49P  0.91P  0.00P  
10/19/2014 21:00 MST0.49P  0.91P  0.00P  
10/19/2014 21:15 MST0.49P  0.91P  0.00P  
10/19/2014 21:30 MST0.49P  0.91P  0.00P  
10/19/2014 21:45 MST0.49P  0.91P  0.00P  
10/19/2014 22:00 MST0.49P  0.91P  0.00P  
10/19/2014 22:15 MST0.49P  0.91P  0.00P  
10/19/2014 22:30 MST0.49P  0.91P  0.00P  
10/19/2014 22:45 MST0.52P  0.92P  0.00P  
10/19/2014 23:00 MST0.47P  0.90P  0.00P  
10/19/2014 23:15 MST0.49P  0.91P  0.00P  
10/19/2014 23:30 MST0.49P  0.91P  0.00P  
10/19/2014 23:45 MST0.52P  0.92P  0.00P  
10/20/2014 00:00 MST0.49P  0.91P  0.00P  
10/20/2014 00:15 MST0.49P  0.91P  0.00P  
10/20/2014 00:30 MST0.49P  0.91P  0.00P  
10/20/2014 00:45 MST0.47P  0.90P  0.00P  
10/20/2014 01:00 MST0.47P  0.90P  0.00P  
10/20/2014 01:15 MST0.49P  0.91P  0.00P  
10/20/2014 01:30 MST0.47P  0.90P  0.00P  
10/20/2014 01:45 MST0.49P  0.91P  0.00P  
10/20/2014 02:00 MST0.49P  0.91P  0.00P  
10/20/2014 02:15 MST0.49P  0.91P  0.00P  
10/20/2014 02:30 MST0.52P  0.92P  0.00P  
10/20/2014 02:45 MST0.49P  0.91P  0.00P  
10/20/2014 03:00 MST0.49P  0.91P  0.00P  
10/20/2014 03:15 MST0.49P  0.91P  0.00P  
10/20/2014 03:30 MST0.49P  0.91P  0.00P  
10/20/2014 03:45 MST0.49P  0.91P  0.00P  
10/20/2014 04:00 MST0.49P  0.91P  0.00P  
10/20/2014 04:15 MST0.49P  0.91P  0.00P  
10/20/2014 04:30 MST0.49P  0.91P  0.00P  
10/20/2014 04:45 MST0.52P  0.92P  0.00P  
10/20/2014 05:00 MST0.52P  0.92P  0.00P  
10/20/2014 05:15 MST0.49P  0.91P  0.00P  
10/20/2014 05:30 MST0.47P  0.90P  0.00P  
10/20/2014 05:45 MST0.49P  0.91P  0.00P  
10/20/2014 06:00 MST0.49P  0.91P  0.00P  
10/20/2014 06:15 MST0.49P  0.91P  0.00P  
10/20/2014 06:30 MST0.52P  0.92P  0.00P  
10/20/2014 06:45 MST0.49P  0.91P  0.00P  
10/20/2014 07:00 MST0.49P  0.91P  0.00P  
10/20/2014 07:15 MST0.49P  0.91P  0.00P  
10/20/2014 07:30 MST0.49P  0.91P  0.00P  
10/20/2014 07:45 MST0.47P  0.90P  0.00P  
10/20/2014 08:00 MST0.52P  0.92P  0.00P  
10/20/2014 08:15 MST0.49P  0.91P  0.00P  
10/20/2014 08:30 MST0.52P  0.92P  0.00P  
10/20/2014 08:45 MST0.49P  0.91P  0.00P  
10/20/2014 09:00 MST0.49P  0.91P  0.00P  
10/20/2014 09:15 MST0.49P  0.91P  0.00P  
10/20/2014 09:30 MST0.47P  0.90P  0.00P  
10/20/2014 09:45 MST0.49P  0.91P  0.00P  
10/20/2014 10:00 MST0.52P  0.92P  0.00P  
10/20/2014 10:15 MST0.49P  0.91P  0.00P  
10/20/2014 10:30 MST0.49P  0.91P  0.00P  
10/20/2014 10:45 MST0.49P  0.91P  0.00P  
10/20/2014 11:00 MST0.52P  0.92P  0.00P  
10/20/2014 11:15 MST0.52P  0.92P  0.00P  
10/20/2014 11:30 MST0.49P  0.91P  0.00P  
10/20/2014 11:45 MST0.49P  0.91P  0.00P  
10/20/2014 12:00 MST0.47P  0.90P  0.00P  
10/20/2014 12:15 MST0.47P  0.90P  0.00P  
10/20/2014 12:30 MST0.49P  0.91P  0.00P  
10/20/2014 12:45 MST0.49P  0.91P  0.00P  
10/20/2014 13:00 MST0.47P  0.90P  0.00P  
10/20/2014 13:15 MST0.47P  0.90P  0.00P  
10/20/2014 13:30 MST0.47P  0.90P  0.00P  
10/20/2014 13:45 MST0.49P  0.91P  0.00P  
10/20/2014 14:00 MST0.47P  0.90P  0.00P  
10/20/2014 14:15 MST0.49P  0.91P  0.00P  
10/20/2014 14:30 MST0.49P  0.91P  0.03P  
10/20/2014 14:45 MST0.54P  0.93P  0.06P  
10/20/2014 15:00 MST0.54P  0.93P  0.00P  
10/20/2014 15:15 MST0.52P  0.92P  0.00P  
10/20/2014 15:30 MST0.49P  0.91P  0.01P  
10/20/2014 15:45 MST0.49P  0.91P  0.00P  
10/20/2014 16:00 MST0.49P  0.91P  0.00P  
10/20/2014 16:15 MST0.49P  0.91P  0.00P  
10/20/2014 16:30 MST0.49P  0.91P  0.00P  
10/20/2014 16:45 MST0.49P  0.91P  0.00P  
10/20/2014 17:00 MST0.49P  0.91P  0.00P  
10/20/2014 17:15 MST0.49P  0.91P  0.00P  
10/20/2014 17:30 MST0.52P  0.92P  0.00P  
10/20/2014 17:45 MST0.49P  0.91P  0.00P  
10/20/2014 18:00 MST0.54P  0.93P  0.00P  
10/20/2014 18:15 MST0.54P  0.93P  0.00P  
10/20/2014 18:30 MST0.54P  0.93P  0.00P  
10/20/2014 18:45 MST0.52P  0.92P  0.00P  
10/20/2014 19:00 MST0.52P  0.92P  0.00P  
10/20/2014 19:15 MST0.52P  0.92P  0.00P  
10/20/2014 19:30 MST0.52P  0.92P  0.00P  
10/20/2014 19:45 MST0.52P  0.92P  0.00P  
10/20/2014 20:00 MST0.52P  0.92P  0.00P  
10/20/2014 20:15 MST0.52P  0.92P  0.00P  
10/20/2014 20:30 MST0.54P  0.93P  0.00P  
10/20/2014 20:45 MST0.52P  0.92P  0.00P  
10/20/2014 21:00 MST0.54P  0.93P  0.00P  
10/20/2014 21:15 MST0.54P  0.93P  0.00P  
10/20/2014 21:30 MST0.54P  0.93P  0.00P  
10/20/2014 21:45 MST0.52P  0.92P  0.00P  
10/20/2014 22:00 MST0.52P  0.92P  0.00P  
10/20/2014 22:15 MST0.52P  0.92P  0.00P  
10/20/2014 22:30 MST0.52P  0.92P  0.00P  
10/20/2014 22:45 MST0.52P  0.92P  0.00P  
10/20/2014 23:00 MST0.52P  0.92P  0.00P  
10/20/2014 23:15 MST0.54P  0.93P  0.00P  
10/20/2014 23:30 MST0.52P  0.92P  0.00P  
10/20/2014 23:45 MST0.52P  0.92P  0.00P  
10/21/2014 00:00 MST0.52P  0.92P  0.00P  
10/21/2014 00:15 MST0.49P  0.91P  0.00P  
10/21/2014 00:30 MST0.52P  0.92P  0.00P  
10/21/2014 00:45 MST0.52P  0.92P  0.00P  
10/21/2014 01:00 MST0.52P  0.92P  0.00P  
10/21/2014 01:15 MST0.52P  0.92P  0.00P  
10/21/2014 01:30 MST0.54P  0.93P  0.00P  
10/21/2014 01:45 MST0.54P  0.93P  0.00P  
10/21/2014 02:00 MST0.52P  0.92P  0.00P  
10/21/2014 02:15 MST0.52P  0.92P  0.00P  
10/21/2014 02:30 MST0.52P  0.92P  0.00P  
10/21/2014 02:45 MST0.52P  0.92P  0.00P  
10/21/2014 03:00 MST0.52P  0.92P  0.00P  
10/21/2014 03:15 MST0.54P  0.93P  0.00P  
10/21/2014 03:30 MST0.57P  0.94P  0.00P  
10/21/2014 03:45 MST0.52P  0.92P  0.00P  
10/21/2014 04:00 MST0.54P  0.93P  0.00P  
10/21/2014 04:15 MST0.52P  0.92P  0.00P  
10/21/2014 04:30 MST0.52P  0.92P  0.00P  
10/21/2014 04:45 MST0.52P  0.92P  0.00P  
10/21/2014 05:00 MST0.52P  0.92P  0.00P  
10/21/2014 05:15 MST0.49P  0.91P  0.00P  
10/21/2014 05:30 MST0.52P  0.92P  0.00P  
10/21/2014 05:45 MST0.49P  0.91P  0.00P  
10/21/2014 06:00 MST0.49P  0.91P  0.00P  
10/21/2014 06:15 MST0.52P  0.92P  0.00P  
10/21/2014 06:30 MST0.49P  0.91P  0.00P  
10/21/2014 06:45 MST0.49P  0.91P  0.00P  
10/21/2014 07:00 MST0.49P  0.91P  0.00P  
10/21/2014 07:15 MST0.49P  0.91P  0.00P  
10/21/2014 07:30 MST0.49P  0.91P  0.00P  
10/21/2014 07:45 MST      0.00P  
10/21/2014 08:00 MST0.49P  0.91P  0.00P  
10/21/2014 08:15 MST0.49P  0.91P  0.00P  
10/21/2014 08:30 MST0.47P  0.90P  0.00P  
10/21/2014 08:45 MST0.49P  0.91P  0.00P  
10/21/2014 09:00 MST0.49P  0.91P  0.00P  
10/21/2014 09:15 MST0.47P  0.90P  0.00P  
10/21/2014 09:30 MST0.49P  0.91P  0.00P  
10/21/2014 09:45 MST0.49P  0.91P  0.00P  
10/21/2014 10:00 MST0.52P  0.92P  0.00P  
10/21/2014 10:15 MST0.47P  0.90P  0.00P  
10/21/2014 10:30 MST0.47P  0.90P  0.00P  
10/21/2014 10:45 MST0.52P  0.92P  0.00P  
10/21/2014 11:00 MST0.49P  0.91P  0.00P  
10/21/2014 11:15 MST0.49P  0.91P  0.00P  
10/21/2014 11:30 MST0.47P  0.90P  0.00P  
10/21/2014 11:45 MST0.49P  0.91P  0.00P  
10/21/2014 12:00 MST0.47P  0.90P  0.00P  
10/21/2014 12:15 MST0.47P  0.90P  0.00P  
10/21/2014 12:30 MST0.47P  0.90P  0.00P  
10/21/2014 12:45 MST0.47P  0.90P  0.00P  
10/21/2014 13:00 MST0.47P  0.90P  0.00P  
10/21/2014 13:15 MST0.49P  0.91P  0.00P  
10/21/2014 13:30 MST0.47P  0.90P  0.00P  
10/21/2014 13:45 MST0.47P  0.90P  0.00P  
10/21/2014 14:00 MST0.47P  0.90P  0.00P  
10/21/2014 14:15 MST0.47P  0.90P  0.00P  
10/21/2014 14:30 MST0.47P  0.90P  0.00P  
10/21/2014 14:45 MST0.49P  0.91P  0.00P  
10/21/2014 15:00 MST0.47P  0.90P  0.00P  
10/21/2014 15:15 MST0.47P  0.90P  0.00P  
10/21/2014 15:30 MST0.44P  0.89P  0.00P  
10/21/2014 15:45 MST0.47P  0.90P  0.00P  
10/21/2014 16:00 MST0.47P  0.90P  0.00P  
10/21/2014 16:15 MST0.47P  0.90P  0.00P  
10/21/2014 16:30 MST0.44P  0.89P  0.00P  
10/21/2014 16:45 MST0.47P  0.90P  0.00P  
10/21/2014 17:00 MST0.47P  0.90P  0.00P  
10/21/2014 17:15 MST0.44P  0.89P  0.00P  
10/21/2014 17:30 MST0.47P  0.90P  0.00P  
10/21/2014 17:45 MST0.47P  0.90P  0.00P  
10/21/2014 18:00 MST0.44P  0.89P  0.00P  
10/21/2014 18:15 MST0.49P  0.91P  0.00P  
10/21/2014 18:30 MST0.47P  0.90P  0.00P  
10/21/2014 18:45 MST0.54P  0.93P  0.00P  
10/21/2014 19:00 MST0.47P  0.90P  0.00P  
10/21/2014 19:15 MST0.47P  0.90P  0.00P  
10/21/2014 19:30 MST0.47P  0.90P  0.00P  
10/21/2014 19:45 MST0.49P  0.91P  0.00P  
10/21/2014 20:00 MST0.47P  0.90P  0.00P  
10/21/2014 20:15 MST0.47P  0.90P  0.00P  
10/21/2014 20:30 MST0.49P  0.91P  0.00P  
10/21/2014 20:45 MST0.47P  0.90P  0.00P  
10/21/2014 21:00 MST0.47P  0.90P  0.00P  
10/21/2014 21:15 MST0.49P  0.91P  0.00P  
10/21/2014 21:30 MST0.49P  0.91P  0.00P  
10/21/2014 21:45 MST0.49P  0.91P  0.00P  
10/21/2014 22:00 MST0.49P  0.91P  0.00P  
10/21/2014 22:15 MST0.47P  0.90P  0.00P  
10/21/2014 22:30 MST0.49P  0.91P  0.00P  
10/21/2014 22:45 MST      0.00P  
10/21/2014 23:00 MST0.49P  0.91P  0.00P  
10/21/2014 23:15 MST0.49P  0.91P  0.00P  
10/21/2014 23:30 MST0.49P  0.91P  0.00P  
10/21/2014 23:45 MST0.47P  0.90P  0.00P  
10/22/2014 00:00 MST0.49P  0.91P  0.00P  
10/22/2014 00:15 MST0.49P  0.91P  0.00P  
10/22/2014 00:30 MST0.49P  0.91P  0.00P  
10/22/2014 00:45 MST0.49P  0.91P  0.00P  
10/22/2014 01:00 MST0.49P  0.91P  0.00P  
10/22/2014 01:15 MST0.49P  0.91P  0.00P  
10/22/2014 01:30 MST0.49P  0.91P  0.00P  
10/22/2014 01:45 MST0.49P  0.91P  0.00P  
10/22/2014 02:00 MST0.49P  0.91P  0.00P  
10/22/2014 02:15 MST0.49P  0.91P  0.00P  
10/22/2014 02:30 MST0.49P  0.91P  0.00P  
10/22/2014 02:45 MST0.47P  0.90P  0.00P  
10/22/2014 03:00 MST0.47P  0.90P  0.00P  
10/22/2014 03:15 MST0.49P  0.91P  0.00P  
10/22/2014 03:30 MST0.49P  0.91P  0.00P  
10/22/2014 03:45 MST0.54P  0.93P  0.00P  
10/22/2014 04:00 MST0.47P  0.90P  0.00P  
10/22/2014 04:15 MST0.47P  0.90P  0.00P  
10/22/2014 04:30 MST0.49P  0.91P  0.00P  
10/22/2014 04:45 MST0.49P  0.91P  0.00P  
10/22/2014 05:00 MST0.49P  0.91P  0.00P  
10/22/2014 05:15 MST0.49P  0.91P  0.00P  
10/22/2014 05:30 MST0.49P  0.91P  0.00P  
10/22/2014 05:45 MST0.49P  0.91P  0.00P  
10/22/2014 06:00 MST0.49P  0.91P  0.00P  
10/22/2014 06:15 MST0.54P  0.93P  0.00P  
10/22/2014 06:30 MST0.49P  0.91P  0.00P  
10/22/2014 06:45 MST0.49P  0.91P  0.00P  
10/22/2014 07:00 MST      0.00P  
10/22/2014 07:15 MST0.49P  0.91P  0.00P  
10/22/2014 07:30 MST0.49P  0.91P  0.00P  
10/22/2014 07:45 MST0.47P  0.90P  0.00P  
10/22/2014 08:00 MST0.49P  0.91P  0.00P  
10/22/2014 08:15 MST0.49P  0.91P  0.00P  
10/22/2014 08:30 MST0.47P  0.90P  0.00P  
10/22/2014 08:45 MST0.49P  0.91P  0.00P  
10/22/2014 09:00 MST0.49P  0.91P  0.00P  
10/22/2014 09:15 MST0.49P  0.91P  0.00P  
10/22/2014 09:30 MST0.49P  0.91P  0.00P  
10/22/2014 09:45 MST0.47P  0.90P  0.00P  
10/22/2014 10:00 MST0.49P  0.91P  0.00P  
10/22/2014 10:15 MST0.49P  0.91P  0.00P  
10/22/2014 10:30 MST0.49P  0.91P  0.00P  
10/22/2014 10:45 MST0.49P  0.91P  0.00P  
10/22/2014 11:00 MST0.47P  0.90P  0.00P  
10/22/2014 11:15 MST0.47P  0.90P  0.00P  
10/22/2014 11:30 MST0.49P  0.91P  0.00P  
10/22/2014 11:45 MST0.47P  0.90P  0.00P  
10/22/2014 12:00 MST0.47P  0.90P  0.00P  
10/22/2014 12:15 MST0.47P  0.90P  0.00P  
10/22/2014 12:30 MST0.47P  0.90P  0.00P  
10/22/2014 12:45 MST0.44P  0.89P  0.00P  
10/22/2014 13:00 MST0.47P  0.90P  0.00P  
10/22/2014 13:15 MST0.47P  0.90P  0.00P  
10/22/2014 13:30 MST0.47P  0.90P  0.00P  
10/22/2014 13:45 MST0.47P  0.90P  0.00P  
10/22/2014 14:00 MST0.44P  0.89P  0.00P  
10/22/2014 14:15 MST0.44P  0.89P  0.00P  
10/22/2014 14:30 MST0.47P  0.90P  0.00P  
10/22/2014 14:45 MST0.47P  0.90P  0.00P  
10/22/2014 15:00 MST0.44P  0.89P  0.00P  
10/22/2014 15:15 MST0.47P  0.90P  0.00P  
10/22/2014 15:30 MST0.47P  0.90P  0.00P  
10/22/2014 15:45 MST0.47P  0.90P  0.00P  
10/22/2014 16:00 MST0.44P  0.89P  0.00P  
10/22/2014 16:15 MST0.44P  0.89P  0.00P  
10/22/2014 16:30 MST0.44P  0.89P  0.00P  
10/22/2014 16:45 MST0.47P  0.90P  0.00P  
10/22/2014 17:00 MST0.44P  0.89P  0.00P  
10/22/2014 17:15 MST0.44P  0.89P  0.00P  
10/22/2014 17:30 MST0.44P  0.89P  0.00P  
10/22/2014 17:45 MST0.47P  0.90P  0.00P  
10/22/2014 18:00 MST0.44P  0.89P  0.00P  
10/22/2014 18:15 MST0.44P  0.89P  0.00P  
10/22/2014 18:30 MST0.47P  0.90P  0.00P  
10/22/2014 18:45 MST0.44P  0.89P  0.00P  
10/22/2014 19:00 MST0.47P  0.90P  0.00P  
10/22/2014 19:15 MST0.47P  0.90P  0.00P  
10/22/2014 19:30 MST0.44P  0.89P  0.00P  
10/22/2014 19:45 MST0.47P  0.90P  0.00P  
10/22/2014 20:00 MST0.47P  0.90P  0.00P  
10/22/2014 20:15 MST0.44P  0.89P  0.00P  
10/22/2014 20:30 MST0.47P  0.90P  0.00P  
10/22/2014 20:45 MST0.47P  0.90P  0.00P  
10/22/2014 21:00 MST0.47P  0.90P  0.00P  
10/22/2014 21:15 MST0.49P  0.91P  0.00P  
10/22/2014 21:30 MST0.49P  0.91P  0.00P  
10/22/2014 21:45 MST0.47P  0.90P  0.00P  
10/22/2014 22:00 MST0.47P  0.90P  0.00P  
10/22/2014 22:15 MST0.49P  0.91P  0.00P  
10/22/2014 22:30 MST0.47P  0.90P  0.00P  
10/22/2014 22:45 MST0.59P  0.95P  0.00P  
10/22/2014 23:00 MST0.49P  0.91P  0.00P  
10/22/2014 23:15 MST0.47P  0.90P  0.00P  
10/22/2014 23:30 MST0.49P  0.91P  0.00P  
10/22/2014 23:45 MST0.49P  0.91P  0.00P  
10/23/2014 00:00 MST0.47P  0.90P  0.00P  
10/23/2014 00:15 MST0.49P  0.91P  0.00P  
10/23/2014 00:30 MST0.49P  0.91P  0.00P  
10/23/2014 00:45 MST0.49P  0.91P  0.00P  
10/23/2014 01:00 MST0.49P  0.91P  0.00P  
10/23/2014 01:15 MST0.47P  0.90P  0.00P  
10/23/2014 01:30 MST0.49P  0.91P  0.00P  
10/23/2014 01:45 MST0.49P  0.91P  0.00P  
10/23/2014 02:00 MST0.49P  0.91P  0.00P  
10/23/2014 02:15 MST0.49P  0.91P  0.00P  
10/23/2014 02:30 MST0.47P  0.90P  0.00P  
10/23/2014 02:45 MST0.47P  0.90P  0.00P  
10/23/2014 03:00 MST0.47P  0.90P  0.00P  
10/23/2014 03:15 MST0.47P  0.90P  0.00P  
10/23/2014 03:30 MST0.47P  0.90P  0.00P  
10/23/2014 03:45 MST0.49P  0.91P  0.00P  
10/23/2014 04:00 MST0.47P  0.90P  0.00P  
10/23/2014 04:15 MST0.49P  0.91P  0.00P  
10/23/2014 04:30 MST0.49P  0.91P  0.00P  
10/23/2014 04:45 MST0.49P  0.91P  0.00P  
10/23/2014 05:00 MST0.47P  0.90P  0.00P  
10/23/2014 05:15 MST0.47P  0.90P  0.00P  
10/23/2014 05:30 MST0.47P  0.90P  0.00P  
10/23/2014 05:45 MST0.49P  0.91P  0.00P  
10/23/2014 06:00 MST0.52P  0.92P  0.00P  
10/23/2014 06:15 MST0.49P  0.91P  0.00P  
10/23/2014 06:30 MST0.49P  0.91P  0.00P  
10/23/2014 06:45 MST0.49P  0.91P  0.00P  
10/23/2014 07:00 MST0.52P  0.92P  0.00P  
10/23/2014 07:15 MST0.49P  0.91P  0.00P  
10/23/2014 07:30 MST0.47P  0.90P  0.00P  
10/23/2014 07:45 MST0.49P  0.91P  0.00P  
10/23/2014 08:00 MST0.54P  0.93P  0.00P  
10/23/2014 08:15 MST0.52P  0.92P  0.00P  
10/23/2014 08:30 MST0.52P  0.92P  0.00P  
10/23/2014 08:45 MST0.47P  0.90P  0.00P  
10/23/2014 09:00 MST0.52P  0.92P  0.00P  
10/23/2014 09:15 MST0.49P  0.91P  0.00P  
10/23/2014 09:30 MST0.49P  0.91P  0.00P  
10/23/2014 09:45 MST0.47P  0.90P  0.00P  
10/23/2014 10:00 MST0.49P  0.91P  0.00P  
10/23/2014 10:15 MST0.49P  0.91P  0.00P  
10/23/2014 10:30 MST0.47P  0.90P  0.00P  
10/23/2014 10:45 MST0.49P  0.91P  0.00P  
10/23/2014 11:00 MST0.47P  0.90P  0.00P  
10/23/2014 11:15 MST0.49P  0.91P  0.00P  
10/23/2014 11:30 MST0.49P  0.91P  0.00P  
10/23/2014 11:45 MST0.47P  0.90P  0.00P  
10/23/2014 12:00 MST0.44P  0.89P  0.00P  
10/23/2014 12:15 MST0.47P  0.90P  0.00P  
10/23/2014 12:30 MST0.47P  0.90P  0.00P  
10/23/2014 12:45 MST0.47P  0.90P  0.00P  
10/23/2014 13:00 MST0.47P  0.90P  0.00P  
10/23/2014 13:15 MST0.44P  0.89P  0.00P  
10/23/2014 13:30 MST0.47P  0.90P  0.00P  
10/23/2014 13:45 MST0.44P  0.89P  0.00P  
10/23/2014 14:00 MST0.44P  0.89P  0.00P  
10/23/2014 14:15 MST0.44P  0.89P  0.00P  
10/23/2014 14:30 MST0.44P  0.89P  0.00P  
10/23/2014 14:45 MST0.44P  0.89P  0.00P  
10/23/2014 15:00 MST0.44P  0.89P  0.00P  
10/23/2014 15:15 MST0.44P  0.89P  0.00P  
10/23/2014 15:30 MST0.49P  0.91P  0.00P  
10/23/2014 15:45 MST0.44P  0.89P  0.00P  
10/23/2014 16:00 MST0.52P  0.92P  0.00P  
10/23/2014 16:15 MST0.44P  0.89P  0.00P  
10/23/2014 16:30 MST0.44P  0.89P  0.00P  
10/23/2014 16:45 MST0.47P  0.90P  0.00P  
10/23/2014 17:00 MST0.47P  0.90P  0.00P  
10/23/2014 17:15 MST0.44P  0.89P  0.00P  
10/23/2014 17:30 MST0.47P  0.90P  0.00P  
10/23/2014 17:45 MST0.47P  0.90P  0.00P  
10/23/2014 18:00 MST0.47P  0.90P  0.00P  
10/23/2014 18:15 MST0.47P  0.90P  0.00P  
10/23/2014 18:30 MST0.44P  0.89P  0.00P  
10/23/2014 18:45 MST0.47P  0.90P  0.00P  
10/23/2014 19:00 MST0.49P  0.91P  0.00P  
10/23/2014 19:15 MST0.47P  0.90P  0.00P  
10/23/2014 19:30 MST0.47P  0.90P  0.00P  
10/23/2014 19:45 MST0.44P  0.89P  0.00P  
10/23/2014 20:00 MST0.47P  0.90P  0.00P  
10/23/2014 20:15 MST0.47P  0.90P  0.00P  
10/23/2014 20:30 MST0.47P  0.90P  0.00P  
10/23/2014 20:45 MST0.49P  0.91P  0.00P  
10/23/2014 21:00 MST0.47P  0.90P  0.00P  
10/23/2014 21:15 MST0.47P  0.90P  0.00P  
10/23/2014 21:30 MST0.47P  0.90P  0.00P  
10/23/2014 21:45 MST0.47P  0.90P  0.00P  
10/23/2014 22:00 MST0.47P  0.90P  0.00P  
10/23/2014 22:15 MST0.47P  0.90P  0.00P  
10/23/2014 22:30 MST0.47P  0.90P  0.00P  
10/23/2014 22:45 MST0.47P  0.90P  0.00P  
10/23/2014 23:00 MST0.47P  0.90P  0.00P  
10/23/2014 23:15 MST0.47P  0.90P  0.00P  
10/23/2014 23:30 MST0.47P  0.90P  0.00P  
10/23/2014 23:45 MST0.47P  0.90P  0.00P  
10/24/2014 00:00 MST0.47P  0.90P  0.00P  
10/24/2014 00:15 MST0.47P  0.90P  0.00P  
10/24/2014 00:30 MST0.49P  0.91P  0.00P  
10/24/2014 00:45 MST0.49P  0.91P  0.00P  
10/24/2014 01:00 MST0.49P  0.91P  0.00P  
10/24/2014 01:15 MST0.49P  0.91P  0.00P  
10/24/2014 01:30 MST0.47P  0.90P  0.00P  
10/24/2014 01:45 MST0.49P  0.91P  0.00P  
10/24/2014 02:00 MST0.47P  0.90P  0.00P  
10/24/2014 02:15 MST0.47P  0.90P  0.00P  

Explanation
  P  Provisional data subject to revision.